Provisional Data: Tuscarora Creek near Woodhull, NY


Please select a monitoring station.
Please select start date.
Please select start date.

Toggle Unit: C/F Toggle Unit: C/F
Sample Time Temperature (C) Temperature (F) Specific Conductivity (mS/cm) pH   Turbidity (NTU+) DO (mg/L)
3/23/2021 12:00:00 AM 6.14 43.052 0.248 7.63 9.9 11.54
3/23/2021 12:15:00 AM 5.99 42.782 0.248 7.62 11.7 11.57
3/23/2021 12:30:00 AM 5.85 42.53 0.248 7.61 9.43 11.64
3/23/2021 12:45:00 AM 5.7 42.26 0.248 7.61 10.31 11.69
3/23/2021 1:00:00 AM 5.56 42.008 0.249 7.61 9.35 11.74
3/23/2021 1:15:00 AM 5.42 41.756 0.249 7.6 9.03 11.78
3/23/2021 1:30:00 AM 5.27 41.486 0.249 7.6 9.38 11.85
3/23/2021 1:45:00 AM 5.12 41.216 0.25 7.6 10.01 11.9
3/23/2021 2:00:00 AM 4.99 40.982 0.25 7.6 16.98 11.92
3/23/2021 2:15:00 AM 4.85 40.73 0.25 7.6 12.7 11.99
3/23/2021 2:30:00 AM 4.72 40.496 0.25 7.6 45.45 12.05
3/23/2021 2:45:00 AM 4.59 40.262 0.249 7.6 11.93 12.1
3/23/2021 3:00:00 AM 4.46 40.028 0.25 7.61 12.99 12.13
3/23/2021 3:15:00 AM 4.35 39.83 0.25 7.6 13.65 12.17
3/23/2021 3:30:00 AM 4.22 39.596 0.251 7.6 27.3 12.2
3/23/2021 3:45:00 AM 4.11 39.398 0.251 7.61 10.16 12.24
3/23/2021 4:00:00 AM 3.99 39.182 0.251 7.61 10.44 12.29
3/23/2021 4:15:00 AM 3.89 39.002 0.251 7.6 9.9 12.34
3/23/2021 4:30:00 AM 3.77 38.786 0.251 7.61 9 12.39
3/23/2021 4:45:00 AM 3.66 38.588 0.251 7.61 10.89 12.42
3/23/2021 5:00:00 AM 3.55 38.39 0.251 7.61 11.47 12.46
3/23/2021 5:15:00 AM 3.45 38.21 0.251 7.61 10.48 12.47
3/23/2021 5:30:00 AM 3.34 38.012 0.251 7.61 10.07 12.53
3/23/2021 5:45:00 AM 3.23 37.814 0.252 7.61 9.58 12.59
3/23/2021 6:00:00 AM 3.12 37.616 0.251 7.61 9.21 12.64
3/23/2021 6:15:00 AM 3.02 37.436 0.252 7.62 9.31 12.66
3/23/2021 6:30:00 AM 2.91 37.238 0.252 7.61 9.88 12.72
3/23/2021 6:45:00 AM 2.81 37.058 0.252 7.61 9.56 12.75
3/23/2021 7:00:00 AM 2.71 36.878 0.252 7.59 9.56 12.8
3/23/2021 7:15:00 AM 2.61 36.698 0.252 7.6 9.83 12.84
3/23/2021 7:30:00 AM 2.52 36.536 0.252 7.62 10.08 12.92
3/23/2021 7:45:00 AM 2.44 36.392 0.252 7.63 10.82 13.05
3/23/2021 8:00:00 AM 2.37 36.266 0.252 7.63 9.75 13.18
3/23/2021 8:15:00 AM 2.31 36.158 0.252 7.68 9.72 13.36
3/23/2021 8:30:00 AM 2.28 36.104 0.253 7.72 8.49 13.49
3/23/2021 8:45:00 AM 2.27 36.086 0.254 7.75 9.64 13.72
3/23/2021 9:00:00 AM 2.28 36.104 0.253 7.81 8.7 13.9
3/23/2021 9:15:00 AM 2.31 36.158 0.253 7.85 9.54 14.05
3/23/2021 9:30:00 AM 2.36 36.248 0.253 7.89 9.48 14.2
3/23/2021 9:45:00 AM 2.43 36.374 0.253 7.95 8.75 14.28
3/23/2021 10:00:00 AM 2.56 36.608 0.253 7.98 7.98 14.35
3/23/2021 10:15:00 AM 2.69 36.842 0.251 8.04 8.4 14.41
3/23/2021 10:30:00 AM 2.89 37.202 0.251 8.09 8.71 14.46
3/23/2021 10:45:00 AM 3.11 37.598 0.25 8.15 8.01 14.5
3/23/2021 11:00:00 AM 3.39 38.102 0.251 8.19 8.17 14.53
3/23/2021 11:15:00 AM 3.66 38.588 0.251 8.25 8.43 14.53
3/23/2021 11:30:00 AM 3.94 39.092 0.251 8.3 8.76 14.5
3/23/2021 11:45:00 AM 4.21 39.578 0.251 8.33 8.44 14.48
3/23/2021 12:00:00 PM 4.44 39.992 0.251 8.39 9.01 14.46
3/23/2021 12:15:00 PM 4.7 40.46 0.25 8.43 8.56 14.45
3/23/2021 12:30:00 PM 4.96 40.928 0.25 8.45 8.85 14.36
3/23/2021 12:45:00 PM 5.19 41.342 0.249 8.52 8.09 14.34
3/23/2021 1:00:00 PM 5.47 41.846 0.248 8.56 7.84 14.28
3/23/2021 1:15:00 PM 5.74 42.332 0.247 8.6 8.45 14.2
3/23/2021 1:30:00 PM 6.02 42.836 0.246 8.64 10.87 14.1
3/23/2021 1:45:00 PM 6.25 43.25 0.246 8.67 8.74 14.08
3/23/2021 2:00:00 PM 6.5 43.7 0.246 8.7 8.7 14
3/23/2021 2:15:00 PM 6.8 44.24 0.246 8.74 8.93 13.86
3/23/2021 2:30:00 PM 7.04 44.672 0.246 8.77 8.65 13.79
3/23/2021 2:45:00 PM 7.31 45.158 0.245 8.8 7.6 13.72
3/23/2021 3:00:00 PM 7.55 45.59 0.245 8.83 8.08 13.6
3/23/2021 3:15:00 PM 7.73 45.914 0.245 8.85 7.62 13.54
3/23/2021 3:30:00 PM 7.95 46.31 0.245 8.88 7.98 13.47
3/23/2021 3:45:00 PM 8.12 46.616 0.245 8.91 7.96 13.33
3/23/2021 4:00:00 PM 8.24 46.832 0.244 8.92 9.01 13.29
3/23/2021 4:15:00 PM 8.35 47.03 0.245 8.93 8.65 13.22
3/23/2021 4:30:00 PM 8.41 47.138 0.245 8.95 8.91 13.12
3/23/2021 4:45:00 PM 8.46 47.228 0.244 8.95 9.1 13.03
3/23/2021 5:00:00 PM 8.52 47.336 0.244 8.96 9.18 12.93
3/23/2021 5:15:00 PM 8.55 47.39 0.244 8.96 9.67 12.82
3/23/2021 5:30:00 PM 8.58 47.444 0.245 8.95 9.85 12.79
3/23/2021 5:45:00 PM 8.63 47.534 0.245 8.94 10.18 12.74
3/23/2021 6:00:00 PM 8.65 47.57 0.245 8.95 9.66 12.63
3/23/2021 6:15:00 PM 8.66 47.588 0.245 8.94 9.17 12.51
3/23/2021 6:30:00 PM 8.66 47.588 0.245 8.91 9.48 12.38
3/23/2021 6:45:00 PM 8.66 47.588 0.245 8.89 9.42 12.26
3/23/2021 7:00:00 PM 8.65 47.57 0.245 8.85 9.58 12.15
3/23/2021 7:15:00 PM 8.61 47.498 0.245 8.8 9.82 11.97
3/23/2021 7:30:00 PM 8.55 47.39 0.246 8.71 10.33 11.75
3/23/2021 7:45:00 PM 8.49 47.282 0.246 8.62 10.74 11.55
3/23/2021 8:00:00 PM 8.42 47.156 0.246 8.51 10.35 11.4
3/23/2021 8:15:00 PM 8.36 47.048 0.247 8.41 9.6 11.27
3/23/2021 8:30:00 PM 8.31 46.958 0.247 8.3 10.25 11.19
3/23/2021 8:45:00 PM 8.24 46.832 0.247 8.2 9.33 11.13
3/23/2021 9:00:00 PM 8.16 46.688 0.248 8.12 10.59 11.09
3/23/2021 9:15:00 PM 8.08 46.544 0.248 8.04 9.45 11.07
3/23/2021 9:30:00 PM 8.02 46.436 0.248 7.96 9.87 11.06
3/23/2021 9:45:00 PM 7.95 46.31 0.248 7.93 9.56 11.04
3/23/2021 10:00:00 PM 7.87 46.166 0.249 7.88 8.87 11.05
3/23/2021 10:15:00 PM 7.77 45.986 0.249 7.84 9.29 11.05
3/23/2021 10:30:00 PM 7.67 45.806 0.249 7.8 9.11 11.05
3/23/2021 10:45:00 PM 7.57 45.626 0.249 7.77 9.35 11.07
3/23/2021 11:00:00 PM 7.48 45.464 0.249 7.75 9.75 11.04
3/23/2021 11:15:00 PM 7.38 45.284 0.249 7.72 9.56 11.09
3/23/2021 11:30:00 PM 7.28 45.104 0.249 7.71 9.62 11.12
3/23/2021 11:45:00 PM 7.19 44.942 0.25 7.7 9.49 11.13
3/24/2021 12:00:00 AM 7.11 44.798 0.25 7.69 12 11.15
3/24/2021 12:15:00 AM 7.04 44.672 0.25 7.68 9.6 11.19
3/24/2021 12:30:00 AM 6.97 44.546 0.25 7.65 10 11.19
3/24/2021 12:45:00 AM 6.89 44.402 0.25 7.67 9.58 11.22
3/24/2021 1:00:00 AM 6.82 44.276 0.251 7.66 9.38 11.23
3/24/2021 1:15:00 AM 6.73 44.114 0.25 7.66 10.7 11.29
3/24/2021 1:30:00 AM 6.66 43.988 0.25 7.66 10.01 11.3
3/24/2021 1:45:00 AM 6.59 43.862 0.25 7.65 10.44 11.32
3/24/2021 2:00:00 AM 6.5 43.7 0.25 7.65 13.67 11.36
3/24/2021 2:15:00 AM 6.43 43.574 0.251 7.64 10.52 11.38
3/24/2021 2:30:00 AM 6.36 43.448 0.25 7.64 10.87 11.39
3/24/2021 2:45:00 AM 6.3 43.34 0.251 7.64 9.75 11.43
3/24/2021 3:00:00 AM 6.23 43.214 0.251 7.64 9.22 11.46
3/24/2021 3:15:00 AM 6.17 43.106 0.251 7.64 9.06 11.48
3/24/2021 3:30:00 AM 6.12 43.016 0.251 7.64 9.79 11.5
3/24/2021 3:45:00 AM 6.08 42.944 0.252 7.64 9.62 11.52
3/24/2021 4:00:00 AM 6.04 42.872 0.252 7.65 8.73 11.54
3/24/2021 4:15:00 AM 6 42.8 0.252 7.65 9.65 11.56
3/24/2021 4:30:00 AM 5.97 42.746 0.253 7.65 8.81 11.57
3/24/2021 4:45:00 AM 5.94 42.692 0.253 7.65 10.3 11.58
3/24/2021 5:00:00 AM 5.9 42.62 0.253 7.65 9.75 11.6
3/24/2021 5:15:00 AM 5.87 42.566 0.254 7.63 10.32 11.62
3/24/2021 5:30:00 AM 5.84 42.512 0.253 7.65 9.13 11.64
3/24/2021 5:45:00 AM 5.82 42.476 0.253 7.66 8.98 11.66
3/24/2021 6:00:00 AM 5.79 42.422 0.253 7.67 8.72 11.67
3/24/2021 6:15:00 AM 5.77 42.386 0.253 7.66 9.75 11.66
3/24/2021 6:30:00 AM 5.75 42.35 0.253 7.64 8.21 11.67
3/24/2021 6:45:00 AM 5.73 42.314 0.252 7.66 8.41 11.67
3/24/2021 7:00:00 AM 5.7 42.26 0.252 7.65 9.7 11.67
3/24/2021 7:15:00 AM 5.68 42.224 0.251 7.66 8.44 11.71
3/24/2021 7:30:00 AM 5.67 42.206 0.251 7.67 8.4 11.71
3/24/2021 7:45:00 AM 5.66 42.188 0.251 7.67 9.5 11.75
3/24/2021 8:00:00 AM 5.65 42.17 0.251 7.67 8.02 11.77
3/24/2021 8:15:00 AM 5.64 42.152 0.25 7.68 8.35 11.85
3/24/2021 8:30:00 AM 5.64 42.152 0.249 7.7 8.29 11.9
3/24/2021 8:45:00 AM 5.64 42.152 0.249 7.71 8 11.95
3/24/2021 9:00:00 AM 5.65 42.17 0.249 7.74 9.07 12.09
3/24/2021 9:15:00 AM 5.65 42.17 0.249 7.75 7.95 12.18
3/24/2021 9:30:00 AM 5.66 42.188 0.248 7.78 8.34 12.2
3/24/2021 9:45:00 AM 5.68 42.224 0.247 7.8 8.51 12.32
3/24/2021 10:00:00 AM 5.69 42.242 0.246 7.82 8.54 12.39
3/24/2021 10:15:00 AM 5.73 42.314 0.246 7.87 8.83 12.61
3/24/2021 10:30:00 AM 5.77 42.386 0.245 7.91 8.72 12.77
3/24/2021 10:45:00 AM 5.8 42.44 0.246 7.99 10.12 12.88
3/24/2021 11:00:00 AM 5.85 42.53 0.248 8.03 10.01 12.99
3/24/2021 11:15:00 AM 5.92 42.656 0.25 8.1 10.36 13.05
3/24/2021 11:30:00 AM 6.01 42.818 0.253 8.17 10.4 13.16
3/24/2021 11:45:00 AM 6.13 43.034 0.259 8.24 11.82 13.27
3/24/2021 12:00:00 PM 6.24 43.232 0.272 8.3 14.97 13.28
3/24/2021 12:15:00 PM 6.37 43.466 0.28 8.35 17.5 13.35
3/24/2021 12:30:00 PM 6.47 43.646 0.278 8.39 16.26 13.33
3/24/2021 12:45:00 PM 6.56 43.808 0.281 8.41 15.33 13.35
3/24/2021 1:00:00 PM 6.67 44.006 0.278 8.43 18.39 13.32
3/24/2021 1:15:00 PM 6.74 44.132 0.271 8.45 23.9 13.25
3/24/2021 1:30:00 PM 6.87 44.366 0.264 8.48 25.2 13.23
3/24/2021 1:45:00 PM 7.04 44.672 0.258 8.56 20.94 13.28
3/24/2021 2:00:00 PM 7.2 44.96 0.253 8.61 19.47 13.27
3/24/2021 2:15:00 PM 7.36 45.248 0.249 8.65 19.18 13.24
3/24/2021 2:30:00 PM 7.46 45.428 0.246 8.66 17.69 13.15
3/24/2021 2:45:00 PM 7.52 45.536 0.242 8.65 19.17 13.01
3/24/2021 3:00:00 PM 7.56 45.608 0.24 8.62 20.53 12.85
3/24/2021 3:15:00 PM 7.62 45.716 0.238 8.6 24.04 12.74
3/24/2021 3:30:00 PM 7.68 45.824 0.237 8.59 18.42 12.66
3/24/2021 3:45:00 PM 7.74 45.932 0.236 8.58 21.83 12.6
3/24/2021 4:00:00 PM 7.82 46.076 0.237 8.44 47.56 12.32
3/24/2021 4:15:00 PM 7.93 46.274 0.239 8.16 119.66 11.85
3/24/2021 4:30:00 PM 8.01 46.418 0.24 8.01 149.18 11.59
3/24/2021 4:45:00 PM 8.07 46.526 0.24 7.95 187.89 11.48
3/24/2021 5:00:00 PM 8.11 46.598 0.24 7.89 162.57 11.42
3/24/2021 5:15:00 PM 8.11 46.598 0.24 7.89 129.26 11.4
3/24/2021 5:30:00 PM 8.11 46.598 0.241 7.88 131.7 11.4
3/24/2021 5:45:00 PM 8.12 46.616 0.243 7.87 116.65 11.39
3/24/2021 6:00:00 PM 8.14 46.652 0.249 7.86 129.02 11.35
3/24/2021 6:15:00 PM 8.14 46.652 0.255 7.84 132.68 11.31
3/24/2021 6:30:00 PM 8.14 46.652 0.26 7.83 131.64 11.28
3/24/2021 6:45:00 PM 8.12 46.616 0.261 7.8 136.8 11.27
3/24/2021 7:00:00 PM 8.09 46.562 0.259 7.82 80.81 11.3
3/24/2021 7:15:00 PM 8.08 46.544 0.256 7.83 65.77 11.32
3/24/2021 7:30:00 PM 8.06 46.508 0.254 7.82 48.81 11.31
3/24/2021 7:45:00 PM 8.05 46.49 0.251 7.81 58.14 11.25
3/24/2021 8:00:00 PM 8.02 46.436 0.249 7.78 84.65 11.21
3/24/2021 8:15:00 PM 7.99 46.382 0.247 7.76 120.67 11.18
3/24/2021 8:30:00 PM 7.97 46.346 0.246 7.75 169.45 11.16
3/24/2021 8:45:00 PM 7.94 46.292 0.245 7.74 147.36 11.16
3/24/2021 9:00:00 PM 7.91 46.238 0.245 7.72 152.41 11.15
3/24/2021 9:15:00 PM 7.9 46.22 0.245 7.72 116.45 11.15
3/24/2021 9:30:00 PM 7.88 46.184 0.245 7.72 82.25 11.15
3/24/2021 9:45:00 PM 7.86 46.148 0.245 7.71 63.07 11.16
3/24/2021 10:00:00 PM 7.84 46.112 0.245 7.71 66.78 11.15
3/24/2021 10:15:00 PM 7.82 46.076 0.246 7.7 44.39 11.15
3/24/2021 10:30:00 PM 7.79 46.022 0.246 7.7 35.21 11.16
3/24/2021 10:45:00 PM 7.78 46.004 0.246 7.7 30.11 11.16
3/24/2021 11:00:00 PM 7.77 45.986 0.246 7.69 27.66 11.15
3/24/2021 11:15:00 PM 7.76 45.968 0.246 7.69 26.88 11.16
3/24/2021 11:30:00 PM 7.74 45.932 0.246 7.69 24.4 11.16
3/24/2021 11:45:00 PM 7.73 45.914 0.246 7.68 21.57 11.16
3/25/2021 12:00:00 AM 7.7 45.86 0.246 7.68 22.14 11.17
3/25/2021 12:15:00 AM 7.68 45.824 0.246 7.68 23.42 11.16
3/25/2021 12:30:00 AM 7.66 45.788 0.246 7.68 19.71 11.18
3/25/2021 12:45:00 AM 7.65 45.77 0.246 7.67 19.9 11.17
3/25/2021 1:00:00 AM 7.63 45.734 0.246 7.67 19.33 11.18
3/25/2021 1:15:00 AM 7.61 45.698 0.246 7.67 18.92 11.17
3/25/2021 1:30:00 AM 7.58 45.644 0.246 7.67 19.6 11.19
3/25/2021 1:45:00 AM 7.54 45.572 0.245 7.67 19.35 11.19
3/25/2021 2:00:00 AM 7.49 45.482 0.245 7.66 18.01 11.2
3/25/2021 2:15:00 AM 7.44 45.392 0.245 7.66 18.69 11.21
3/25/2021 2:30:00 AM 7.4 45.32 0.245 7.66 18.47 11.23
3/25/2021 2:45:00 AM 7.37 45.266 0.245 7.66 18.46 11.23
3/25/2021 3:00:00 AM 7.35 45.23 0.245 7.66 24.44 11.24
3/25/2021 3:15:00 AM 7.35 45.23 0.245 7.66 18.55 11.24
3/25/2021 3:30:00 AM 7.32 45.176 0.245 7.66 16.89 11.24
3/25/2021 3:45:00 AM 7.29 45.122 0.245 7.66 16.52 11.27
3/25/2021 4:00:00 AM 7.25 45.05 0.245 7.66 17.01 11.28
3/25/2021 4:15:00 AM 7.21 44.978 0.245 7.66 20.87 11.28
3/25/2021 4:30:00 AM 7.15 44.87 0.245 7.65 18.31 11.28
3/25/2021 4:45:00 AM 7.1 44.78 0.245 7.64 18.05 11.31
3/25/2021 5:00:00 AM 7.04 44.672 0.245 7.65 16.65 11.33
3/25/2021 5:15:00 AM 6.97 44.546 0.245 7.64 16.98 11.34
3/25/2021 5:30:00 AM 6.91 44.438 0.245 7.64 16.74 11.36
3/25/2021 5:45:00 AM 6.86 44.348 0.245 7.64 16.97 11.37
3/25/2021 6:00:00 AM 6.8 44.24 0.245 7.65 16.99 11.39
3/25/2021 6:15:00 AM 6.75 44.15 0.245 7.64 17.81 11.41
3/25/2021 6:30:00 AM 6.7 44.06 0.245 7.64 15.37 11.43
3/25/2021 6:45:00 AM 6.64 43.952 0.245 7.64 16.54 11.45
3/25/2021 7:00:00 AM 6.58 43.844 0.245 7.64 16.39 11.48
3/25/2021 7:15:00 AM 6.52 43.736 0.245 7.64 16.66 11.5
3/25/2021 7:30:00 AM 6.46 43.628 0.245 7.64 15.58 11.55
3/25/2021 7:45:00 AM 6.41 43.538 0.245 7.66 16.74 11.67
3/25/2021 8:00:00 AM 6.36 43.448 0.245 7.68 17.42 11.79
3/25/2021 8:15:00 AM 6.34 43.412 0.245 7.71 16.39 11.94
3/25/2021 8:30:00 AM 6.31 43.358 0.245 7.75 13.52 12.1
3/25/2021 8:45:00 AM 6.29 43.322 0.245 7.78 13.78 12.18
3/25/2021 9:00:00 AM 6.3 43.34 0.245 7.82 13.26 12.36
3/25/2021 9:15:00 AM 6.33 43.394 0.245 7.86 14.97 12.48
3/25/2021 9:30:00 AM 6.39 43.502 0.244 7.91 15.04 12.57
3/25/2021 9:45:00 AM 6.49 43.682 0.245 7.96 14.33 12.68
3/25/2021 10:00:00 AM 6.61 43.898 0.244 8.02 14.5 12.75
3/25/2021 10:15:00 AM 6.74 44.132 0.244 8.07 14.3 12.83
3/25/2021 10:30:00 AM 6.9 44.42 0.243 8.14 14.09 12.9
3/25/2021 10:45:00 AM 7.08 44.744 0.244 8.19 13.51 12.96
3/25/2021 11:00:00 AM 7.27 45.086 0.243 8.27 13.39 12.99
3/25/2021 11:15:00 AM 7.49 45.482 0.243 8.34 12.68 13.02
3/25/2021 11:30:00 AM 7.74 45.932 0.243 8.4 12.9 13.01
3/25/2021 11:45:00 AM 8.02 46.436 0.242 8.47 12.67 13.02
3/25/2021 12:00:00 PM 8.33 46.994 0.242 8.51 14.17 13
3/25/2021 12:15:00 PM 8.65 47.57 0.242 8.55 12.75 12.97
3/25/2021 12:30:00 PM 8.97 48.146 0.242 8.6 13.97 12.93
3/25/2021 12:45:00 PM 9.26 48.668 0.242 8.64 12.97 12.9
3/25/2021 1:00:00 PM 9.56 49.208 0.241 8.69 11.55 12.83
3/25/2021 1:15:00 PM 9.84 49.712 0.241 8.72 12.72 12.81
3/25/2021 1:30:00 PM 10.09 50.162 0.241 8.75 14.69 12.66
3/25/2021 1:45:00 PM 10.33 50.594 0.241 8.78 14.16 12.65
3/25/2021 2:00:00 PM 10.58 51.044 0.24 8.79 13.74 12.59
3/25/2021 2:15:00 PM 10.86 51.548 0.24 8.84 13.66 12.54
3/25/2021 2:30:00 PM 11.14 52.052 0.24 8.87 13.08 12.47
3/25/2021 2:45:00 PM 11.41 52.538 0.24 8.9 13.62 12.38
3/25/2021 3:00:00 PM 11.64 52.952 0.24 8.92 13.37 12.31
3/25/2021 3:15:00 PM 11.85 53.33 0.24 8.94 27.58 9.65
3/25/2021 3:30:00 PM 12.02 53.636 0.24 8.94 14.49 12.15
3/25/2021 3:45:00 PM 12.17 53.906 0.239 8.97 11.27 12.06
3/25/2021 4:00:00 PM 12.29 54.122 0.239 8.97 12.39 11.98
3/25/2021 4:15:00 PM 12.39 54.302 0.239 8.98 11.72 11.92
3/25/2021 4:30:00 PM 12.45 54.41 0.24 8.98 11.37 11.82
3/25/2021 4:45:00 PM 12.5 54.5 0.239 8.98 10.91 11.71
3/25/2021 5:00:00 PM 12.52 54.536 0.24 8.94 23.61 11.61
3/25/2021 5:15:00 PM 12.53 54.554 0.239 8.94 13.29 11.47
3/25/2021 5:30:00 PM 12.54 54.572 0.239 8.9 12.38 11.35
3/25/2021 5:45:00 PM 12.53 54.554 0.239 8.89 10.89 11.21
3/25/2021 6:00:00 PM 12.52 54.536 0.24 8.85 11.54 11.1
3/25/2021 6:15:00 PM 12.5 54.5 0.24 8.8 11.45 10.95
3/25/2021 6:30:00 PM 12.48 54.464 0.24 8.75 11.27 10.83
3/25/2021 6:45:00 PM 12.44 54.392 0.24 8.68 13.3 10.69
3/25/2021 7:00:00 PM 12.4 54.32 0.24 8.6 11.56 10.53
3/25/2021 7:15:00 PM 12.34 54.212 0.241 8.51 11.43 10.41
3/25/2021 7:30:00 PM 12.28 54.104 0.241 8.41 11.27 10.28
3/25/2021 7:45:00 PM 12.21 53.978 0.241 8.31 11.89 10.18
3/25/2021 8:00:00 PM 12.14 53.852 0.242 8.2 11.64 10.1
3/25/2021 8:15:00 PM 12.06 53.708 0.242 8.11 12.79 10.05
3/25/2021 8:30:00 PM 11.98 53.564 0.242 8.02 12.79 10.04
3/25/2021 8:45:00 PM 11.9 53.42 0.242 7.95 12.62 10
3/25/2021 9:00:00 PM 11.82 53.276 0.243 7.9 11.66 10
3/25/2021 9:15:00 PM 11.75 53.15 0.243 7.85 12.01 9.98
3/25/2021 9:30:00 PM 11.67 53.006 0.244 7.82 12.49 9.97
3/25/2021 9:45:00 PM 11.59 52.862 0.243 7.79 19.28 9.97
3/25/2021 10:00:00 PM 11.52 52.736 0.244 7.76 12.32 9.98
3/25/2021 10:15:00 PM 11.44 52.592 0.244 7.75 12.31 9.98
3/25/2021 10:30:00 PM 11.34 52.412 0.245 7.73 11.8 10
3/25/2021 10:45:00 PM 11.26 52.268 0.245 7.72 12.63 10.02
3/25/2021 11:00:00 PM 11.19 52.142 0.245 7.69 130.99 9.98
3/25/2021 11:15:00 PM 11.12 52.016 0.246 7.69 16.61 10.03
3/25/2021 11:30:00 PM 11.05 51.89 0.246 7.71 11.85 10.04
3/25/2021 11:45:00 PM 10.98 51.764 0.246 7.67 11.3 10.08
3/26/2021 12:00:00 AM 10.92 51.656 0.246 7.66 12.61 10.08
3/26/2021 12:15:00 AM 10.86 51.548 0.246 7.66 11.97 10.1
3/26/2021 12:30:00 AM 10.79 51.422 0.246 7.66 11.68 10.11
3/26/2021 12:45:00 AM 10.74 51.332 0.246 7.66 11.8 10.13
3/26/2021 1:00:00 AM 10.68 51.224 0.246 7.66 11.42 10.16
3/26/2021 1:15:00 AM 10.63 51.134 0.247 7.66 14.18 10.14
3/26/2021 1:30:00 AM 10.57 51.026 0.247 7.66 31.22 10.17
3/26/2021 1:45:00 AM 10.52 50.936 0.247 7.64 253.9 10.18
3/26/2021 2:00:00 AM 10.46 50.828 0.247 7.65 13.55 10.19
3/26/2021 2:15:00 AM 10.42 50.756 0.247 7.65 13.48 10.2
3/26/2021 2:30:00 AM 10.36 50.648 0.248 7.65 15.36 10.2
3/26/2021 2:45:00 AM 10.31 50.558 0.248 7.65 18.9 10.21
3/26/2021 3:00:00 AM 10.27 50.486 0.248 7.64 38.36 10.21
3/26/2021 3:15:00 AM 10.22 50.396 0.248 7.65 15.85 10.23
3/26/2021 3:30:00 AM 10.18 50.324 0.248 7.64 141.68 10.24
3/26/2021 3:45:00 AM 10.13 50.234 0.249 7.65 15.71 10.23
3/26/2021 4:00:00 AM 10.09 50.162 0.249 7.64 12.61 10.25
3/26/2021 4:15:00 AM 10.04 50.072 0.249 7.62 48.06 10.24
3/26/2021 4:30:00 AM 9.99 49.982 0.249 7.64 28.3 10.27
3/26/2021 4:45:00 AM 9.96 49.928 0.249 7.64 36.53 10.26
3/26/2021 5:00:00 AM 9.94 49.892 0.25 7.65 18.44 10.26
3/26/2021 5:15:00 AM 9.89 49.802 0.249 7.65 11.96 10.3
3/26/2021 5:30:00 AM 9.84 49.712 0.25 7.63 372.22 10.28
3/26/2021 5:45:00 AM 9.78 49.604 0.25 7.64 12.08 10.27
3/26/2021 6:00:00 AM 9.73 49.514 0.25 7.65 12.73 10.31
3/26/2021 6:15:00 AM 9.68 49.424 0.25 7.65 15.53 10.32
3/26/2021 6:30:00 AM 9.67 49.406 0.25 7.64 15.05 10.34
3/26/2021 6:45:00 AM 9.66 49.388 0.249 7.66 15.69 10.33
3/26/2021 7:00:00 AM 9.64 49.352 0.249 7.66 19.49 10.32
3/26/2021 7:15:00 AM 9.62 49.316 0.249 7.67 12.68 10.35
3/26/2021 7:30:00 AM 9.62 49.316 0.249 7.68 16.55 10.39
3/26/2021 7:45:00 AM 9.63 49.334 0.249 7.69 79.55 10.44
3/26/2021 8:00:00 AM 9.61 49.298 0.249 7.71 17.52 10.55
3/26/2021 8:15:00 AM 9.61 49.298 0.249 7.74 12.41 10.7
3/26/2021 8:30:00 AM 9.62 49.316 0.249 7.79 12.68 10.9
3/26/2021 8:45:00 AM 9.64 49.352 0.249 7.84 580.03 11.06
3/26/2021 9:00:00 AM 9.64 49.352 0.249 7.88 12.54 11.2
3/26/2021 9:15:00 AM 9.67 49.406 0.25 7.92 12.7 11.31
3/26/2021 9:30:00 AM 9.73 49.514 0.25 7.98 19.17 11.42
3/26/2021 9:45:00 AM 9.86 49.748 0.25 8.06 11.28 11.62
3/26/2021 10:00:00 AM 10.01 50.018 0.25 8.13 12.26 11.72
3/26/2021 10:15:00 AM 10.19 50.342 0.249 8.21 16.78 11.88
3/26/2021 10:30:00 AM 10.4 50.72 0.249 8.28 11.16 11.98
3/26/2021 10:45:00 AM 10.55 50.99 0.249 8.36 146.79 12.03
3/26/2021 11:00:00 AM 10.69 51.242 0.248 8.4 12.07 12.03
3/26/2021 11:15:00 AM 10.89 51.602 0.248 8.46 29.84 12.06
3/26/2021 11:30:00 AM 11.07 51.926 0.248 8.53 12.72 12.1
3/26/2021 11:45:00 AM 11.28 52.304 0.247 8.56 15.29 12.09
3/26/2021 12:00:00 PM 11.32 52.376 0.247 8.6 11.93 12.07
3/26/2021 12:15:00 PM 11.49 52.682 0.247 8.65 39.48 12.08
3/26/2021 12:30:00 PM 11.73 53.114 0.247 8.73 14.5 12.11
3/26/2021 12:45:00 PM 11.68 53.024 0.247 8.71 16.01 11.95
3/26/2021 1:00:00 PM 11.78 53.204 0.246 8.75 15.37 11.96
3/26/2021 1:15:00 PM 11.81 53.258 0.246 8.76 15.18 11.92
3/26/2021 1:30:00 PM 11.92 53.456 0.245 8.8 14.56 11.89
3/26/2021 1:45:00 PM 11.97 53.546 0.245 8.81 15.44 11.89
3/26/2021 2:00:00 PM 12.04 53.672 0.244 8.85 11.39 11.88
3/26/2021 2:15:00 PM 12.09 53.762 0.244 8.86 11.09 11.84
3/26/2021 2:30:00 PM 12.08 53.744 0.244 8.86 12.85 11.73
3/26/2021 2:45:00 PM 12.02 53.636 0.243 8.84 141.77 11.54
3/26/2021 3:00:00 PM 11.94 53.492 0.243 8.81 36.3 11.42
3/26/2021 3:15:00 PM 11.87 53.366 0.244 8.79 26.3 11.35
3/26/2021 3:30:00 PM 11.81 53.258 0.244 8.77 19.87 11.27
3/26/2021 3:45:00 PM 11.75 53.15 0.244 8.76 19.95 11.29
3/26/2021 4:00:00 PM 11.72 53.096 0.244 8.77 21.97 11.33
3/26/2021 4:15:00 PM 11.69 53.042 0.244 8.78 15.87 11.34
3/26/2021 4:30:00 PM 11.67 53.006 0.244 8.81 14.2 11.4
3/26/2021 4:45:00 PM 11.62 52.916 0.245 8.79 13.75 11.38
3/26/2021 5:00:00 PM 11.56 52.808 0.245 8.79 13.79 11.34
3/26/2021 5:15:00 PM 11.51 52.718 0.245 8.78 13.18 11.32
3/26/2021 5:30:00 PM 11.42 52.556 0.245 8.74 14.56 11.26
3/26/2021 5:45:00 PM 11.33 52.394 0.246 8.7 13.04 11.17
3/26/2021 6:00:00 PM 11.24 52.232 0.247 8.64 13.85 11.04
3/26/2021 6:15:00 PM 11.13 52.034 0.249 8.58 13.34 10.95
3/26/2021 6:30:00 PM 11.03 51.854 0.251 8.51 15.43 10.83
3/26/2021 6:45:00 PM 10.93 51.674 0.252 8.44 15.21 10.77
3/26/2021 7:00:00 PM 10.83 51.494 0.253 8.36 15.07 10.7
3/26/2021 7:15:00 PM 10.73 51.314 0.252 8.3 15.57 10.64
3/26/2021 7:30:00 PM 10.63 51.134 0.252 8.23 12.51 10.59
3/26/2021 7:45:00 PM 10.53 50.954 0.252 8.16 12.51 10.54
3/26/2021 8:00:00 PM 10.44 50.792 0.252 8.09 13.07 10.5
3/26/2021 8:15:00 PM 10.33 50.594 0.251 8.03 12.19 10.47
3/26/2021 8:30:00 PM 10.23 50.414 0.251 7.98 12.3 10.46
3/26/2021 8:45:00 PM 10.14 50.252 0.25 7.93 12.23 10.46
3/26/2021 9:00:00 PM 10.05 50.09 0.251 7.89 11.91 10.46
3/26/2021 9:15:00 PM 9.95 49.91 0.25 7.86 12.19 10.45
3/26/2021 9:30:00 PM 9.86 49.748 0.25 7.83 12.5 10.47
3/26/2021 9:45:00 PM 9.77 49.586 0.25 7.81 11.28 10.48
3/26/2021 10:00:00 PM 9.68 49.424 0.25 7.79 10.87 10.5
3/26/2021 10:15:00 PM 9.58 49.244 0.25 7.77 11.92 10.52
3/26/2021 10:30:00 PM 9.49 49.082 0.25 7.75 11.69 10.53
3/26/2021 10:45:00 PM 9.4 48.92 0.25 7.75 10.82 10.56
3/26/2021 11:00:00 PM 9.31 48.758 0.25 7.71 10.75 10.57
3/26/2021 11:15:00 PM 9.23 48.614 0.25 7.72 10.56 10.59
3/26/2021 11:30:00 PM 9.16 48.488 0.25 7.72 10.54 10.61
3/26/2021 11:45:00 PM 9.09 48.362 0.251 7.71 10.85 10.64
3/27/2021 12:00:00 AM 9.02 48.236 0.251 7.71 10.5 10.64
3/27/2021 12:15:00 AM 8.96 48.128 0.251 7.7 10.84 10.66
3/27/2021 12:30:00 AM 8.89 48.002 0.252 7.7 11.06 10.68
3/27/2021 12:45:00 AM 8.83 47.894 0.252 7.69 11.9 10.7
3/27/2021 1:00:00 AM 8.76 47.768 0.252 7.69 12.53 10.72
3/27/2021 1:15:00 AM 8.71 47.678 0.252 7.69 12.53 10.75
3/27/2021 1:30:00 AM 8.66 47.588 0.253 7.69 12.3 10.75
3/27/2021 1:45:00 AM 8.59 47.462 0.253 7.66 11.95 10.78
3/27/2021 2:00:00 AM 8.54 47.372 0.253 7.69 11.05 10.8
3/27/2021 2:15:00 AM 8.48 47.264 0.254 7.68 12.79 10.81
3/27/2021 2:30:00 AM 8.43 47.174 0.254 7.68 10.69 10.82
3/27/2021 2:45:00 AM 8.37 47.066 0.254 7.67 10.49 10.84
3/27/2021 3:00:00 AM 8.31 46.958 0.254 7.68 11.14 10.88
3/27/2021 3:15:00 AM 8.26 46.868 0.255 7.67 11.59 10.86
3/27/2021 3:30:00 AM 8.2 46.76 0.255 7.65 10.84 10.91
3/27/2021 3:45:00 AM 8.15 46.67 0.255 7.67 10.71 10.91
3/27/2021 4:00:00 AM 8.1 46.58 0.255 7.67 11.3 10.94
3/27/2021 4:15:00 AM 8.05 46.49 0.256 7.68 11.23 10.95
3/27/2021 4:30:00 AM 8 46.4 0.256 7.68 10.99 10.96
3/27/2021 4:45:00 AM 7.97 46.346 0.256 7.68 11.42 10.97
3/27/2021 5:00:00 AM 7.93 46.274 0.256 7.68 10.96 10.99
3/27/2021 5:15:00 AM 7.89 46.202 0.256 7.68 11.14 11.01
3/27/2021 5:30:00 AM 7.85 46.13 0.257 7.68 10.57 11
3/27/2021 5:45:00 AM 7.81 46.058 0.256 7.68 10.57 11.02
3/27/2021 6:00:00 AM 7.78 46.004 0.257 7.68 10.58 11.04
3/27/2021 6:15:00 AM 7.74 45.932 0.257 7.68 10.44 11.05
3/27/2021 6:30:00 AM 7.7 45.86 0.257 7.68 10.02 11.05
3/27/2021 6:45:00 AM 7.66 45.788 0.257 7.68 10.57 11.07
3/27/2021 7:00:00 AM 7.62 45.716 0.257 7.67 10.53 11.09
3/27/2021 7:15:00 AM 7.59 45.662 0.257 7.69 10.68 11.13
3/27/2021 7:30:00 AM 7.55 45.59 0.257 7.7 10.72 11.17
3/27/2021 7:45:00 AM 7.52 45.536 0.257 7.7 10.25 11.2
3/27/2021 8:00:00 AM 7.5 45.5 0.257 7.7 10.33 11.26
3/27/2021 8:15:00 AM 7.48 45.464 0.257 7.72 10.46 11.32
3/27/2021 8:30:00 AM 7.46 45.428 0.257 7.74 10.65 11.48
3/27/2021 8:45:00 AM 7.46 45.428 0.257 7.78 10.17 11.6
3/27/2021 9:00:00 AM 7.47 45.446 0.257 7.82 10.22 11.83
3/27/2021 9:15:00 AM 7.5 45.5 0.257 7.88 9.85 12.09
3/27/2021 9:30:00 AM 7.52 45.536 0.256 7.93 9.36 12.16
3/27/2021 9:45:00 AM 7.55 45.59 0.257 7.99 9.56 12.32
3/27/2021 10:00:00 AM 7.62 45.716 0.256 8.07 9.33 12.51
3/27/2021 10:15:00 AM 7.66 45.788 0.256 8.11 11.39 12.59
3/27/2021 10:30:00 AM 7.7 45.86 0.257 8.16 10.46 12.63
3/27/2021 10:45:00 AM 7.76 45.968 0.256 8.22 9.64 12.73
3/27/2021 11:00:00 AM 7.83 46.094 0.256 8.27 9.86 12.79
3/27/2021 11:15:00 AM 7.96 46.328 0.256 8.34 9.21 12.88
3/27/2021 11:30:00 AM 8.07 46.526 0.255 8.42 9.13 12.95
3/27/2021 11:45:00 AM 8.3 46.94 0.255 8.47 9.17 13.02
3/27/2021 12:00:00 PM 8.57 47.426 0.255 8.54 9.15 13.08
3/27/2021 12:15:00 PM 8.74 47.732 0.255 8.6 9.29 13.12
3/27/2021 12:30:00 PM 8.91 48.038 0.255 8.64 9.13 13.09
3/27/2021 12:45:00 PM 9.26 48.668 0.256 8.7 9.49 13.1
3/27/2021 1:00:00 PM 9.59 49.262 0.256 8.74 8.74 13.1
3/27/2021 1:15:00 PM 9.85 49.73 0.256 8.77 8.92 13.05
3/27/2021 1:30:00 PM 10.14 50.252 0.255 8.8 8.87 13.01
3/27/2021 1:45:00 PM 10.44 50.792 0.254 8.86 8.93 12.96
3/27/2021 2:00:00 PM 10.65 51.17 0.254 8.88 8.94 12.93
3/27/2021 2:15:00 PM 10.79 51.422 0.254 8.91 9.38 12.87
3/27/2021 2:30:00 PM 10.95 51.71 0.255 8.92 9.62 12.84
3/27/2021 2:45:00 PM 11.08 51.944 0.255 8.96 9.17 12.78
3/27/2021 3:00:00 PM 11.19 52.142 0.255 8.97 10.45 12.73
3/27/2021 3:15:00 PM 11.32 52.376 0.254 9 9.67 12.67
3/27/2021 3:30:00 PM 11.45 52.61 0.254 9.02 8.97 12.64
3/27/2021 3:45:00 PM 11.53 52.754 0.253 9.04 9 12.54
3/27/2021 4:00:00 PM 11.61 52.898 0.253 9.04 9.37 12.47
3/27/2021 4:15:00 PM 11.68 53.024 0.252 9.06 9.08 12.39
3/27/2021 4:30:00 PM 11.73 53.114 0.252 9.08 9.03 12.32
3/27/2021 4:45:00 PM 11.79 53.222 0.251 9.08 10.39 12.28
3/27/2021 5:00:00 PM 11.84 53.312 0.251 9.09 9.31 12.17
3/27/2021 5:15:00 PM 11.88 53.384 0.251 9.09 9.45 12.08
3/27/2021 5:30:00 PM 11.92 53.456 0.251 9.09 9.2 12.02
3/27/2021 5:45:00 PM 11.93 53.474 0.251 9.08 9.12 11.85
3/27/2021 6:00:00 PM 11.92 53.456 0.251 9.06 9.51 11.68
3/27/2021 6:15:00 PM 11.89 53.402 0.251 9.05 9.76 11.55
3/27/2021 6:30:00 PM 11.85 53.33 0.251 9 10.33 11.38
3/27/2021 6:45:00 PM 11.8 53.24 0.252 8.98 9.94 11.21
3/27/2021 7:00:00 PM 11.75 53.15 0.252 8.93 9.68 11.01
3/27/2021 7:15:00 PM 11.69 53.042 0.252 8.87 9.77 10.84
3/27/2021 7:30:00 PM 11.61 52.898 0.253 8.79 9.84 10.66
3/27/2021 7:45:00 PM 11.54 52.772 0.253 8.72 10.32 10.51
3/27/2021 8:00:00 PM 11.45 52.61 0.254 8.64 9.41 10.38
3/27/2021 8:15:00 PM 11.38 52.484 0.253 8.55 9.61 10.28
3/27/2021 8:30:00 PM 11.29 52.322 0.253 8.46 9.08 10.21
3/27/2021 8:45:00 PM 11.2 52.16 0.254 8.34 9.88 10.16
3/27/2021 9:00:00 PM 11.1 51.98 0.253 8.26 9.31 10.12
3/27/2021 9:15:00 PM 11.01 51.818 0.254 8.15 16.34 10.08
3/27/2021 9:30:00 PM 10.91 51.638 0.254 8.08 9.64 10.07
3/27/2021 9:45:00 PM 10.8 51.44 0.254 8.01 8.41 10.11
3/27/2021 10:00:00 PM 10.68 51.224 0.254 7.95 10.03 10.13
3/27/2021 10:15:00 PM 10.57 51.026 0.255 7.9 9.61 10.14
3/27/2021 10:30:00 PM 10.46 50.828 0.255 7.85 10.96 10.13
3/27/2021 10:45:00 PM 10.34 50.612 0.255 7.81 9.32 10.15
3/27/2021 11:00:00 PM 10.22 50.396 0.255 7.8 10.96 10.18
3/27/2021 11:15:00 PM 10.11 50.198 0.256 7.77 12.15 10.19
3/27/2021 11:30:00 PM 9.98 49.964 0.255 7.74 11.15 10.22
3/27/2021 11:45:00 PM 9.85 49.73 0.256 7.72 11.33 10.26
3/28/2021 12:00:00 AM 9.72 49.496 0.256 7.71 10.3 10.28
3/28/2021 12:15:00 AM 9.59 49.262 0.256 7.69 9.77 10.32
3/28/2021 12:30:00 AM 9.46 49.028 0.257 7.68 10.14 10.34
3/28/2021 12:45:00 AM 9.34 48.812 0.258 7.65 9.68 10.37
3/28/2021 1:00:00 AM 9.21 48.578 0.258 7.66 9.49 10.41
3/28/2021 1:15:00 AM 9.08 48.344 0.258 7.65 9.43 10.45
3/28/2021 1:30:00 AM 8.96 48.128 0.258 7.65 10.09 10.48
3/28/2021 1:45:00 AM 8.83 47.894 0.258 7.65 8.91 10.5
3/28/2021 2:00:00 AM 8.71 47.678 0.259 7.64 9.64 10.54
3/28/2021 2:15:00 AM 8.58 47.444 0.258 7.64 9.8 10.59
3/28/2021 2:30:00 AM 8.47 47.246 0.26 7.63 10.02 10.62
3/28/2021 2:45:00 AM 8.36 47.048 0.259 7.63 8.75 10.66
3/28/2021 3:00:00 AM 8.24 46.832 0.259 7.63 9.81 10.69
3/28/2021 3:15:00 AM 8.12 46.616 0.26 7.63 9.29 10.73
3/28/2021 3:30:00 AM 8.01 46.418 0.26 7.63 11.97 10.75
3/28/2021 3:45:00 AM 7.91 46.238 0.26 7.63 8.08 10.78
3/28/2021 4:00:00 AM 7.82 46.076 0.261 7.63 9.02 10.8
3/28/2021 4:15:00 AM 7.71 45.878 0.26 7.63 8.27 10.85
3/28/2021 4:30:00 AM 7.62 45.716 0.261 7.63 8.78 10.88
3/28/2021 4:45:00 AM 7.53 45.554 0.261 7.63 8.28 10.89
3/28/2021 5:00:00 AM 7.45 45.41 0.261 7.64 7.79 10.94
3/28/2021 5:15:00 AM 7.38 45.284 0.261 7.64 7.99 10.96
3/28/2021 5:30:00 AM 7.31 45.158 0.261 7.64 10.75 10.98
3/28/2021 5:45:00 AM 7.25 45.05 0.262 7.64 8.08 11.01
3/28/2021 6:00:00 AM 7.19 44.942 0.262 7.64 8.26 11.02
3/28/2021 6:15:00 AM 7.13 44.834 0.262 7.64 8.67 11.06
3/28/2021 6:30:00 AM 7.08 44.744 0.263 7.65 8.19 11.07
3/28/2021 6:45:00 AM 7.03 44.654 0.263 7.65 8.36 11.09
3/28/2021 7:00:00 AM 7 44.6 0.263 7.66 8.8 11.12
3/28/2021 7:15:00 AM 6.98 44.564 0.263 7.66 8.8 11.12
3/28/2021 7:30:00 AM 6.97 44.546 0.264 7.67 8.92 11.15
3/28/2021 7:45:00 AM 6.97 44.546 0.264 7.69 8.38 11.18
3/28/2021 8:00:00 AM 6.97 44.546 0.264 7.7 10.53 11.22
3/28/2021 8:15:00 AM 6.98 44.564 0.264 7.7 9.03 11.27
3/28/2021 8:30:00 AM 7 44.6 0.264 7.74 9.03 11.35
3/28/2021 8:45:00 AM 7.01 44.618 0.263 7.75 10.3 11.41
3/28/2021 9:00:00 AM 7.02 44.636 0.264 7.77 9.08 11.48
3/28/2021 9:15:00 AM 7.04 44.672 0.263 7.79 8.59 11.54
3/28/2021 9:30:00 AM 7.06 44.708 0.263 7.82 8.44 11.64
3/28/2021 9:45:00 AM 7.1 44.78 0.263 7.85 11.32 11.75
3/28/2021 10:00:00 AM 7.16 44.888 0.263 7.88 8.98 11.93
3/28/2021 10:15:00 AM 7.2 44.96 0.263 7.95 8.06 12.08
3/28/2021 10:30:00 AM 7.25 45.05 0.263 7.98 8.41 12.14
3/28/2021 10:45:00 AM 7.34 45.212 0.262 8.06 8.15 12.28
3/28/2021 11:00:00 AM 7.45 45.41 0.262 8.11 8.83 12.44
3/28/2021 11:15:00 AM 7.56 45.608 0.262 8.18 7.44 12.57
3/28/2021 11:30:00 AM 7.68 45.824 0.262 8.25 7.48 12.69
3/28/2021 11:45:00 AM 7.82 46.076 0.262 8.33 8.63 12.76
3/28/2021 12:00:00 PM 7.98 46.364 0.262 8.4 7.65 12.85
3/28/2021 12:15:00 PM 8.13 46.634 0.262 8.46 8.23 12.86
3/28/2021 12:30:00 PM 8.36 47.048 0.261 8.52 7.7 12.93
3/28/2021 12:45:00 PM 8.59 47.462 0.261 8.59 8.51 12.97
3/28/2021 1:00:00 PM 8.77 47.786 0.261 8.64 8.12 12.97
3/28/2021 1:15:00 PM 8.98 48.164 0.26 8.7 7.95 13.01
3/28/2021 1:30:00 PM 9.16 48.488 0.26 8.74 7.7 12.98
3/28/2021 1:45:00 PM 9.27 48.686 0.26 8.75 7.8 12.95
3/28/2021 2:00:00 PM 9.36 48.848 0.26 8.78 8.13 12.85
3/28/2021 2:15:00 PM 9.47 49.046 0.261 8.79 8.69 12.81
3/28/2021 2:30:00 PM 9.58 49.244 0.262 8.83 7.91 12.78
3/28/2021 2:45:00 PM 9.62 49.316 0.26 8.82 8.3 12.56
3/28/2021 3:00:00 PM 9.61 49.298 0.259 8.78 9.51 12.26
3/28/2021 3:15:00 PM 9.59 49.262 0.258 8.75 8.68 12.07
3/28/2021 3:30:00 PM 9.57 49.226 0.257 8.68 7.71 11.82
3/28/2021 3:45:00 PM 9.59 49.262 0.256 8.64 8.71 11.68
3/28/2021 4:00:00 PM 9.63 49.334 0.254 8.66 9.05 11.73
3/28/2021 4:15:00 PM 9.65 49.37 0.254 8.65 11.03 11.64
3/28/2021 4:30:00 PM 9.67 49.406 0.253 8.64 10.25 11.66
3/28/2021 4:45:00 PM 9.69 49.442 0.252 8.69 11.03 11.75
3/28/2021 5:00:00 PM 9.7 49.46 0.252 8.71 11.95 11.79
3/28/2021 5:15:00 PM 9.71 49.478 0.253 8.71 12.08 11.78
3/28/2021 5:30:00 PM 9.73 49.514 0.256 8.72 14.15 11.83
3/28/2021 5:45:00 PM 9.73 49.514 0.262 8.7 17.22 11.81
3/28/2021 6:00:00 PM 9.67 49.406 0.27 8.66 16.27 11.74
3/28/2021 6:15:00 PM 9.6 49.28 0.276 8.61 13.96 11.65
3/28/2021 6:30:00 PM 9.5 49.1 0.278 8.56 16.08 11.57
3/28/2021 6:45:00 PM 9.41 48.938 0.276 8.51 16.11 11.46
3/28/2021 7:00:00 PM 9.28 48.704 0.276 8.42 15.68 11.34
3/28/2021 7:15:00 PM 9.14 48.452 0.276 8.36 14.49 11.22
3/28/2021 7:30:00 PM 9.01 48.218 0.273 8.27 15.63 11.11
3/28/2021 7:45:00 PM 8.91 48.038 0.27 8.21 19.68 11.02
3/28/2021 8:00:00 PM 8.82 47.876 0.267 8.15 21.05 10.95
3/28/2021 8:15:00 PM 8.72 47.696 0.263 8.08 24.73 10.9
3/28/2021 8:30:00 PM 8.63 47.534 0.259 8.03 23.05 10.88
3/28/2021 8:45:00 PM 8.53 47.354 0.256 7.99 25.2 10.88
3/28/2021 9:00:00 PM 8.44 47.192 0.254 7.95 26.55 10.89
3/28/2021 9:15:00 PM 8.31 46.958 0.252 7.91 29.1 10.91
3/28/2021 9:30:00 PM 8.19 46.742 0.252 7.88 28.81 10.92
3/28/2021 9:45:00 PM 8.07 46.526 0.252 7.86 23.38 10.95
3/28/2021 10:00:00 PM 7.96 46.328 0.252 7.84 30.52 10.97
3/28/2021 10:15:00 PM 7.87 46.166 0.252 7.84 30.37 10.99
3/28/2021 10:30:00 PM 7.78 46.004 0.251 7.83 31.41 11.01
3/28/2021 10:45:00 PM 7.68 45.824 0.25 7.81 26.55 11.03
3/28/2021 11:00:00 PM 7.58 45.644 0.249 7.8 29.93 11.07
3/28/2021 11:15:00 PM 7.47 45.446 0.248 7.78 29.36 11.09
3/28/2021 11:30:00 PM 7.36 45.248 0.251 7.77 31.16 11.14
3/28/2021 11:45:00 PM 7.24 45.032 0.256 7.76 23.93 11.17
3/29/2021 12:00:00 AM 7.13 44.834 0.261 7.75 24.99 11.2
3/29/2021 12:15:00 AM 7 44.6 0.265 7.74 39.88 11.23
3/29/2021 12:30:00 AM 6.87 44.366 0.267 7.71 24.52 11.25
3/29/2021 12:45:00 AM 6.76 44.168 0.267 7.73 21.25 11.3
3/29/2021 1:00:00 AM 6.67 44.006 0.266 7.73 24.3 11.32
3/29/2021 1:15:00 AM 6.57 43.826 0.265 7.73 25.8 11.36
3/29/2021 1:30:00 AM 6.47 43.646 0.264 7.72 20.39 11.39
3/29/2021 1:45:00 AM 6.38 43.484 0.263 7.72 21.5 11.42
3/29/2021 2:00:00 AM 6.29 43.322 0.262 7.72 21.57 11.45
3/29/2021 2:15:00 AM 6.18 43.124 0.26 7.71 21.07 11.49
3/29/2021 2:30:00 AM 6.09 42.962 0.261 7.71 22.61 11.51
3/29/2021 2:45:00 AM 5.99 42.782 0.26 7.7 23.06 11.54
3/29/2021 3:00:00 AM 5.89 42.602 0.26 7.7 21.39 11.58
3/29/2021 3:15:00 AM 5.8 42.44 0.26 7.7 19.75 11.61
3/29/2021 3:30:00 AM 5.71 42.278 0.26 7.7 20.31 11.64
3/29/2021 3:45:00 AM 5.63 42.134 0.261 7.7 21.8 11.67
3/29/2021 4:00:00 AM 5.55 41.99 0.261 7.7 16.56 11.7
3/29/2021 4:15:00 AM 5.47 41.846 0.261 7.68 18.07 11.72
3/29/2021 4:30:00 AM 5.39 41.702 0.262 7.7 18.41 11.77
3/29/2021 4:45:00 AM 5.3 41.54 0.262 7.68 18.32 11.79
3/29/2021 5:00:00 AM 5.23 41.414 0.262 7.7 17.2 11.82
3/29/2021 5:15:00 AM 5.16 41.288 0.262 7.7 16.26 11.85
3/29/2021 5:30:00 AM 5.08 41.144 0.262 7.7 14.59 11.88
3/29/2021 5:45:00 AM 5.01 41.018 0.262 7.69 16.16 11.91
3/29/2021 6:00:00 AM 4.94 40.892 0.262 7.7 15.96 11.93
3/29/2021 6:15:00 AM 4.88 40.784 0.262 7.7 14.85 11.97
3/29/2021 6:30:00 AM 4.81 40.658 0.263 7.69 14.83 11.99
3/29/2021 6:45:00 AM 4.75 40.55 0.262 7.69 15.03 12.01
3/29/2021 7:00:00 AM 4.68 40.424 0.262 7.7 13.71 12.05
3/29/2021 7:15:00 AM 4.63 40.334 0.262 7.7 13.7 12.08
3/29/2021 7:30:00 AM 4.57 40.226 0.263 7.7 14.34 12.12
3/29/2021 7:45:00 AM 4.51 40.118 0.263 7.71 13.77 12.18
3/29/2021 8:00:00 AM 4.46 40.028 0.263 7.72 12.84 12.26
3/29/2021 8:15:00 AM 4.41 39.938 0.263 7.74 13 12.34
3/29/2021 8:30:00 AM 4.38 39.884 0.263 7.73 13.66 12.43
3/29/2021 8:45:00 AM 4.35 39.83 0.263 7.78 12.1 12.53
3/29/2021 9:00:00 AM 4.32 39.776 0.263 7.78 12.2 12.63
3/29/2021 9:15:00 AM 4.3 39.74 0.262 7.82 12.45 12.74
3/29/2021 9:30:00 AM 4.26 39.668 0.262 7.84 12.05 12.81
3/29/2021 9:45:00 AM 4.25 39.65 0.262 7.86 11.57 12.9
3/29/2021 10:00:00 AM 4.23 39.614 0.262 7.87 11.7 12.97
3/29/2021 10:15:00 AM 4.23 39.614 0.262 7.87 12.52 13.05
3/29/2021 10:30:00 AM 4.24 39.632 0.261 7.9 11.02 13.16
3/29/2021 10:45:00 AM 4.3 39.74 0.261 7.94 11.31 13.27
3/29/2021 11:00:00 AM 4.33 39.794 0.261 7.96 10.83 13.36
3/29/2021 11:15:00 AM 4.42 39.956 0.26 8.04 9.86 13.46
3/29/2021 11:30:00 AM 4.64 40.352 0.259 8.12 10.99 13.55
3/29/2021 11:45:00 AM 4.71 40.478 0.259 8.16 10.14 13.59
3/29/2021 12:00:00 PM 4.82 40.676 0.258 8.19 10.69 13.64
3/29/2021 12:15:00 PM 4.92 40.856 0.258 8.26 9.12 13.67
3/29/2021 12:30:00 PM 5.07 41.126 0.258 8.3 10.78 13.69
3/29/2021 12:45:00 PM 5.19 41.342 0.258 8.34 9.01 13.7
3/29/2021 1:00:00 PM 5.42 41.756 0.257 8.38 9.77 13.71
3/29/2021 1:15:00 PM 5.67 42.206 0.257 8.41 9.66 13.7
3/29/2021 1:30:00 PM 5.96 42.728 0.257 8.48 9.96 13.69
3/29/2021 1:45:00 PM 6.2 43.16 0.257 8.49 10.25 13.64
3/29/2021 2:00:00 PM 6.33 43.394 0.257 8.52 10.42 13.58
3/29/2021 2:15:00 PM 6.42 43.556 0.256 8.55 10.65 13.51
3/29/2021 2:30:00 PM 6.57 43.826 0.256 8.57 10.89 13.49
3/29/2021 2:45:00 PM 6.66 43.988 0.256 8.59 10.96 13.43
3/29/2021 3:00:00 PM 6.83 44.294 0.256 8.61 10.24 13.38
3/29/2021 3:15:00 PM 7.05 44.69 0.255 8.65 9.86 13.35
3/29/2021 3:30:00 PM 7.3 45.14 0.254 8.69 10.85 13.31
3/29/2021 3:45:00 PM 7.5 45.5 0.255 8.71 10.96 13.24
3/29/2021 4:00:00 PM 7.66 45.788 0.255 8.74 11.07 13.19
3/29/2021 4:15:00 PM 7.81 46.058 0.254 8.75 9.62 13.12
3/29/2021 4:30:00 PM 7.94 46.292 0.254 8.76 10.83 13.05
3/29/2021 4:45:00 PM 8.05 46.49 0.254 8.77 9.48 12.96
3/29/2021 5:00:00 PM 8.11 46.598 0.254 8.78 8.82 12.89
3/29/2021 5:15:00 PM 8.14 46.652 0.254 8.77 10.36 12.83
3/29/2021 5:30:00 PM 8.15 46.67 0.253 8.77 9.59 12.73
3/29/2021 5:45:00 PM 8.15 46.67 0.253 8.76 10.2 12.62
3/29/2021 6:00:00 PM 8.14 46.652 0.253 8.74 9.3 12.51
3/29/2021 6:15:00 PM 8.11 46.598 0.254 8.71 10.64 12.4
3/29/2021 6:30:00 PM 8.06 46.508 0.254 8.67 10.39 12.29
3/29/2021 6:45:00 PM 8.01 46.418 0.255 8.63 11.16 12.14
3/29/2021 7:00:00 PM 7.94 46.292 0.255 8.55 9.99 11.99
3/29/2021 7:15:00 PM 7.89 46.202 0.255 8.47 9.56 11.84
3/29/2021 7:30:00 PM 7.82 46.076 0.255 8.39 9.23 11.71
3/29/2021 7:45:00 PM 7.76 45.968 0.255 8.31 9.92 11.6
3/29/2021 8:00:00 PM 7.7 45.86 0.255 8.21 10.65 11.5
3/29/2021 8:15:00 PM 7.62 45.716 0.256 8.14 9.91 11.43
3/29/2021 8:30:00 PM 7.54 45.572 0.256 8.08 11.26 11.38
3/29/2021 8:45:00 PM 7.46 45.428 0.256 8.01 10.59 11.36
3/29/2021 9:00:00 PM 7.36 45.248 0.256 7.97 10.07 11.34
3/29/2021 9:15:00 PM 7.25 45.05 0.256 7.93 10.82 11.34
3/29/2021 9:30:00 PM 7.14 44.852 0.256 7.89 10.35 11.35
3/29/2021 9:45:00 PM 7.02 44.636 0.256 7.86 10.03 11.37
3/29/2021 10:00:00 PM 6.9 44.42 0.256 7.83 10.85 11.39
3/29/2021 10:15:00 PM 6.77 44.186 0.257 7.8 9.21 11.4
3/29/2021 10:30:00 PM 6.65 43.97 0.256 7.79 10.53 11.43
3/29/2021 10:45:00 PM 6.51 43.718 0.257 7.74 9.71 11.46
3/29/2021 11:00:00 PM 6.38 43.484 0.257 7.75 10.14 11.49
3/29/2021 11:15:00 PM 6.25 43.25 0.257 7.71 11.21 11.52
3/29/2021 11:30:00 PM 6.13 43.034 0.258 7.72 11.72 11.55
3/29/2021 11:45:00 PM 5.99 42.782 0.257 7.71 10.24 11.6
3/30/2021 12:00:00 AM 5.86 42.548 0.258 7.7 10.81 11.64
3/30/2021 12:15:00 AM 5.73 42.314 0.258 7.69 10.78 11.68
3/30/2021 12:30:00 AM 5.6 42.08 0.258 7.69 10.95 11.74
3/30/2021 12:45:00 AM 5.48 41.864 0.259 7.68 9.68 11.78
3/30/2021 1:00:00 AM 5.36 41.648 0.259 7.68 9.85 11.81
3/30/2021 1:15:00 AM 5.24 41.432 0.259 7.67 11.8 11.86
3/30/2021 1:30:00 AM 5.13 41.234 0.26 7.67 9.78 11.88
3/30/2021 1:45:00 AM 5.01 41.018 0.26 7.67 8.98 11.94
3/30/2021 2:00:00 AM 4.91 40.838 0.26 7.66 8.18 11.97
3/30/2021 2:15:00 AM 4.8 40.64 0.261 7.67 8.85 12.01
3/30/2021 2:30:00 AM 4.71 40.478 0.261 7.66 10.37 12.04
3/30/2021 2:45:00 AM 4.6 40.28 0.261 7.66 9.37 12.08
3/30/2021 3:00:00 AM 4.5 40.1 0.261 7.66 9.1 12.13
3/30/2021 3:15:00 AM 4.4 39.92 0.262 7.66 10.02 12.15
3/30/2021 3:30:00 AM 4.31 39.758 0.262 7.66 8.36 12.18
3/30/2021 3:45:00 AM 4.21 39.578 0.262 7.65 9.41 12.22
3/30/2021 4:00:00 AM 4.12 39.416 0.262 7.66 9.27 12.27
3/30/2021 4:15:00 AM 4.04 39.272 0.263 7.66 9.54 12.28
3/30/2021 4:30:00 AM 3.94 39.092 0.263 7.66 9.53 12.33
3/30/2021 4:45:00 AM 3.85 38.93 0.263 7.66 9.02 12.37
3/30/2021 5:00:00 AM 3.75 38.75 0.263 7.64 9 12.41
3/30/2021 5:15:00 AM 3.68 38.624 0.264 7.66 9.69 12.42
3/30/2021 5:30:00 AM 3.59 38.462 0.264 7.66 9.74 12.47
3/30/2021 5:45:00 AM 3.51 38.318 0.264 7.67 9.83 12.5
3/30/2021 6:00:00 AM 3.43 38.174 0.264 7.64 9.85 12.53
3/30/2021 6:15:00 AM 3.36 38.048 0.265 7.66 8.84 12.54
3/30/2021 6:30:00 AM 3.27 37.886 0.265 7.66 9.9 12.59
3/30/2021 6:45:00 AM 3.19 37.742 0.265 7.66 11.16 12.61
3/30/2021 7:00:00 AM 3.11 37.598 0.265 7.66 10.35 12.65
3/30/2021 7:15:00 AM 3.04 37.472 0.265 7.67 9.71 12.7
3/30/2021 7:30:00 AM 2.97 37.346 0.265 7.68 10.15 12.79
3/30/2021 7:45:00 AM 2.92 37.256 0.266 7.7 9.88 12.9
3/30/2021 8:00:00 AM 2.88 37.184 0.266 7.72 9.19 13.04
3/30/2021 8:15:00 AM 2.85 37.13 0.267 7.74 9.13 13.21
3/30/2021 8:30:00 AM 2.84 37.112 0.268 7.79 9.25 13.35
3/30/2021 8:45:00 AM 2.86 37.148 0.268 7.82 9.18 13.49
3/30/2021 9:00:00 AM 2.89 37.202 0.268 7.85 9.2 13.62
3/30/2021 9:15:00 AM 2.94 37.292 0.268 7.89 10.22 13.73
3/30/2021 9:30:00 AM 3.05 37.49 0.268 7.93 9.52 13.83
3/30/2021 9:45:00 AM 3.21 37.778 0.267 7.98 9.43 13.92
3/30/2021 10:00:00 AM 3.4 38.12 0.267 8.01 10.32 13.98
3/30/2021 10:15:00 AM 3.59 38.462 0.266 8.06 9.21 14.04
3/30/2021 10:30:00 AM 3.84 38.912 0.266 8.09 9.16 14.08
3/30/2021 10:45:00 AM 4.12 39.416 0.264 8.16 7.92 14.11
3/30/2021 11:00:00 AM 4.41 39.938 0.264 8.18 8.03 14.11
3/30/2021 11:15:00 AM 4.7 40.46 0.264 8.25 9.41 14.11
3/30/2021 11:30:00 AM 5 41 0.263 8.29 8.57 14.1
3/30/2021 11:45:00 AM 5.31 41.558 0.264 8.32 9.31 14.09
3/30/2021 12:00:00 PM 5.61 42.098 0.263 8.37 9.1 14.04
3/30/2021 12:15:00 PM 5.93 42.674 0.262 8.42 8.93 13.99
3/30/2021 12:30:00 PM 6.26 43.268 0.262 8.45 8.05 13.93
3/30/2021 12:45:00 PM 6.59 43.862 0.262 8.5 8.99 13.88
3/30/2021 1:00:00 PM 6.93 44.474 0.262 8.54 9.11 13.82
3/30/2021 1:15:00 PM 7.27 45.086 0.262 8.58 9.05 13.74
3/30/2021 1:30:00 PM 7.59 45.662 0.261 8.61 9.58 13.63
3/30/2021 1:45:00 PM 7.93 46.274 0.262 8.64 7.17 13.57
3/30/2021 2:00:00 PM 8.21 46.778 0.262 8.68 9.17 13.47
3/30/2021 2:15:00 PM 8.54 47.372 0.262 8.71 9.47 13.38
3/30/2021 2:30:00 PM 8.85 47.93 0.261 8.74 8.64 13.28
3/30/2021 2:45:00 PM 9.15 48.47 0.26 8.78 8.74 13.17
3/30/2021 3:00:00 PM 9.41 48.938 0.261 8.8 9.01 13.11
3/30/2021 3:15:00 PM 9.7 49.46 0.26 8.83 8.47 13.02
3/30/2021 3:30:00 PM 9.97 49.946 0.26 8.86 9.14 12.9
3/30/2021 3:45:00 PM 10.22 50.396 0.259 8.89 7.83 12.79
3/30/2021 4:00:00 PM 10.44 50.792 0.259 8.91 8.45 12.71
3/30/2021 4:15:00 PM 10.61 51.098 0.26 8.92 8.21 12.64
3/30/2021 4:30:00 PM 10.74 51.332 0.259 8.94 8.53 12.54
3/30/2021 4:45:00 PM 10.82 51.476 0.259 8.94 8.7 12.43
3/30/2021 5:00:00 PM 10.89 51.602 0.259 8.95 9.13 12.37
3/30/2021 5:15:00 PM 10.95 51.71 0.259 8.96 9.43 12.27
3/30/2021 5:30:00 PM 10.99 51.782 0.259 8.96 9.23 12.13
3/30/2021 5:45:00 PM 10.99 51.782 0.259 8.95 8.44 12.04
3/30/2021 6:00:00 PM 10.96 51.728 0.259 8.93 8.18 11.87
3/30/2021 6:15:00 PM 10.91 51.638 0.259 8.89 9.05 11.7
3/30/2021 6:30:00 PM 10.87 51.566 0.259 8.87 8.39 11.56
3/30/2021 6:45:00 PM 10.85 51.53 0.259 8.84 8.8 11.48
3/30/2021 7:00:00 PM 10.8 51.44 0.26 8.81 9.36 11.37
3/30/2021 7:15:00 PM 10.74 51.332 0.261 8.76 8.97 11.21
3/30/2021 7:30:00 PM 10.66 51.188 0.262 8.68 8.81 11.03
3/30/2021 7:45:00 PM 10.59 51.062 0.262 8.6 10.38 10.82
3/30/2021 8:00:00 PM 10.53 50.954 0.262 8.51 10.41 10.67
3/30/2021 8:15:00 PM 10.47 50.846 0.263 8.41 8.3 10.55
3/30/2021 8:30:00 PM 10.41 50.738 0.263 8.33 11.43 10.47
3/30/2021 8:45:00 PM 10.35 50.63 0.263 8.24 8.5 10.41
3/30/2021 9:00:00 PM 10.27 50.486 0.262 8.16 9.14 10.37
3/30/2021 9:15:00 PM 10.2 50.36 0.262 8.09 9.96 10.37
3/30/2021 9:30:00 PM 10.13 50.234 0.262 8.04 66.7 10.35
3/30/2021 9:45:00 PM 10.05 50.09 0.261 7.98 22.76 10.34
3/30/2021 10:00:00 PM 9.96 49.928 0.262 7.95 11.8 10.34
3/30/2021 10:15:00 PM 9.87 49.766 0.262 7.91 9.67 10.35
3/30/2021 10:30:00 PM 9.78 49.604 0.262 7.86 10.43 10.36
3/30/2021 10:45:00 PM 9.7 49.46 0.262 7.84 9.87 10.36
3/30/2021 11:00:00 PM 9.61 49.298 0.262 7.82 9.18 10.39
3/30/2021 11:15:00 PM 9.52 49.136 0.263 7.79 9.99 10.39
3/30/2021 11:30:00 PM 9.44 48.992 0.263 7.77 9.91 10.41
3/30/2021 11:45:00 PM 9.35 48.83 0.263 7.76 8.39 10.44
3/31/2021 12:00:00 AM 9.25 48.65 0.263 7.75 9.28 10.47
3/31/2021 12:15:00 AM 9.17 48.506 0.263 7.74 9.82 10.49
3/31/2021 12:30:00 AM 9.08 48.344 0.264 7.72 9.41 10.5
3/31/2021 12:45:00 AM 8.98 48.164 0.264 7.71 9.5 10.53
3/31/2021 1:00:00 AM 8.91 48.038 0.265 7.68 11.85 10.54
3/31/2021 1:15:00 AM 8.82 47.876 0.265 7.7 9.05 10.57
3/31/2021 1:30:00 AM 8.74 47.732 0.266 7.67 10.13 10.58
3/31/2021 1:45:00 AM 8.66 47.588 0.266 7.69 9.03 10.61
3/31/2021 2:00:00 AM 8.58 47.444 0.266 7.69 9.74 10.65
3/31/2021 2:15:00 AM 8.51 47.318 0.266 7.68 10.22 10.66
3/31/2021 2:30:00 AM 8.44 47.192 0.266 7.69 8.92 10.7
3/31/2021 2:45:00 AM 8.36 47.048 0.266 7.69 8.1 10.72
3/31/2021 3:00:00 AM 8.29 46.922 0.267 7.68 9.18 10.74
3/31/2021 3:15:00 AM 8.21 46.778 0.267 7.68 9.05 10.77
3/31/2021 3:30:00 AM 8.14 46.652 0.267 7.67 9.43 10.78
3/31/2021 3:45:00 AM 8.08 46.544 0.268 7.68 8.5 10.8
3/31/2021 4:00:00 AM 8.02 46.436 0.268 7.68 9.72 10.82
3/31/2021 4:15:00 AM 7.96 46.328 0.268 7.66 10.46 10.85
3/31/2021 4:30:00 AM 7.91 46.238 0.268 7.68 9.88 10.87
3/31/2021 4:45:00 AM 7.86 46.148 0.268 7.68 9.62 10.87
3/31/2021 5:00:00 AM 7.82 46.076 0.269 7.67 10.76 10.88
3/31/2021 5:15:00 AM 7.78 46.004 0.269 7.69 10.2 10.91
3/31/2021 5:30:00 AM 7.74 45.932 0.269 7.68 8.6 10.93
3/31/2021 5:45:00 AM 7.7 45.86 0.269 7.68 9.5 10.94
3/31/2021 6:00:00 AM 7.66 45.788 0.269 7.68 8.74 10.96
3/31/2021 6:15:00 AM 7.62 45.716 0.269 7.68 9.98 10.98
3/31/2021 6:30:00 AM 7.59 45.662 0.269 7.69 8.46 10.98
3/31/2021 6:45:00 AM 7.55 45.59 0.269 7.69 9 11
3/31/2021 7:00:00 AM 7.52 45.536 0.27 7.69 8.84 11
3/31/2021 7:15:00 AM 7.49 45.482 0.27 7.69 10.01 11.03
3/31/2021 7:30:00 AM 7.46 45.428 0.27 7.71 9.37 11.07
3/31/2021 7:45:00 AM 7.44 45.392 0.27 7.72 8.16 11.14
3/31/2021 8:00:00 AM 7.42 45.356 0.27 7.73 9.14 11.22
3/31/2021 8:15:00 AM 7.4 45.32 0.27 7.75 8.32 11.32
3/31/2021 8:30:00 AM 7.39 45.302 0.271 7.76 7.81 11.37
3/31/2021 8:45:00 AM 7.39 45.302 0.272 7.78 7.95 11.45
3/31/2021 9:00:00 AM 7.38 45.284 0.272 7.8 8.96 11.53
3/31/2021 9:15:00 AM 7.39 45.302 0.274 7.8 8.89 11.6
3/31/2021 9:30:00 AM 7.39 45.302 0.273 7.84 9.67 11.68
3/31/2021 9:45:00 AM 7.4 45.32 0.272 7.87 8.44 11.8
3/31/2021 10:00:00 AM 7.41 45.338 0.271 7.9 8.59 11.9
3/31/2021 10:15:00 AM 7.41 45.338 0.27 7.92 9.04 11.92
3/31/2021 10:30:00 AM 7.41 45.338 0.27 7.94 8.5 11.97
3/31/2021 10:45:00 AM 7.43 45.374 0.269 7.98 9.21 12.11
3/31/2021 11:00:00 AM 7.44 45.392 0.269 8.01 8.25 12.18
3/31/2021 11:15:00 AM 7.45 45.41 0.269 8.03 7.69 12.23
3/31/2021 11:30:00 AM 7.46 45.428 0.269 8.06 7.74 12.28
3/31/2021 11:45:00 AM 7.48 45.464 0.269 8.09 7.71 12.33
3/31/2021 12:00:00 PM 7.5 45.5 0.268 8.15 8.05 12.43
3/31/2021 12:15:00 PM 7.53 45.554 0.268 8.17 7.63 12.44
3/31/2021 12:30:00 PM 7.56 45.608 0.268 8.19 8.08 12.48
3/31/2021 12:45:00 PM 7.6 45.68 0.269 8.25 7.56 12.57
3/31/2021 1:00:00 PM 7.66 45.788 0.268 8.28 8.29 12.64
3/31/2021 1:15:00 PM 7.78 46.004 0.268 8.35 7.95 12.76
3/31/2021 1:30:00 PM 7.89 46.202 0.267 8.43 7.31 12.88
3/31/2021 1:45:00 PM 7.94 46.292 0.268 8.46 9.05 12.84
3/31/2021 2:00:00 PM 8.01 46.418 0.268 8.52 7.59 12.88
3/31/2021 2:15:00 PM 8.07 46.526 0.269 8.53 8.26 12.86
3/31/2021 2:30:00 PM 8.12 46.616 0.268 8.57 8.24 12.85
3/31/2021 2:45:00 PM 8.16 46.688 0.268 8.58 8.48 12.8
3/31/2021 3:00:00 PM 8.18 46.724 0.267 8.56 7.91 12.69
3/31/2021 3:15:00 PM 8.19 46.742 0.266 8.55 7.96 12.56
3/31/2021 3:30:00 PM 8.21 46.778 0.266 8.52 7.94 12.47
3/31/2021 3:45:00 PM 8.21 46.778 0.265 8.51 7.34 12.32
3/31/2021 4:00:00 PM 8.22 46.796 0.265 8.46 7.83 12.19
3/31/2021 4:15:00 PM 8.25 46.85 0.265 8.46 8.2 12.2
3/31/2021 4:30:00 PM 8.26 46.868 0.265 8.47 8 12.14
3/31/2021 4:45:00 PM 8.27 46.886 0.264 8.46 8.24 12.09
3/31/2021 5:00:00 PM 8.27 46.886 0.264 8.46 8.92 12.04
3/31/2021 5:15:00 PM 8.27 46.886 0.264 8.43 8.57 11.94
3/31/2021 5:30:00 PM 8.27 46.886 0.264 8.4 9.47 11.86
3/31/2021 5:45:00 PM 8.27 46.886 0.263 8.38 9.16 11.81
3/31/2021 6:00:00 PM 8.27 46.886 0.263 8.38 9.63 11.8
3/31/2021 6:15:00 PM 8.27 46.886 0.263 8.35 8.71 11.74
3/31/2021 6:30:00 PM 8.25 46.85 0.263 8.3 12.49 11.61
3/31/2021 6:45:00 PM 8.24 46.832 0.263 8.23 10.04 11.49
3/31/2021 7:00:00 PM 8.22 46.796 0.263 8.19 9 11.41
3/31/2021 7:15:00 PM 8.2 46.76 0.263 8.13 8.22 11.33
3/31/2021 7:30:00 PM 8.17 46.706 0.263 8.1 9.54 11.27
3/31/2021 7:45:00 PM 8.14 46.652 0.264 8.05 9.12 11.2
3/31/2021 8:00:00 PM 8.1 46.58 0.264 8.01 9.78 11.15
3/31/2021 8:15:00 PM 8.07 46.526 0.264 7.97 11 11.11
3/31/2021 8:30:00 PM 8.03 46.454 0.264 7.95 10.79 11.09
3/31/2021 8:45:00 PM 7.99 46.382 0.263 7.92 8.97 11.06
3/31/2021 9:00:00 PM 7.94 46.292 0.262 7.9 10.09 11.06
3/31/2021 9:15:00 PM 7.9 46.22 0.262 7.88 9.83 11.06
3/31/2021 9:30:00 PM 7.85 46.13 0.263 7.86 10.48 11.05
3/31/2021 9:45:00 PM 7.79 46.022 0.262 7.83 9.01 11.06
3/31/2021 10:00:00 PM 7.74 45.932 0.262 7.83 8.42 11.06
3/31/2021 10:15:00 PM 7.69 45.842 0.262 7.81 8.8 11.07
3/31/2021 10:30:00 PM 7.64 45.752 0.263 7.79 8.84 11.07
3/31/2021 10:45:00 PM 7.58 45.644 0.262 7.79 9.95 11.08
3/31/2021 11:00:00 PM 7.51 45.518 0.262 7.78 11.01 11.1
3/31/2021 11:15:00 PM 7.46 45.428 0.263 7.76 10.02 11.11
3/31/2021 11:30:00 PM 7.41 45.338 0.263 7.74 9.15 11.12
3/31/2021 11:45:00 PM 7.35 45.23 0.263 7.76 9.67 11.15
4/1/2021 12:00:00 AM 7.29 45.122 0.262 7.75 9.48 11.16
4/1/2021 12:15:00 AM 7.24 45.032 0.264 7.74 9.21 11.18
4/1/2021 12:30:00 AM 7.19 44.942 0.264 7.74 10.3 11.19
4/1/2021 12:45:00 AM 7.14 44.852 0.264 7.73 9.58 11.19
4/1/2021 1:00:00 AM 7.07 44.726 0.263 7.73 10.33 11.22
4/1/2021 1:15:00 AM 7 44.6 0.264 7.72 10.27 11.23
4/1/2021 1:30:00 AM 6.91 44.438 0.264 7.72 11.25 11.26
4/1/2021 1:45:00 AM 6.79 44.222 0.263 7.72 10.87 11.29
4/1/2021 2:00:00 AM 6.69 44.042 0.264 7.71 10.78 11.31
4/1/2021 2:15:00 AM 6.54 43.772 0.264 7.7 10.93 11.33
4/1/2021 2:30:00 AM 6.39 43.502 0.264 7.69 9.52 11.35
4/1/2021 2:45:00 AM 6.27 43.286 0.264 7.69 10.17 11.38
4/1/2021 3:00:00 AM 6.16 43.088 0.264 7.71 10.57 11.44
4/1/2021 3:15:00 AM 6.03 42.854 0.263 7.7 11.18 11.47
4/1/2021 3:30:00 AM 5.93 42.674 0.263 7.71 10.63 11.51
4/1/2021 3:45:00 AM 5.9 42.62 0.264 7.71 9.18 11.53
4/1/2021 4:00:00 AM 5.85 42.53 0.263 7.72 12.26 11.55
4/1/2021 4:15:00 AM 5.8 42.44 0.263 7.72 11.19 11.58
4/1/2021 4:30:00 AM 5.75 42.35 0.264 7.72 9.67 11.61
4/1/2021 4:45:00 AM 5.7 42.26 0.265 7.72 10.42 11.62
4/1/2021 5:00:00 AM 5.63 42.134 0.266 7.72 10.8 11.65
4/1/2021 5:15:00 AM 5.57 42.026 0.267 7.71 10.83 11.68
4/1/2021 5:30:00 AM 5.49 41.882 0.269 7.72 10.25 11.71
4/1/2021 5:45:00 AM 5.42 41.756 0.271 7.71 11.2 11.73
4/1/2021 6:00:00 AM 5.36 41.648 0.272 7.71 11.42 11.75
4/1/2021 6:15:00 AM 5.29 41.522 0.273 7.71 10.22 11.78
4/1/2021 6:30:00 AM 5.22 41.396 0.273 7.72 10.37 11.82
4/1/2021 6:45:00 AM 5.16 41.288 0.273 7.71 9.68 11.84
4/1/2021 7:00:00 AM 5.1 41.18 0.274 7.72 10.2 11.86
4/1/2021 7:15:00 AM 5.05 41.09 0.274 7.72 11.23 11.89
4/1/2021 7:30:00 AM 4.99 40.982 0.275 7.73 11.35 11.95
4/1/2021 7:45:00 AM 4.92 40.856 0.274 7.76 11.22 12.11
4/1/2021 8:00:00 AM 4.88 40.784 0.274 7.78 11.01 12.25
4/1/2021 8:15:00 AM 4.86 40.748 0.273 7.85 9.53 12.57
4/1/2021 8:30:00 AM 4.81 40.658 0.272 7.87 8.87 12.7
4/1/2021 8:45:00 AM 4.76 40.568 0.272 7.92 8.71 12.85
4/1/2021 9:00:00 AM 4.77 40.586 0.27 7.98 8.96 13.02
4/1/2021 9:15:00 AM 4.78 40.604 0.27 8.02 8.77 13.14
4/1/2021 9:30:00 AM 4.86 40.748 0.269 8.09 8.58 13.27
4/1/2021 9:45:00 AM 4.93 40.874 0.269 8.13 7.63 13.36
4/1/2021 10:00:00 AM 4.99 40.982 0.268 8.16 7.91 13.43
4/1/2021 10:15:00 AM 5.11 41.198 0.267 8.21 8.39 13.49
4/1/2021 10:30:00 AM 5.27 41.486 0.266 8.26 7.89 13.56
4/1/2021 10:45:00 AM 5.47 41.846 0.265 8.31 7.86 13.61
4/1/2021 11:00:00 AM 5.62 42.116 0.264 8.35 7.76 13.64
4/1/2021 11:15:00 AM 5.65 42.17 0.264 8.38 7.94 13.63
4/1/2021 11:30:00 AM 5.75 42.35 0.263 8.4 8.06 13.62
4/1/2021 11:45:00 AM 5.86 42.548 0.263 8.43 9.5 13.63
4/1/2021 12:00:00 PM 5.92 42.656 0.263 8.47 8.69 13.62
4/1/2021 12:15:00 PM 5.93 42.674 0.263 8.51 8.75 13.63
4/1/2021 12:30:00 PM 6.07 42.926 0.263 8.55 8.01 13.65
4/1/2021 12:45:00 PM 6.21 43.178 0.263 8.6 8.18 13.65
4/1/2021 1:00:00 PM 6.17 43.106 0.263 8.61 7.75 13.6
4/1/2021 1:15:00 PM 6.2 43.16 0.263 8.65 8.81 13.58
4/1/2021 1:30:00 PM 6.22 43.196 0.263 8.66 7.48 13.58
4/1/2021 1:45:00 PM 6.25 43.25 0.263 8.68 9.04 13.54
4/1/2021 2:00:00 PM 6.26 43.268 0.265 8.71 8.43 13.47
4/1/2021 2:15:00 PM 6.29 43.322 0.268 8.7 7.52 13.41
4/1/2021 2:30:00 PM 6.35 43.43 0.269 8.74 8.05 13.38
4/1/2021 2:45:00 PM 6.39 43.502 0.269 8.76 8.68 13.38
4/1/2021 3:00:00 PM 6.47 43.646 0.267 8.79 7.3 13.34
4/1/2021 3:15:00 PM 6.54 43.772 0.268 8.81 7.25 13.35
4/1/2021 3:30:00 PM 6.57 43.826 0.269 8.81 8.14 13.27
4/1/2021 3:45:00 PM 6.59 43.862 0.271 8.83 8.05 13.26
4/1/2021 4:00:00 PM 6.56 43.808 0.27 8.83 7.19 13.2
4/1/2021 4:15:00 PM 6.58 43.844 0.27 8.85 6.76 13.24
4/1/2021 4:30:00 PM 6.6 43.88 0.269 8.87 7.85 13.27
4/1/2021 4:45:00 PM 6.6 43.88 0.269 8.88 8.22 13.26
4/1/2021 5:00:00 PM 6.6 43.88 0.27 8.9 7.47 13.25
4/1/2021 5:15:00 PM 6.57 43.826 0.27 8.91 7.55 13.23
4/1/2021 5:30:00 PM 6.51 43.718 0.271 8.9 7.63 13.17
4/1/2021 5:45:00 PM 6.47 43.646 0.271 8.9 7.15 13.13
4/1/2021 6:00:00 PM 6.41 43.538 0.271 8.89 6.9 13.07
4/1/2021 6:15:00 PM 6.35 43.43 0.27 8.88 6.74 13.01
4/1/2021 6:30:00 PM 6.21 43.178 0.27 8.83 7.77 12.81
4/1/2021 6:45:00 PM 6.03 42.854 0.269 8.76 7.17 12.61
4/1/2021 7:00:00 PM 5.91 42.638 0.267 8.73 7.48 12.49
4/1/2021 7:15:00 PM 5.83 42.494 0.267 8.69 8.99 12.39
4/1/2021 7:30:00 PM 5.7 42.26 0.267 8.62 6.79 12.26
4/1/2021 7:45:00 PM 5.62 42.116 0.267 8.56 7.89 12.18
4/1/2021 8:00:00 PM 5.59 42.062 0.267 8.51 6.69 12.12
4/1/2021 8:15:00 PM 5.52 41.936 0.267 8.44 7.82 12.07
4/1/2021 8:30:00 PM 5.46 41.828 0.266 8.37 7.21 12.03
4/1/2021 8:45:00 PM 5.38 41.684 0.266 8.32 8.26 12.01
4/1/2021 9:00:00 PM 5.3 41.54 0.265 8.26 7.74 12.01
4/1/2021 9:15:00 PM 5.2 41.36 0.266 8.2 8.39 12
4/1/2021 9:30:00 PM 5.09 41.162 0.266 8.12 8.52 12.01
4/1/2021 9:45:00 PM 4.94 40.892 0.265 8.08 8.16 12.02
4/1/2021 10:00:00 PM 4.8 40.64 0.265 8.02 8.99 12.05
4/1/2021 10:15:00 PM 4.69 40.442 0.265 7.98 10.09 12.06
4/1/2021 10:30:00 PM 4.57 40.226 0.265 7.95 9.51 12.09
4/1/2021 10:45:00 PM 4.44 39.992 0.265 7.92 9.64 12.13
4/1/2021 11:00:00 PM 4.32 39.776 0.265 7.89 10.1 12.17
4/1/2021 11:15:00 PM 4.2 39.56 0.266 7.86 9.64 12.2
4/1/2021 11:30:00 PM 4.1 39.38 0.266 7.85 9 12.23
4/1/2021 11:45:00 PM 4.02 39.236 0.267 7.83 9.45 12.26
4/2/2021 12:00:00 AM 3.94 39.092 0.267 7.82 9.27 12.29
4/2/2021 12:15:00 AM 3.84 38.912 0.267 7.81 8.41 12.33
4/2/2021 12:30:00 AM 3.76 38.768 0.267 7.79 7.88 12.35
4/2/2021 12:45:00 AM 3.67 38.606 0.267 7.77 8.06 12.39
4/2/2021 1:00:00 AM 3.57 38.426 0.268 7.77 8.65 12.44
4/2/2021 1:15:00 AM 3.46 38.228 0.268 7.76 8.32 12.47
4/2/2021 1:30:00 AM 3.35 38.03 0.268 7.74 8.49 12.51
4/2/2021 1:45:00 AM 3.24 37.832 0.268 7.74 9.02 12.56
4/2/2021 2:00:00 AM 3.14 37.652 0.269 7.74 7.62 12.57
4/2/2021 2:15:00 AM 3.04 37.472 0.27 7.72 7.73 12.62
4/2/2021 2:30:00 AM 2.96 37.328 0.27 7.73 9.39 12.66
4/2/2021 2:45:00 AM 2.87 37.166 0.27 7.72 7.96 12.7
4/2/2021 3:00:00 AM 2.78 37.004 0.271 7.72 7.77 12.73
4/2/2021 3:15:00 AM 2.69 36.842 0.271 7.72 7.74 12.76
4/2/2021 3:30:00 AM 2.59 36.662 0.272 7.72 7.8 12.79
4/2/2021 3:45:00 AM 2.49 36.482 0.273 7.72 8.41 12.84
4/2/2021 4:00:00 AM 2.39 36.302 0.274 7.71 7.61 12.87
4/2/2021 4:15:00 AM 2.28 36.104 0.274 7.72 8.15 12.93
4/2/2021 4:30:00 AM 2.19 35.942 0.275 7.7 8.49 12.94
4/2/2021 4:45:00 AM 2.09 35.762 0.274 7.71 7.07 12.98
4/2/2021 5:00:00 AM 2 35.6 0.275 7.71 8.17 13.02
4/2/2021 5:15:00 AM 1.9 35.42 0.275 7.71 8.1 13.06
4/2/2021 5:30:00 AM 1.8 35.24 0.275 7.71 8.23 13.1
4/2/2021 5:45:00 AM 1.72 35.096 0.276 7.7 6.91 13.13
4/2/2021 6:00:00 AM 1.62 34.916 0.275 7.7 7.49 13.18
4/2/2021 6:15:00 AM 1.54 34.772 0.275 7.7 8.07 13.21
4/2/2021 6:30:00 AM 1.44 34.592 0.274 7.7 8.55 13.26
4/2/2021 6:45:00 AM 1.35 34.43 0.274 7.7 7.86 13.3
4/2/2021 7:00:00 AM 1.26 34.268 0.273 7.7 7.55 13.36
4/2/2021 7:15:00 AM 1.18 34.124 0.274 7.7 7.16 13.42
4/2/2021 7:30:00 AM 1.1 33.98 0.274 7.72 6.38 13.53
4/2/2021 7:45:00 AM 1.04 33.872 0.274 7.74 7.17 13.64
4/2/2021 8:00:00 AM 0.99 33.782 0.274 7.75 8.08 13.82
4/2/2021 8:15:00 AM 0.95 33.71 0.275 7.79 7.39 13.97
4/2/2021 8:30:00 AM 0.94 33.692 0.275 7.82 7.8 14.1
4/2/2021 8:45:00 AM 0.93 33.674 0.275 7.85 7.47 14.26
4/2/2021 9:00:00 AM 0.95 33.71 0.275 7.88 8.68 14.37
4/2/2021 9:15:00 AM 0.98 33.764 0.275 7.91 6.93 14.46
4/2/2021 9:30:00 AM 1.05 33.89 0.275 7.95 7.16 14.57
4/2/2021 9:45:00 AM 1.18 34.124 0.276 7.97 6.96 14.62
4/2/2021 10:00:00 AM 1.31 34.358 0.275 8 6.68 14.69
4/2/2021 10:15:00 AM 1.48 34.664 0.275 8.05 6.82 14.75
4/2/2021 10:30:00 AM 1.68 35.024 0.275 8.07 6.62 14.76
4/2/2021 10:45:00 AM 1.92 35.456 0.276 8.1 6.99 14.78
4/2/2021 11:00:00 AM 2.19 35.942 0.276 8.13 6.33 14.77
4/2/2021 11:15:00 AM 2.42 36.356 0.276 8.15 6.21 14.74
4/2/2021 11:30:00 AM 2.67 36.806 0.275 8.18 6.53 14.72
4/2/2021 11:45:00 AM 2.93 37.274 0.275 8.21 6.45 14.7
4/2/2021 12:00:00 PM 3.2 37.76 0.274 8.25 6.56 14.66
4/2/2021 12:15:00 PM 3.51 38.318 0.275 8.25 5.84 14.65
4/2/2021 12:30:00 PM 3.78 38.804 0.274 8.3 6.85 14.59
4/2/2021 12:45:00 PM 4.06 39.308 0.274 8.33 7.25 14.53
4/2/2021 1:00:00 PM 4.25 39.65 0.273 8.35 6.94 14.46
4/2/2021 1:15:00 PM 4.43 39.974 0.273 8.36 6.77 14.37
4/2/2021 1:30:00 PM 4.67 40.406 0.272 8.4 6.83 14.32
4/2/2021 1:45:00 PM 4.92 40.856 0.273 8.41 6.96 14.28
4/2/2021 2:00:00 PM 5.16 41.288 0.272 8.45 6.79 14.19
4/2/2021 2:15:00 PM 5.39 41.702 0.273 8.47 7.21 14.09
4/2/2021 2:30:00 PM 5.62 42.116 0.272 8.5 6.53 14.04
4/2/2021 2:45:00 PM 5.86 42.548 0.271 8.53 6.62 13.94
4/2/2021 3:00:00 PM 6.09 42.962 0.271 8.57 5.88 13.87
4/2/2021 3:15:00 PM 6.29 43.322 0.271 8.57 6.34 13.78
4/2/2021 3:30:00 PM 6.47 43.646 0.272 8.61 7.47 13.7
4/2/2021 3:45:00 PM 6.66 43.988 0.271 8.64 7.61 13.64
4/2/2021 4:00:00 PM 6.83 44.294 0.27 8.66 7.34 13.52
4/2/2021 4:15:00 PM 6.96 44.528 0.27 8.67 7.45 13.47
4/2/2021 4:30:00 PM 7.05 44.69 0.27 8.68 6.51 13.4
4/2/2021 4:45:00 PM 7.12 44.816 0.27 8.7 7.58 13.34
4/2/2021 5:00:00 PM 7.16 44.888 0.27 8.71 5.89 13.26
4/2/2021 5:15:00 PM 7.14 44.852 0.269 8.7 7.06 13.2
4/2/2021 5:30:00 PM 7.1 44.78 0.269 8.71 6.16 13.13
4/2/2021 5:45:00 PM 7.03 44.654 0.268 8.71 7.03 13.05
4/2/2021 6:00:00 PM 6.92 44.456 0.27 8.68 7.16 12.97
4/2/2021 6:15:00 PM 6.82 44.276 0.27 8.66 7.45 12.89
4/2/2021 6:30:00 PM 6.71 44.078 0.269 8.65 5.99 12.79
4/2/2021 6:45:00 PM 6.6 43.88 0.269 8.61 7.06 12.68
4/2/2021 7:00:00 PM 6.48 43.664 0.27 8.56 7.16 12.57
4/2/2021 7:15:00 PM 6.34 43.412 0.27 8.5 7.41 12.44
4/2/2021 7:30:00 PM 6.19 43.142 0.271 8.43 6.37 12.33
4/2/2021 7:45:00 PM 6.06 42.908 0.271 8.36 7.8 12.19
4/2/2021 8:00:00 PM 5.95 42.71 0.272 8.27 7.68 12.07
4/2/2021 8:15:00 PM 5.86 42.548 0.272 8.22 6.66 11.99
4/2/2021 8:30:00 PM 5.77 42.386 0.272 8.16 8.73 11.94
4/2/2021 8:45:00 PM 5.66 42.188 0.272 8.1 7.32 11.9
4/2/2021 9:00:00 PM 5.55 41.99 0.272 8.06 7.17 11.9
4/2/2021 9:15:00 PM 5.45 41.81 0.272 8.02 6.69 11.9
4/2/2021 9:30:00 PM 5.34 41.612 0.273 7.98 7.82 11.89
4/2/2021 9:45:00 PM 5.23 41.414 0.273 7.95 7.49 11.91
4/2/2021 10:00:00 PM 5.11 41.198 0.272 7.92 7.55 11.94
4/2/2021 10:15:00 PM 4.99 40.982 0.272 7.89 8.78 11.95
4/2/2021 10:30:00 PM 4.86 40.748 0.272 7.87 7.9 11.99
4/2/2021 10:45:00 PM 4.74 40.532 0.273 7.85 7.62 12.03
4/2/2021 11:00:00 PM 4.61 40.298 0.273 7.83 7.94 12.05
4/2/2021 11:15:00 PM 4.48 40.064 0.273 7.81 7.07 12.09
4/2/2021 11:30:00 PM 4.35 39.83 0.273 7.8 7.04 12.14
4/2/2021 11:45:00 PM 4.22 39.596 0.273 7.79 7.25 12.17
4/3/2021 12:00:00 AM 4.1 39.38 0.274 7.77 7.62 12.21
4/3/2021 12:15:00 AM 3.97 39.146 0.274 7.76 7.01 12.26
4/3/2021 12:30:00 AM 3.86 38.948 0.275 7.75 7.41 12.3
4/3/2021 12:45:00 AM 3.73 38.714 0.275 7.75 7.77 12.36
4/3/2021 1:00:00 AM 3.61 38.498 0.275 7.73 7.71 12.4
4/3/2021 1:15:00 AM 3.5 38.3 0.276 7.73 8.63 12.44
4/3/2021 1:30:00 AM 3.37 38.066 0.275 7.73 7.42 12.49
4/3/2021 1:45:00 AM 3.25 37.85 0.275 7.72 7.59 12.53
4/3/2021 2:00:00 AM 3.12 37.616 0.276 7.72 7.63 12.59
4/3/2021 2:15:00 AM 3.01 37.418 0.276 7.71 8.17 12.63
4/3/2021 2:30:00 AM 2.88 37.184 0.276 7.71 7.65 12.67
4/3/2021 2:45:00 AM 2.76 36.968 0.276 7.69 7.97 12.72
4/3/2021 3:00:00 AM 2.64 36.752 0.276 7.7 7.74 12.78
4/3/2021 3:15:00 AM 2.53 36.554 0.277 7.7 8.91 12.82
4/3/2021 3:30:00 AM 2.43 36.374 0.277 7.69 8.23 12.86
4/3/2021 3:45:00 AM 2.32 36.176 0.279 7.69 9.08 12.91
4/3/2021 4:00:00 AM 2.21 35.978 0.28 7.69 8.22 12.93
4/3/2021 4:15:00 AM 2.1 35.78 0.28 7.69 9 12.99
4/3/2021 4:30:00 AM 2.01 35.618 0.281 7.69 10.28 13.03
4/3/2021 4:45:00 AM 1.91 35.438 0.281 7.69 7.68 13.08
4/3/2021 5:00:00 AM 1.83 35.294 0.281 7.69 8.11 13.09
4/3/2021 5:15:00 AM 1.74 35.132 0.281 7.69 7.8 13.16
4/3/2021 5:30:00 AM 1.65 34.97 0.282 7.68 6.82 13.19
4/3/2021 5:45:00 AM 1.56 34.808 0.282 7.69 7.3 13.22
4/3/2021 6:00:00 AM 1.47 34.646 0.282 7.69 6.77 13.27
4/3/2021 6:15:00 AM 1.38 34.484 0.282 7.69 7.1 13.31
4/3/2021 6:30:00 AM 1.3 34.34 0.283 7.68 7.22 13.33
4/3/2021 6:45:00 AM 1.21 34.178 0.283 7.68 6.84 13.37
4/3/2021 7:00:00 AM 1.12 34.016 0.282 7.69 6.78 13.44
4/3/2021 7:15:00 AM 1.05 33.89 0.282 7.69 6.34 13.5
4/3/2021 7:30:00 AM 0.99 33.782 0.282 7.71 7.06 13.61
4/3/2021 7:45:00 AM 0.94 33.692 0.282 7.72 6.97 13.73
4/3/2021 8:00:00 AM 0.9 33.62 0.281 7.76 7.18 13.93
4/3/2021 8:15:00 AM 0.89 33.602 0.282 7.78 5.74 14.05
4/3/2021 8:30:00 AM 0.87 33.566 0.281 7.82 7.64 14.24
4/3/2021 8:45:00 AM 0.9 33.62 0.281 7.84 6.65 14.35
4/3/2021 9:00:00 AM 0.95 33.71 0.281 7.87 6.3 14.48
4/3/2021 9:15:00 AM 1.04 33.872 0.281 7.9 6.98 14.59
4/3/2021 9:30:00 AM 1.16 34.088 0.281 7.94 6.4 14.67
4/3/2021 9:45:00 AM 1.32 34.376 0.28 7.99 6.35 14.75
4/3/2021 10:00:00 AM 1.5 34.7 0.281 8.02 6.2 14.78
4/3/2021 10:15:00 AM 1.73 35.114 0.28 8.03 5.86 14.81
4/3/2021 10:30:00 AM 1.97 35.546 0.28 8.07 6.19 14.84
4/3/2021 10:45:00 AM 2.25 36.05 0.279 8.11 5.31 14.85
4/3/2021 11:00:00 AM 2.57 36.626 0.279 8.15 5.95 14.84
4/3/2021 11:15:00 AM 2.9 37.22 0.279 8.17 6.13 14.82
4/3/2021 11:30:00 AM 3.19 37.742 0.279 8.2 5.42 14.8
4/3/2021 11:45:00 AM 3.44 38.192 0.278 8.23 6.19 14.77
4/3/2021 12:00:00 PM 3.7 38.66 0.278 8.27 5.47 14.72
4/3/2021 12:15:00 PM 4.05 39.29 0.278 8.28 5.49 14.67
4/3/2021 12:30:00 PM 4.34 39.812 0.277 8.31 5.49 14.61
4/3/2021 12:45:00 PM 4.68 40.424 0.277 8.35 5.41 14.56
4/3/2021 1:00:00 PM 4.98 40.964 0.277 8.39 6.14 14.49
4/3/2021 1:15:00 PM 5.23 41.414 0.278 8.4 5.64 14.43
4/3/2021 1:30:00 PM 5.36 41.648 0.277 8.46 6.22 14.33
4/3/2021 1:45:00 PM 5.56 42.008 0.278 8.47 5.69 14.3
4/3/2021 2:00:00 PM 5.75 42.35 0.277 8.52 6.35 14.23
4/3/2021 2:15:00 PM 5.89 42.602 0.277 8.54 7.27 14.16
4/3/2021 2:30:00 PM 6 42.8 0.276 8.57 7.13 14.08
4/3/2021 2:45:00 PM 6.13 43.034 0.276 8.59 5.87 14.02
4/3/2021 3:00:00 PM 6.27 43.286 0.275 8.62 6.68 13.93
4/3/2021 3:15:00 PM 6.46 43.628 0.275 8.66 7.15 13.94
4/3/2021 3:30:00 PM 6.72 44.096 0.275 8.69 6.88 13.85
4/3/2021 3:45:00 PM 6.98 44.564 0.275 8.72 7.09 13.81
4/3/2021 4:00:00 PM 7.22 44.996 0.274 8.75 6.7 13.74
4/3/2021 4:15:00 PM 7.43 45.374 0.274 8.78 6.2 13.63
4/3/2021 4:30:00 PM 7.61 45.698 0.274 8.79 6.83 13.5
4/3/2021 4:45:00 PM 7.71 45.878 0.275 8.8 6.83 13.42
4/3/2021 5:00:00 PM 7.86 46.148 0.273 8.82 6.58 13.3
4/3/2021 5:15:00 PM 7.93 46.274 0.274 8.83 6.44 13.23
4/3/2021 5:30:00 PM 7.97 46.346 0.274 8.83 6.47 13.13
4/3/2021 5:45:00 PM 7.96 46.328 0.273 8.83 6.66 13.03
4/3/2021 6:00:00 PM 7.93 46.274 0.274 8.82 6.59 12.92
4/3/2021 6:15:00 PM 7.89 46.202 0.274 8.8 6.58 12.78
4/3/2021 6:30:00 PM 7.85 46.13 0.273 8.78 6.51 12.57
4/3/2021 6:45:00 PM 7.8 46.04 0.274 8.73 6.57 12.35
4/3/2021 7:00:00 PM 7.76 45.968 0.274 8.67 6.86 12.1
4/3/2021 7:15:00 PM 7.71 45.878 0.275 8.6 7.19 11.92
4/3/2021 7:30:00 PM 7.66 45.788 0.274 8.53 7.94 11.75
4/3/2021 7:45:00 PM 7.61 45.698 0.274 8.46 6.21 11.62
4/3/2021 8:00:00 PM 7.55 45.59 0.276 8.37 7.73 11.48
4/3/2021 8:15:00 PM 7.49 45.482 0.276 8.31 9.35 11.4
4/3/2021 8:30:00 PM 7.45 45.41 0.276 8.24 7.21 11.34
4/3/2021 8:45:00 PM 7.4 45.32 0.276 8.18 7.06 11.3
4/3/2021 9:00:00 PM 7.37 45.266 0.277 8.15 7.6 11.26
4/3/2021 9:15:00 PM 7.32 45.176 0.277 8.11 11.53 11.24
4/3/2021 9:30:00 PM 7.27 45.086 0.277 8.06 7.92 11.23
4/3/2021 9:45:00 PM 7.21 44.978 0.277 8.02 8.16 11.22
4/3/2021 10:00:00 PM 7.15 44.87 0.277 7.99 8.23 11.22
4/3/2021 10:15:00 PM 7.09 44.762 0.277 7.95 8.44 11.21
4/3/2021 10:30:00 PM 7.03 44.654 0.277 7.92 8.5 11.21
4/3/2021 10:45:00 PM 6.97 44.546 0.277 7.89 8.14 11.21
4/3/2021 11:00:00 PM 6.9 44.42 0.276 7.85 7.46 11.22
4/3/2021 11:15:00 PM 6.83 44.294 0.275 7.84 7.91 11.24
4/3/2021 11:30:00 PM 6.76 44.168 0.275 7.82 8.11 11.25
4/3/2021 11:45:00 PM 6.69 44.042 0.274 7.8 7.39 11.26
4/4/2021 12:00:00 AM 6.61 43.898 0.274 7.79 7.58 11.28
4/4/2021 12:15:00 AM 6.54 43.772 0.274 7.77 7.48 11.3
4/4/2021 12:30:00 AM 6.47 43.646 0.275 7.74 7.75 11.32
4/4/2021 12:45:00 AM 6.39 43.502 0.274 7.75 7.89 11.36
4/4/2021 1:00:00 AM 6.32 43.376 0.275 7.74 7.87 11.37
4/4/2021 1:15:00 AM 6.25 43.25 0.275 7.74 7.85 11.41
4/4/2021 1:30:00 AM 6.18 43.124 0.275 7.73 8.2 11.42
4/4/2021 1:45:00 AM 6.12 43.016 0.276 7.72 8.15 11.43
4/4/2021 2:00:00 AM 6.05 42.89 0.276 7.72 8.08 11.46
4/4/2021 2:15:00 AM 5.99 42.782 0.277 7.72 7.75 11.48
4/4/2021 2:30:00 AM 5.93 42.674 0.277 7.71 8.48 11.5
4/4/2021 2:45:00 AM 5.86 42.548 0.277 7.71 7.79 11.52
4/4/2021 3:00:00 AM 5.8 42.44 0.277 7.71 8.43 11.56
4/4/2021 3:15:00 AM 5.75 42.35 0.277 7.7 7.43 11.57
4/4/2021 3:30:00 AM 5.7 42.26 0.278 7.7 7.58 11.57
4/4/2021 3:45:00 AM 5.63 42.134 0.278 7.7 8.58 11.6
4/4/2021 4:00:00 AM 5.58 42.044 0.278 7.69 10.03 11.62
4/4/2021 4:15:00 AM 5.52 41.936 0.278 7.7 8.7 11.64
4/4/2021 4:30:00 AM 5.46 41.828 0.278 7.7 8.16 11.65
4/4/2021 4:45:00 AM 5.41 41.738 0.278 7.7 7.37 11.69
4/4/2021 5:00:00 AM 5.35 41.63 0.28 7.69 8.46 11.68
4/4/2021 5:15:00 AM 5.28 41.504 0.279 7.68 8.5 11.7
4/4/2021 5:30:00 AM 5.22 41.396 0.279 7.69 8.15 11.73
4/4/2021 5:45:00 AM 5.17 41.306 0.279 7.7 7.33 11.76
4/4/2021 6:00:00 AM 5.12 41.216 0.28 7.69 7.63 11.77
4/4/2021 6:15:00 AM 5.07 41.126 0.28 7.68 7.38 11.78
4/4/2021 6:30:00 AM 5.02 41.036 0.28 7.69 8.03 11.81
4/4/2021 6:45:00 AM 4.96 40.928 0.28 7.7 7.86 11.84
4/4/2021 7:00:00 AM 4.91 40.838 0.281 7.69 6.81 11.85
4/4/2021 7:15:00 AM 4.85 40.73 0.28 7.7 7.91 11.92
4/4/2021 7:30:00 AM 4.82 40.676 0.281 7.71 7.68 11.99
4/4/2021 7:45:00 AM 4.77 40.586 0.281 7.74 7.41 12.14
4/4/2021 8:00:00 AM 4.73 40.514 0.281 7.77 6.53 12.32
4/4/2021 8:15:00 AM 4.71 40.478 0.28 7.81 7.55 12.56
4/4/2021 8:30:00 AM 4.72 40.496 0.281 7.85 7.55 12.75
4/4/2021 8:45:00 AM 4.74 40.532 0.281 7.9 6.7 12.96
4/4/2021 9:00:00 AM 4.76 40.568 0.28 7.96 7.23 13.14
4/4/2021 9:15:00 AM 4.81 40.658 0.28 7.99 7.28 13.27
4/4/2021 9:30:00 AM 4.9 40.82 0.279 8.07 7.35 13.4
4/4/2021 9:45:00 AM 5.05 41.09 0.28 8.14 6.47 13.51
4/4/2021 10:00:00 AM 5.24 41.432 0.28 8.18 6.71 13.6
4/4/2021 10:15:00 AM 5.44 41.792 0.28 8.23 6.69 13.67
4/4/2021 10:30:00 AM 5.68 42.224 0.28 8.29 7.08 13.74
4/4/2021 10:45:00 AM 5.94 42.692 0.28 8.34 5.96 13.79
4/4/2021 11:00:00 AM 6.22 43.196 0.279 8.4 6.21 13.82
4/4/2021 11:15:00 AM 6.52 43.736 0.279 8.43 6.55 13.84
4/4/2021 11:30:00 AM 6.81 44.258 0.279 8.48 6.47 13.85
4/4/2021 11:45:00 AM 7.07 44.726 0.279 8.53 6.52 13.88
4/4/2021 12:00:00 PM 7.34 45.212 0.278 8.56 6.76 13.84
4/4/2021 12:15:00 PM 7.62 45.716 0.278 8.61 6.64 13.82
4/4/2021 12:30:00 PM 7.91 46.238 0.278 8.64 6.17 13.8
4/4/2021 12:45:00 PM 8.19 46.742 0.277 8.68 6.63 13.74
4/4/2021 1:00:00 PM 8.46 47.228 0.277 8.72 6.79 13.71
4/4/2021 1:15:00 PM 8.76 47.768 0.279 8.73 6.6 13.67
4/4/2021 1:30:00 PM 9.01 48.218 0.278 8.76 6.27 13.58
4/4/2021 1:45:00 PM 9.25 48.65 0.278 8.8 6.52 13.5
4/4/2021 2:00:00 PM 9.49 49.082 0.279 8.81 6.09 13.48
4/4/2021 2:15:00 PM 9.75 49.55 0.278 8.85 6.42 13.36
4/4/2021 2:30:00 PM 9.94 49.892 0.278 8.87 6.3 13.3
4/4/2021 2:45:00 PM 10.16 50.288 0.278 8.89 6.49 13.19
4/4/2021 3:00:00 PM 10.38 50.684 0.278 8.92 5.87 13.12
4/4/2021 3:15:00 PM 10.6 51.08 0.277 8.94 6.43 13.05
4/4/2021 3:30:00 PM 10.81 51.458 0.276 8.96 6.29 12.95
4/4/2021 3:45:00 PM 11 51.8 0.277 8.98 6.5 12.89
4/4/2021 4:00:00 PM 11.19 52.142 0.276 9.01 6.49 12.78
4/4/2021 4:15:00 PM 11.35 52.43 0.275 9.03 6.69 12.69
4/4/2021 4:30:00 PM 11.47 52.646 0.276 9.04 6.53 12.62
4/4/2021 4:45:00 PM 11.59 52.862 0.275 9.05 6.36 12.51
4/4/2021 5:00:00 PM 11.66 52.988 0.276 9.05 6.14 12.43
4/4/2021 5:15:00 PM 11.7 53.06 0.275 9.06 6.72 12.34
4/4/2021 5:30:00 PM 11.69 53.042 0.276 9.04 7 12.26
4/4/2021 5:45:00 PM 11.69 53.042 0.275 9.06 6.41 12.15
4/4/2021 6:00:00 PM 11.65 52.97 0.275 9.06 6.39 12.03
4/4/2021 6:15:00 PM 11.58 52.844 0.275 9.05 6.84 11.9
4/4/2021 6:30:00 PM 11.48 52.664 0.275 9.03 6.82 11.74
4/4/2021 6:45:00 PM 11.37 52.466 0.275 9 7.81 11.59
4/4/2021 7:00:00 PM 11.25 52.25 0.275 8.97 7.32 11.39
4/4/2021 7:15:00 PM 11.14 52.052 0.276 8.92 7.17 11.2
4/4/2021 7:30:00 PM 11.02 51.836 0.276 8.87 7.32 11.02
4/4/2021 7:45:00 PM 10.91 51.638 0.276 8.81 6.89 10.8
4/4/2021 8:00:00 PM 10.79 51.422 0.276 8.73 7.03 10.62
4/4/2021 8:15:00 PM 10.67 51.206 0.277 8.66 7.91 10.48
4/4/2021 8:30:00 PM 10.55 50.99 0.278 8.59 7.01 10.37
4/4/2021 8:45:00 PM 10.43 50.774 0.279 8.51 7.07 10.29
4/4/2021 9:00:00 PM 10.32 50.576 0.28 8.44 6.8 10.23
4/4/2021 9:15:00 PM 10.21 50.378 0.28 8.37 7.24 10.19
4/4/2021 9:30:00 PM 10.1 50.18 0.28 8.31 7.75 10.18
4/4/2021 9:45:00 PM 9.98 49.964 0.28 8.24 7.62 10.19
4/4/2021 10:00:00 PM 9.86 49.748 0.281 8.17 7.89 10.19
4/4/2021 10:15:00 PM 9.73 49.514 0.28 8.12 7.23 10.23
4/4/2021 10:30:00 PM 9.59 49.262 0.281 8.06 7.65 10.22
4/4/2021 10:45:00 PM 9.45 49.01 0.28 8 7.45 10.24
4/4/2021 11:00:00 PM 9.31 48.758 0.28 7.96 7.68 10.28
4/4/2021 11:15:00 PM 9.17 48.506 0.28 7.91 8.23 10.31
4/4/2021 11:30:00 PM 9.02 48.236 0.279 7.88 7.37 10.36
4/4/2021 11:45:00 PM 8.88 47.984 0.28 7.84 7.24 10.36
4/5/2021 12:00:00 AM 8.73 47.714 0.28 7.81 7.3 10.39
4/5/2021 12:15:00 AM 8.57 47.426 0.28 7.79 7.48 10.46
4/5/2021 12:30:00 AM 8.41 47.138 0.28 7.77 7.48 10.51
4/5/2021 12:45:00 AM 8.26 46.868 0.28 7.75 7.41 10.55
4/5/2021 1:00:00 AM 8.11 46.598 0.28 7.74 7.24 10.61
4/5/2021 1:15:00 AM 7.96 46.328 0.28 7.72 7 10.65
4/5/2021 1:30:00 AM 7.84 46.112 0.281 7.68 7.06 10.66
4/5/2021 1:45:00 AM 7.69 45.842 0.282 7.7 7.52 10.71
4/5/2021 2:00:00 AM 7.54 45.572 0.281 7.69 7.41 10.79
4/5/2021 2:15:00 AM 7.4 45.32 0.282 7.68 6.97 10.81
4/5/2021 2:30:00 AM 7.27 45.086 0.284 7.66 8.28 10.83
4/5/2021 2:45:00 AM 7.11 44.798 0.282 7.67 7.84 10.92
4/5/2021 3:00:00 AM 6.99 44.582 0.283 7.66 7.48 10.94
4/5/2021 3:15:00 AM 6.83 44.294 0.282 7.66 7.3 11
4/5/2021 3:30:00 AM 6.69 44.042 0.283 7.66 6.84 11.08
4/5/2021 3:45:00 AM 6.56 43.808 0.283 7.66 8.21 11.12
4/5/2021 4:00:00 AM 6.44 43.592 0.284 7.66 7.38 11.16
4/5/2021 4:15:00 AM 6.29 43.322 0.283 7.66 8.59 11.23
4/5/2021 4:30:00 AM 6.18 43.124 0.284 7.65 6.72 11.25
4/5/2021 4:45:00 AM 6.05 42.89 0.283 7.65 7.95 11.3
4/5/2021 5:00:00 AM 5.92 42.656 0.284 7.66 7.2 11.36
4/5/2021 5:15:00 AM 5.81 42.458 0.283 7.65 7.46 11.38
4/5/2021 5:30:00 AM 5.69 42.242 0.285 7.64 6.95 11.45
4/5/2021 5:45:00 AM 5.59 42.062 0.285 7.66 8.02 11.49
4/5/2021 6:00:00 AM 5.49 41.882 0.285 7.66 6.97 11.51
4/5/2021 6:15:00 AM 5.37 41.666 0.285 7.66 7.24 11.58
4/5/2021 6:30:00 AM 5.27 41.486 0.286 7.65 7.87 11.59
4/5/2021 6:45:00 AM 5.18 41.324 0.287 7.67 7.06 11.64
4/5/2021 7:00:00 AM 5.08 41.144 0.287 7.66 7.26 11.7
4/5/2021 7:15:00 AM 4.99 40.982 0.287 7.66 6.46 11.74
4/5/2021 7:30:00 AM 4.9 40.82 0.286 7.69 7.04 11.92
4/5/2021 7:45:00 AM 4.84 40.712 0.287 7.7 7.33 12.03
4/5/2021 8:00:00 AM 4.78 40.604 0.286 7.74 6.43 12.29
4/5/2021 8:15:00 AM 4.76 40.568 0.287 7.78 6.61 12.5
4/5/2021 8:30:00 AM 4.74 40.532 0.286 7.81 6.92 12.72
4/5/2021 8:45:00 AM 4.76 40.568 0.287 7.89 6.72 12.92
4/5/2021 9:00:00 AM 4.81 40.658 0.287 7.92 6.31 13.09
4/5/2021 9:15:00 AM 4.87 40.766 0.287 7.98 6.28 13.25
4/5/2021 9:30:00 AM 4.98 40.964 0.287 8.04 7.51 13.38
4/5/2021 9:45:00 AM 5.15 41.27 0.287 8.12 6.6 13.52
4/5/2021 10:00:00 AM 5.36 41.648 0.289 8.16 6.51 13.6
4/5/2021 10:15:00 AM 5.57 42.026 0.288 8.23 6.92 13.68
4/5/2021 10:30:00 AM 5.82 42.476 0.287 8.28 6.27 13.76
4/5/2021 10:45:00 AM 6.09 42.962 0.287 8.34 7.16 13.82
4/5/2021 11:00:00 AM 6.42 43.556 0.287 8.4 6.46 13.86
4/5/2021 11:15:00 AM 6.74 44.132 0.285 8.42 7.61 13.88
4/5/2021 11:30:00 AM 7.03 44.654 0.285 8.49 8.52 13.86
4/5/2021 11:45:00 AM 7.34 45.212 0.284 8.52 7.74 13.87
4/5/2021 12:00:00 PM 7.65 45.77 0.285 8.55 7.56 13.85
4/5/2021 12:15:00 PM 7.97 46.346 0.286 8.57 8.25 13.84
4/5/2021 12:30:00 PM 8.28 46.904 0.286 8.62 11.45 13.79
4/5/2021 12:45:00 PM 8.55 47.39 0.285 8.65 31.42 13.64
4/5/2021 1:00:00 PM 8.67 47.606 0.285 8.47 147.18 12.83
4/5/2021 1:15:00 PM 8.89 48.002 0.286 8.31 192.21 12.37
4/5/2021 1:30:00 PM 9.24 48.632 0.287 8.25 233.05 12.17
4/5/2021 1:45:00 PM 9.62 49.316 0.287 8.28 145.18 12.31
4/5/2021 2:00:00 PM 9.9 49.82 0.286 8.41 89.18 12.6
4/5/2021 2:15:00 PM 10.14 50.252 0.285 8.57 50.12 12.87
4/5/2021 2:30:00 PM 10.39 50.702 0.284 8.69 26.98 13
4/5/2021 2:45:00 PM 10.64 51.152 0.284 8.75 18.07 13.02
4/5/2021 3:00:00 PM 10.87 51.566 0.284 8.8 14.92 12.99
4/5/2021 3:15:00 PM 11.07 51.926 0.283 8.84 12.16 12.9
4/5/2021 3:30:00 PM 11.27 52.286 0.283 8.87 9.4 12.83
4/5/2021 3:45:00 PM 11.43 52.574 0.282 8.9 8.27 12.74
4/5/2021 4:00:00 PM 11.54 52.772 0.283 8.93 10.7 12.65
4/5/2021 4:15:00 PM 11.61 52.898 0.28 8.92 52.19 12.36
4/5/2021 4:30:00 PM 11.61 52.898 0.281 8.59 263.39 11.1
4/5/2021 4:45:00 PM 11.62 52.916 0.284 8.46 329.95 10.91
4/5/2021 5:00:00 PM 11.59 52.862 0.285 8.36 287.33 10.72
4/5/2021 5:15:00 PM 11.58 52.844 0.284 8.31 209.89 10.67
4/5/2021 5:30:00 PM 11.56 52.808 0.283 8.42 142.86 10.83
4/5/2021 5:45:00 PM 11.55 52.79 0.282 8.54 69.62 11.04
4/5/2021 6:00:00 PM 11.52 52.736 0.283 8.63 36.44 11.18
4/5/2021 6:15:00 PM 11.5 52.7 0.284 8.69 21.69 11.22
4/5/2021 6:30:00 PM 11.46 52.628 0.285 8.73 14.26 11.19
4/5/2021 6:45:00 PM 11.42 52.556 0.286 8.76 13.9 11.11
4/5/2021 7:00:00 PM 11.39 52.502 0.285 8.74 34.5 10.97
4/5/2021 7:15:00 PM 11.33 52.394 0.286 8.73 10 10.87
4/5/2021 7:30:00 PM 11.28 52.304 0.285 8.72 11.78 10.72
4/5/2021 7:45:00 PM 11.24 52.232 0.284 8.69 10.38 10.53
4/5/2021 8:00:00 PM 11.19 52.142 0.284 8.64 9.66 10.37
4/5/2021 8:15:00 PM 11.13 52.034 0.285 8.58 11.09 10.24
4/5/2021 8:30:00 PM 11.07 51.926 0.285 8.53 12.3 10.15
4/5/2021 8:45:00 PM 11.02 51.836 0.285 8.48 8.34 10.07
4/5/2021 9:00:00 PM 10.96 51.728 0.286 8.42 9.51 10.01
4/5/2021 9:15:00 PM 10.89 51.602 0.286 8.36 9.41 9.98
4/5/2021 9:30:00 PM 10.83 51.494 0.287 8.32 9.21 9.98
4/5/2021 9:45:00 PM 10.76 51.368 0.288 8.26 9.95 9.95
4/5/2021 10:00:00 PM 10.7 51.26 0.288 8.22 8.04 9.95
4/5/2021 10:15:00 PM 10.62 51.116 0.288 8.17 8.26 9.95
4/5/2021 10:30:00 PM 10.55 50.99 0.289 8.12 9.35 9.94
4/5/2021 10:45:00 PM 10.48 50.864 0.288 8.07 8.19 9.95
4/5/2021 11:00:00 PM 10.4 50.72 0.288 8.03 7.98 9.97
4/5/2021 11:15:00 PM 10.33 50.594 0.288 7.99 8.53 9.98
4/5/2021 11:30:00 PM 10.24 50.432 0.288 7.95 8.46 9.99
4/5/2021 11:45:00 PM 10.15 50.27 0.289 7.91 8.99 10.01
4/6/2021 12:00:00 AM 10.04 50.072 0.29 7.86 7.84 10
4/6/2021 12:15:00 AM 9.92 49.856 0.29 7.83 8.35 10.01
4/6/2021 12:30:00 AM 9.78 49.604 0.288 7.82 8.13 10.09
4/6/2021 12:45:00 AM 9.64 49.352 0.288 7.79 8.65 10.1
4/6/2021 1:00:00 AM 9.5 49.1 0.289 7.76 8.35 10.13
4/6/2021 1:15:00 AM 9.37 48.866 0.289 7.75 8.11 10.16
4/6/2021 1:30:00 AM 9.23 48.614 0.288 7.74 8.29 10.21
4/6/2021 1:45:00 AM 9.08 48.344 0.289 7.72 8.26 10.24
4/6/2021 2:00:00 AM 8.95 48.11 0.289 7.69 9.99 10.28
4/6/2021 2:15:00 AM 8.8 47.84 0.289 7.71 8.75 10.35
4/6/2021 2:30:00 AM 8.66 47.588 0.29 7.69 8.26 10.36
4/6/2021 2:45:00 AM 8.53 47.354 0.29 7.68 7.86 10.39
4/6/2021 3:00:00 AM 8.39 47.102 0.289 7.69 8.19 10.46
4/6/2021 3:15:00 AM 8.23 46.814 0.288 7.7 7.51 10.53
4/6/2021 3:30:00 AM 8.12 46.616 0.289 7.68 8.17 10.55
4/6/2021 3:45:00 AM 7.99 46.382 0.289 7.68 6.81 10.61
4/6/2021 4:00:00 AM 7.87 46.166 0.29 7.66 7.46 10.59
4/6/2021 4:15:00 AM 7.73 45.914 0.29 7.67 8.21 10.67
4/6/2021 4:30:00 AM 7.6 45.68 0.289 7.67 7.24 10.73
4/6/2021 4:45:00 AM 7.5 45.5 0.29 7.68 8.25 10.76
4/6/2021 5:00:00 AM 7.37 45.266 0.291 7.66 7.07 10.79
4/6/2021 5:15:00 AM 7.22 44.996 0.291 7.66 7.16 10.85
4/6/2021 5:30:00 AM 7.12 44.816 0.291 7.67 7.78 10.89
4/6/2021 5:45:00 AM 6.99 44.582 0.291 7.68 7.45 10.92
4/6/2021 6:00:00 AM 6.87 44.366 0.292 7.66 7.91 10.98
4/6/2021 6:15:00 AM 6.75 44.15 0.291 7.67 7.25 10.96
4/6/2021 6:30:00 AM 6.64 43.952 0.292 7.66 7.6 11.02
4/6/2021 6:45:00 AM 6.52 43.736 0.292 7.67 7.23 11.09
4/6/2021 7:00:00 AM 6.4 43.52 0.292 7.67 6.66 11.14
4/6/2021 7:15:00 AM 6.29 43.322 0.293 7.68 7.53 11.21
4/6/2021 7:30:00 AM 6.19 43.142 0.292 7.69 7.74 11.35
4/6/2021 7:45:00 AM 6.12 43.016 0.293 7.71 7.43 11.51
4/6/2021 8:00:00 AM 6.05 42.89 0.293 7.73 6.82 11.64
4/6/2021 8:15:00 AM 6.01 42.818 0.293 7.76 6.7 11.85
4/6/2021 8:30:00 AM 5.97 42.746 0.292 7.81 6.39 12.07
4/6/2021 8:45:00 AM 5.97 42.746 0.292 7.83 11.94 12.26
4/6/2021 9:00:00 AM 5.96 42.728 0.291 7.87 99.01 12.06
4/6/2021 9:15:00 AM 6.01 42.818 0.292 7.84 153.77 11.93
4/6/2021 9:30:00 AM 6.12 43.016 0.293 7.83 163.22 11.94
4/6/2021 9:45:00 AM 6.28 43.304 0.294 7.87 167.21 12
4/6/2021 10:00:00 AM 6.46 43.628 0.295 7.89 150.32 12.07
4/6/2021 10:15:00 AM 6.67 44.006 0.295 7.92 160.58 12.13
4/6/2021 10:30:00 AM 6.91 44.438 0.295 7.96 152.2 12.24
4/6/2021 10:45:00 AM 7.2 44.96 0.295 7.99 106.94 12.41
4/6/2021 11:00:00 AM 7.49 45.482 0.294 8.08 97.72 12.58
4/6/2021 11:15:00 AM 7.77 45.986 0.294 8.11 117.53 12.59
4/6/2021 11:30:00 AM 8.1 46.58 0.293 8.17 102.28 12.63
4/6/2021 11:45:00 AM 8.4 47.12 0.293 8.2 97.87 12.65
4/6/2021 12:00:00 PM 8.63 47.534 0.293 8.2 124.84 12.54
4/6/2021 12:15:00 PM 8.96 48.128 0.294 8.2 122.38 12.51
4/6/2021 12:30:00 PM 9.31 48.758 0.292 8.27 83.07 12.62
4/6/2021 12:45:00 PM 9.65 49.37 0.292 8.35 73.41 12.79
4/6/2021 1:00:00 PM 9.94 49.892 0.29 8.47 69.46 12.81
4/6/2021 1:15:00 PM 10.17 50.306 0.29 8.48 120.05 12.62
4/6/2021 1:30:00 PM 10.34 50.612 0.291 8.41 160.46 12.14
4/6/2021 1:45:00 PM 10.61 51.098 0.292 8.31 177.41 11.82
4/6/2021 2:00:00 PM 10.96 51.728 0.293 8.3 154.94 11.87
4/6/2021 2:15:00 PM 11.31 52.358 0.292 8.42 102.72 12.09
4/6/2021 2:30:00 PM 11.55 52.79 0.291 8.55 68.33 12.25
4/6/2021 2:45:00 PM 11.84 53.312 0.289 8.63 48.23 12.3
4/6/2021 3:00:00 PM 12.01 53.618 0.288 8.63 84.81 12.15
4/6/2021 3:15:00 PM 12.23 54.014 0.288 8.53 135.05 11.6
4/6/2021 3:30:00 PM 12.48 54.464 0.289 8.49 104.24 11.54
4/6/2021 3:45:00 PM 12.73 54.914 0.287 8.56 131.96 11.65
4/6/2021 4:00:00 PM 12.95 55.31 0.286 8.67 44.53 11.72
4/6/2021 4:15:00 PM 13.1 55.58 0.287 8.71 44.17 11.69
4/6/2021 4:30:00 PM 13.23 55.814 0.287 8.69 56.04 11.48
4/6/2021 4:45:00 PM 13.35 56.03 0.288 8.65 88.4 11.18
4/6/2021 5:00:00 PM 13.49 56.282 0.287 8.63 73.45 11.04
4/6/2021 5:15:00 PM 13.55 56.39 0.286 8.7 48.95 11.1
4/6/2021 5:30:00 PM 13.56 56.408 0.286 8.76 30.2 11.14
4/6/2021 5:45:00 PM 13.56 56.408 0.286 8.79 20.85 11.13
4/6/2021 6:00:00 PM 13.5 56.3 0.286 8.8 15 11.07
4/6/2021 6:15:00 PM 13.43 56.174 0.286 8.83 11.99 10.93
4/6/2021 6:30:00 PM 13.36 56.048 0.287 8.81 10.44 10.8
4/6/2021 6:45:00 PM 13.31 55.958 0.287 8.81 9 10.73
4/6/2021 7:00:00 PM 13.24 55.832 0.287 8.8 8.26 10.6
4/6/2021 7:15:00 PM 13.15 55.67 0.287 8.78 8.6 10.4
4/6/2021 7:30:00 PM 13.05 55.49 0.287 8.73 8.52 10.24
4/6/2021 7:45:00 PM 12.96 55.328 0.288 8.69 7.72 10.08
4/6/2021 8:00:00 PM 12.86 55.148 0.288 8.61 9.13 9.92
4/6/2021 8:15:00 PM 12.77 54.986 0.289 8.58 9.07 9.8
4/6/2021 8:30:00 PM 12.69 54.842 0.289 8.53 8.68 9.7
4/6/2021 8:45:00 PM 12.6 54.68 0.29 8.46 7.58 9.63
4/6/2021 9:00:00 PM 12.54 54.572 0.29 8.42 7.8 9.57
4/6/2021 9:15:00 PM 12.45 54.41 0.29 8.36 8.44 9.54
4/6/2021 9:30:00 PM 12.37 54.266 0.291 8.31 7.85 9.53
4/6/2021 9:45:00 PM 12.31 54.158 0.292 8.25 8.58 9.51
4/6/2021 10:00:00 PM 12.25 54.05 0.292 8.21 8.43 9.51
4/6/2021 10:15:00 PM 12.17 53.906 0.293 8.15 8.11 9.51
4/6/2021 10:30:00 PM 12.07 53.726 0.294 8.1 7.83 9.51
4/6/2021 10:45:00 PM 11.98 53.564 0.295 8.04 8.31 9.51
4/6/2021 11:00:00 PM 11.88 53.384 0.295 8 8.46 9.51
4/6/2021 11:15:00 PM 11.8 53.24 0.295 7.97 8 9.53
4/6/2021 11:30:00 PM 11.72 53.096 0.295 7.92 8.01 9.54
4/6/2021 11:45:00 PM 11.65 52.97 0.295 7.9 7.56 9.57
4/7/2021 12:00:00 AM 11.55 52.79 0.295 7.87 8.59 9.57
4/7/2021 12:15:00 AM 11.46 52.628 0.295 7.84 7.43 9.61
4/7/2021 12:30:00 AM 11.35 52.43 0.295 7.82 7.6 9.61
4/7/2021 12:45:00 AM 11.26 52.268 0.295 7.8 7.71 9.63
4/7/2021 1:00:00 AM 11.17 52.106 0.295 7.78 7.96 9.66
4/7/2021 1:15:00 AM 11.09 51.962 0.294 7.77 7.74 9.7
4/7/2021 1:30:00 AM 10.99 51.782 0.295 7.75 7.72 9.71
4/7/2021 1:45:00 AM 10.9 51.62 0.295 7.74 7.67 9.73
4/7/2021 2:00:00 AM 10.8 51.44 0.295 7.73 8.16 9.77
4/7/2021 2:15:00 AM 10.69 51.242 0.295 7.71 8.25 9.79
4/7/2021 2:30:00 AM 10.6 51.08 0.296 7.7 7.31 9.79
4/7/2021 2:45:00 AM 10.49 50.882 0.295 7.71 8 9.86
4/7/2021 3:00:00 AM 10.41 50.738 0.296 7.69 7.79 9.88
4/7/2021 3:15:00 AM 10.32 50.576 0.296 7.69 8.04 9.91
4/7/2021 3:30:00 AM 10.24 50.432 0.296 7.69 7.63 9.94
4/7/2021 3:45:00 AM 10.16 50.288 0.296 7.69 7.82 10
4/7/2021 4:00:00 AM 10.07 50.126 0.296 7.68 8.08 10.01
4/7/2021 4:15:00 AM 9.97 49.946 0.295 7.69 8.12 10.07
4/7/2021 4:30:00 AM 9.89 49.802 0.296 7.68 8.28 10.08
4/7/2021 4:45:00 AM 9.82 49.676 0.297 7.68 8.69 10.08
4/7/2021 5:00:00 AM 9.75 49.55 0.296 7.68 7.96 10.1
4/7/2021 5:15:00 AM 9.69 49.442 0.296 7.68 7.87 10.12
4/7/2021 5:30:00 AM 9.63 49.334 0.296 7.68 7.92 10.14
4/7/2021 5:45:00 AM 9.56 49.208 0.296 7.67 8.22 10.14
4/7/2021 6:00:00 AM 9.48 49.064 0.296 7.68 8.53 10.19
4/7/2021 6:15:00 AM 9.41 48.938 0.296 7.69 8.19 10.22
4/7/2021 6:30:00 AM 9.34 48.812 0.296 7.69 8.19 10.24
4/7/2021 6:45:00 AM 9.28 48.704 0.297 7.68 8.55 10.25
4/7/2021 7:00:00 AM 9.21 48.578 0.297 7.69 8.19 10.29
4/7/2021 7:15:00 AM 9.14 48.452 0.298 7.69 8.22 10.33
4/7/2021 7:30:00 AM 9.05 48.29 0.298 7.69 7.34 10.4
4/7/2021 7:45:00 AM 8.98 48.164 0.298 7.71 7.53 10.53
4/7/2021 8:00:00 AM 8.93 48.074 0.297 7.72 7.54 10.69
4/7/2021 8:15:00 AM 8.89 48.002 0.297 7.78 7.01 10.92
4/7/2021 8:30:00 AM 8.88 47.984 0.297 7.82 6.77 11.12
4/7/2021 8:45:00 AM 8.87 47.966 0.296 7.86 7.59 11.32
4/7/2021 9:00:00 AM 8.89 48.002 0.296 7.93 7.56 11.54
4/7/2021 9:15:00 AM 8.95 48.11 0.296 7.98 7.59 11.7
4/7/2021 9:30:00 AM 9.06 48.308 0.296 8.03 9.57 11.84
4/7/2021 9:45:00 AM 9.21 48.578 0.296 8.1 9.35 12
4/7/2021 10:00:00 AM 9.4 48.92 0.296 8.18 16.57 12.12
4/7/2021 10:15:00 AM 9.52 49.136 0.297 8.12 129.39 11.57
4/7/2021 10:30:00 AM 9.75 49.55 0.299 8.08 117.9 11.5
4/7/2021 10:45:00 AM 10.11 50.198 0.3 8.11 93.6 11.73
4/7/2021 11:00:00 AM 10.5 50.9 0.299 8.22 55.48 12.09
4/7/2021 11:15:00 AM 10.84 51.512 0.299 8.3 34.26 12.31
4/7/2021 11:30:00 AM 11.16 52.088 0.297 8.42 21.85 12.51
4/7/2021 11:45:00 AM 11.47 52.646 0.298 8.46 16.58 12.59
4/7/2021 12:00:00 PM 11.8 53.24 0.299 8.5 13.29 12.64
4/7/2021 12:15:00 PM 12.1 53.78 0.297 8.52 12.94 12.69
4/7/2021 12:30:00 PM 12.42 54.356 0.297 8.63 8.47 12.64
4/7/2021 12:45:00 PM 12.66 54.788 0.294 8.69 8.04 12.54
4/7/2021 1:00:00 PM 12.9 55.22 0.296 8.68 7.63 12.52
4/7/2021 1:15:00 PM 13.35 56.03 0.297 8.72 7.58 12.57
4/7/2021 1:30:00 PM 13.64 56.552 0.295 8.77 6.99 12.48
4/7/2021 1:45:00 PM 13.76 56.768 0.293 8.78 8.11 12.28
4/7/2021 2:00:00 PM 13.87 56.966 0.294 8.81 7.18 12.23
4/7/2021 2:15:00 PM 14.15 57.47 0.295 8.82 6.54 12.3
4/7/2021 2:30:00 PM 14.42 57.956 0.295 8.87 7.24 12.2
4/7/2021 2:45:00 PM 14.62 58.316 0.294 8.9 7.14 12.07
4/7/2021 3:00:00 PM 14.81 58.658 0.295 8.89 6.61 12.05
4/7/2021 3:15:00 PM 15.06 59.108 0.294 8.92 7.72 12.01
4/7/2021 3:30:00 PM 15.26 59.468 0.294 8.96 9.44 11.9
4/7/2021 3:45:00 PM 15.4 59.72 0.294 8.94 15.81 11.79
4/7/2021 4:00:00 PM 15.58 60.044 0.294 8.97 16.92 11.7
4/7/2021 4:15:00 PM 15.75 60.35 0.294 8.97 13.73 11.62
4/7/2021 4:30:00 PM 15.92 60.656 0.293 9 11.91 11.53
4/7/2021 4:45:00 PM 16.06 60.908 0.293 9.01 10.49 11.42
4/7/2021 5:00:00 PM 16.18 61.124 0.293 9.02 7.96 11.28
4/7/2021 5:15:00 PM 16.25 61.25 0.293 9.03 7.86 11.11
4/7/2021 5:30:00 PM 16.27 61.286 0.293 9.01 8.39 11
4/7/2021 5:45:00 PM 16.25 61.25 0.293 9 8.05 10.85
4/7/2021 6:00:00 PM 16.17 61.106 0.293 9.01 6.85 10.69
4/7/2021 6:15:00 PM 16.07 60.926 0.293 8.99 7.35 10.47
4/7/2021 6:30:00 PM 15.96 60.728 0.293 8.94 7.45 10.3
4/7/2021 6:45:00 PM 15.88 60.584 0.293 8.95 6.43 10.19
4/7/2021 7:00:00 PM 15.79 60.422 0.294 8.93 6.65 10.08
4/7/2021 7:15:00 PM 15.67 60.206 0.293 8.9 6.73 9.89
4/7/2021 7:30:00 PM 15.56 60.008 0.294 8.85 7.23 9.7
4/7/2021 7:45:00 PM 15.42 59.756 0.294 8.8 6.97 9.53
4/7/2021 8:00:00 PM 15.29 59.522 0.294 8.72 8.27 9.33
4/7/2021 8:15:00 PM 15.12 59.216 0.295 8.68 7.14 9.17
4/7/2021 8:30:00 PM 14.97 58.946 0.296 8.61 6.97 9.07
4/7/2021 8:45:00 PM 14.83 58.694 0.295 8.55 6.78 8.97
4/7/2021 9:00:00 PM 14.7 58.46 0.296 8.49 7.07 8.93
4/7/2021 9:15:00 PM 14.57 58.226 0.296 8.43 6.52 8.89
4/7/2021 9:30:00 PM 14.43 57.974 0.296 8.36 6.92 8.88
4/7/2021 9:45:00 PM 14.29 57.722 0.297 8.3 6.67 8.87
4/7/2021 10:00:00 PM 14.15 57.47 0.297 8.23 6.52 8.88
4/7/2021 10:15:00 PM 14.01 57.218 0.297 8.17 6.53 8.9
4/7/2021 10:30:00 PM 13.86 56.948 0.298 8.11 7.03 8.92
4/7/2021 10:45:00 PM 13.71 56.678 0.298 8.05 6.62 8.92
4/7/2021 11:00:00 PM 13.57 56.426 0.298 8.01 6.34 8.95
4/7/2021 11:15:00 PM 13.42 56.156 0.298 7.97 6.75 8.99
4/7/2021 11:30:00 PM 13.27 55.886 0.298 7.93 6.35 8.98
4/7/2021 11:45:00 PM 13.13 55.634 0.299 7.89 6.67 9.04
4/8/2021 12:00:00 AM 12.98 55.364 0.299 7.85 6.3 9.05
4/8/2021 12:15:00 AM 12.84 55.112 0.299 7.83 6.61 9.1
4/8/2021 12:30:00 AM 12.7 54.86 0.3 7.79 7.35 9.06
4/8/2021 12:45:00 AM 12.55 54.59 0.299 7.77 6.22 9.14
4/8/2021 1:00:00 AM 12.4 54.32 0.3 7.76 6.9 9.18
4/8/2021 1:15:00 AM 12.25 54.05 0.3 7.74 6.69 9.21
4/8/2021 1:30:00 AM 12.1 53.78 0.301 7.73 6.48 9.26
4/8/2021 1:45:00 AM 11.96 53.528 0.301 7.71 6.43 9.29
4/8/2021 2:00:00 AM 11.79 53.222 0.301 7.7 6.47 9.35
4/8/2021 2:15:00 AM 11.66 52.988 0.301 7.69 6.79 9.37
4/8/2021 2:30:00 AM 11.51 52.718 0.301 7.69 6.58 9.43
4/8/2021 2:45:00 AM 11.35 52.43 0.301 7.69 7.11 9.49
4/8/2021 3:00:00 AM 11.22 52.196 0.301 7.67 6.47 9.5
4/8/2021 3:15:00 AM 11.07 51.926 0.302 7.67 6.5 9.56
4/8/2021 3:30:00 AM 10.91 51.638 0.302 7.64 6.8 9.61
4/8/2021 3:45:00 AM 10.77 51.386 0.302 7.66 8.36 9.65
4/8/2021 4:00:00 AM 10.63 51.134 0.302 7.67 6.64 9.73
4/8/2021 4:15:00 AM 10.5 50.9 0.303 7.66 6.94 9.76
4/8/2021 4:30:00 AM 10.35 50.63 0.303 7.65 6.49 9.77
4/8/2021 4:45:00 AM 10.22 50.396 0.303 7.66 6.52 9.84
4/8/2021 5:00:00 AM 10.09 50.162 0.304 7.66 6.57 9.87
4/8/2021 5:15:00 AM 9.95 49.91 0.303 7.66 6.53 9.91
4/8/2021 5:30:00 AM 9.82 49.676 0.304 7.62 8.24 9.92
4/8/2021 5:45:00 AM 9.68 49.424 0.303 7.67 7.08 10.02
4/8/2021 6:00:00 AM 9.56 49.208 0.304 7.65 7.36 10
4/8/2021 6:15:00 AM 9.43 48.974 0.304 7.66 7.27 10.1
4/8/2021 6:30:00 AM 9.3 48.74 0.305 7.66 10.26 10.12
4/8/2021 6:45:00 AM 9.2 48.56 0.306 7.66 7.04 10.14
4/8/2021 7:00:00 AM 9.08 48.344 0.306 7.66 6.3 10.19
4/8/2021 7:15:00 AM 8.98 48.164 0.306 7.66 6.87 10.25
4/8/2021 7:30:00 AM 8.86 47.948 0.306 7.67 6.8 10.37
4/8/2021 7:45:00 AM 8.78 47.804 0.305 7.68 6.33 10.55
4/8/2021 8:00:00 AM 8.72 47.696 0.305 7.73 6.53 10.74
4/8/2021 8:15:00 AM 8.67 47.606 0.304 7.76 6.14 10.95
4/8/2021 8:30:00 AM 8.65 47.57 0.304 7.8 6.29 11.16
4/8/2021 8:45:00 AM 8.64 47.552 0.304 7.85 6.58 11.4
4/8/2021 9:00:00 AM 8.66 47.588 0.303 7.91 5.81 11.59
4/8/2021 9:15:00 AM 8.71 47.678 0.302 7.96 6.62 11.77
4/8/2021 9:30:00 AM 8.82 47.876 0.302 8.02 6.34 11.93
4/8/2021 9:45:00 AM 9 48.2 0.303 8.08 5.97 12.07
4/8/2021 10:00:00 AM 9.22 48.596 0.304 8.16 5.62 12.2
4/8/2021 10:15:00 AM 9.49 49.082 0.305 8.21 5.43 12.31
4/8/2021 10:30:00 AM 9.77 49.586 0.306 8.29 5.45 12.42
4/8/2021 10:45:00 AM 10.06 50.108 0.306 8.32 6.14 12.49
4/8/2021 11:00:00 AM 10.41 50.738 0.307 8.4 7.78 12.59
4/8/2021 11:15:00 AM 10.78 51.404 0.307 8.41 9.15 12.66
4/8/2021 11:30:00 AM 11.1 51.98 0.306 8.48 10.34 12.67
4/8/2021 11:45:00 AM 11.4 52.52 0.306 8.53 12.11 12.72
4/8/2021 12:00:00 PM 11.73 53.114 0.307 8.55 9.25 12.81
4/8/2021 12:15:00 PM 12.09 53.762 0.305 8.6 8.39 12.72
4/8/2021 12:30:00 PM 12.45 54.41 0.305 8.62 7.6 12.79
4/8/2021 12:45:00 PM 12.78 55.004 0.305 8.66 8.14 12.76
4/8/2021 1:00:00 PM 13.14 55.652 0.303 8.7 6.67 12.7
4/8/2021 1:15:00 PM 13.46 56.228 0.304 8.72 6.04 12.76
4/8/2021 1:30:00 PM 13.78 56.804 0.303 8.75 5.93 12.6
4/8/2021 1:45:00 PM 14.11 57.398 0.302 8.79 5.9 12.56
4/8/2021 2:00:00 PM 14.4 57.92 0.302 8.82 5.85 12.4
4/8/2021 2:15:00 PM 14.69 58.442 0.302 8.84 5.59 12.24
4/8/2021 2:30:00 PM 14.94 58.892 0.302 8.85 5.96 12.24
4/8/2021 2:45:00 PM 15.19 59.342 0.301 8.89 10.35 12.13
4/8/2021 3:00:00 PM 15.39 59.702 0.302 8.87 19.98 11.99
4/8/2021 3:15:00 PM 15.63 60.134 0.302 8.86 25.51 11.85
4/8/2021 3:30:00 PM 15.83 60.494 0.302 8.89 28.17 11.77
4/8/2021 3:45:00 PM 16.01 60.818 0.303 8.9 24.04 11.73
4/8/2021 4:00:00 PM 16.19 61.142 0.303 8.92 20.6 11.63
4/8/2021 4:15:00 PM 16.35 61.43 0.302 8.94 19.4 11.49
4/8/2021 4:30:00 PM 16.47 61.646 0.302 8.95 16.09 11.37
4/8/2021 4:45:00 PM 16.57 61.826 0.302 8.96 12.55 11.29
4/8/2021 5:00:00 PM 16.66 61.988 0.302 8.94 10.76 11.12
4/8/2021 5:15:00 PM 16.7 62.06 0.301 8.95 9.96 11.03
4/8/2021 5:30:00 PM 16.69 62.042 0.302 8.94 8.05 10.92
4/8/2021 5:45:00 PM 16.65 61.97 0.302 8.96 6.25 10.78
4/8/2021 6:00:00 PM 16.58 61.844 0.302 8.92 7.46 10.65
4/8/2021 6:15:00 PM 16.49 61.682 0.302 8.93 7.09 10.49
4/8/2021 6:30:00 PM 16.38 61.484 0.302 8.91 6.63 10.33
4/8/2021 6:45:00 PM 16.26 61.268 0.302 8.89 6.73 10.18
4/8/2021 7:00:00 PM 16.13 61.034 0.303 8.86 6.43 9.98
4/8/2021 7:15:00 PM 16.01 60.818 0.303 8.79 7.89 9.78
4/8/2021 7:30:00 PM 15.88 60.584 0.303 8.77 6.59 9.57
4/8/2021 7:45:00 PM 15.75 60.35 0.303 8.69 7 9.38
4/8/2021 8:00:00 PM 15.62 60.116 0.303 8.63 6.58 9.17
4/8/2021 8:15:00 PM 15.49 59.882 0.303 8.58 5.97 8.99
4/8/2021 8:30:00 PM 15.37 59.666 0.303 8.5 7.95 8.88
4/8/2021 8:45:00 PM 15.27 59.486 0.304 8.43 7.63 8.79
4/8/2021 9:00:00 PM 15.18 59.324 0.304 8.39 6.09 8.73
4/8/2021 9:15:00 PM 15.08 59.144 0.304 8.3 8.24 8.67
4/8/2021 9:30:00 PM 14.99 58.982 0.304 8.27 6.46 8.65
4/8/2021 9:45:00 PM 14.89 58.802 0.304 8.21 6.29 8.65
4/8/2021 10:00:00 PM 14.8 58.64 0.305 8.15 6.09 8.58
4/8/2021 10:15:00 PM 14.7 58.46 0.306 8.1 6.23 8.63
4/8/2021 10:30:00 PM 14.6 58.28 0.307 8.05 6.42 8.63
4/8/2021 10:45:00 PM 14.51 58.118 0.308 8 6.59 8.62
4/8/2021 11:00:00 PM 14.42 57.956 0.308 7.98 6.18 8.64
4/8/2021 11:15:00 PM 14.32 57.776 0.308 7.94 6.59 8.69
4/8/2021 11:30:00 PM 14.22 57.596 0.309 7.91 6.46 8.65
4/8/2021 11:45:00 PM 14.11 57.398 0.309 7.88 6.97 8.68
4/9/2021 12:00:00 AM 14.01 57.218 0.309 7.85 6.15 8.73
4/9/2021 12:15:00 AM 13.9 57.02 0.31 7.83 6.31 8.75
4/9/2021 12:30:00 AM 13.8 56.84 0.31 7.81 6.11 8.77
4/9/2021 12:45:00 AM 13.69 56.642 0.31 7.79 6.63 8.79
4/9/2021 1:00:00 AM 13.59 56.462 0.31 7.78 6.62 8.82
4/9/2021 1:15:00 AM 13.49 56.282 0.31 7.77 6.35 8.82
4/9/2021 1:30:00 AM 13.39 56.102 0.31 7.75 6.02 8.84
4/9/2021 1:45:00 AM 13.28 55.904 0.31 7.74 5.95 8.85
4/9/2021 2:00:00 AM 13.18 55.724 0.31 7.73 5.99 8.92
4/9/2021 2:15:00 AM 13.06 55.508 0.31 7.73 6.62 8.98
4/9/2021 2:30:00 AM 12.95 55.31 0.311 7.71 5.97 8.97
4/9/2021 2:45:00 AM 12.84 55.112 0.311 7.71 6.03 8.99
4/9/2021 3:00:00 AM 12.74 54.932 0.311 7.72 6.07 9.04
4/9/2021 3:15:00 AM 12.63 54.734 0.311 7.71 5.88 9.06
4/9/2021 3:30:00 AM 12.52 54.536 0.311 7.71 6.42 9.1
4/9/2021 3:45:00 AM 12.43 54.374 0.311 7.7 6.1 9.1
4/9/2021 4:00:00 AM 12.32 54.176 0.31 7.71 6.22 9.18
4/9/2021 4:15:00 AM 12.23 54.014 0.31 7.7 5.98 9.16
4/9/2021 4:30:00 AM 12.13 53.834 0.311 7.7 6.18 9.21
4/9/2021 4:45:00 AM 12.04 53.672 0.311 7.7 7.11 9.23
4/9/2021 5:00:00 AM 11.94 53.492 0.311 7.7 7.48 9.28
4/9/2021 5:15:00 AM 11.86 53.348 0.311 7.7 6.4 9.32
4/9/2021 5:30:00 AM 11.78 53.204 0.311 7.68 6.7 9.35
4/9/2021 5:45:00 AM 11.7 53.06 0.312 7.7 7.96 9.32
4/9/2021 6:00:00 AM 11.62 52.916 0.312 7.7 7.14 9.39
4/9/2021 6:15:00 AM 11.54 52.772 0.313 7.7 6.5 9.41
4/9/2021 6:30:00 AM 11.48 52.664 0.312 7.7 6.55 9.43
4/9/2021 6:45:00 AM 11.42 52.556 0.313 7.71 6.81 9.44
4/9/2021 7:00:00 AM 11.36 52.448 0.313 7.7 6.29 9.46
4/9/2021 7:15:00 AM 11.31 52.358 0.312 7.72 6.8 9.53
4/9/2021 7:30:00 AM 11.28 52.304 0.312 7.72 6.32 9.64
4/9/2021 7:45:00 AM 11.25 52.25 0.312 7.75 6.01 9.75
4/9/2021 8:00:00 AM 11.21 52.178 0.313 7.76 6.33 9.84
4/9/2021 8:15:00 AM 11.17 52.106 0.312 7.78 5.78 9.85
4/9/2021 8:30:00 AM 11.14 52.052 0.312 7.8 5.99 9.92
4/9/2021 8:45:00 AM 11.11 51.998 0.312 7.82 5.61 10.22
4/9/2021 9:00:00 AM 11.11 51.998 0.312 7.85 6.07 10.39
4/9/2021 9:15:00 AM 11.11 51.998 0.312 7.89 5.71 10.56
4/9/2021 9:30:00 AM 11.11 51.998 0.311 7.92 5.65 10.71
4/9/2021 9:45:00 AM 11.12 52.016 0.311 7.98 5.85 10.87
4/9/2021 10:00:00 AM 11.13 52.034 0.311 8.02 5.67 11.02
4/9/2021 10:15:00 AM 11.16 52.088 0.311 8.06 5.39 11.09
4/9/2021 10:30:00 AM 11.2 52.16 0.311 8.1 5.34 11.3
4/9/2021 10:45:00 AM 11.27 52.286 0.31 8.16 5.32 11.45
4/9/2021 11:00:00 AM 11.37 52.466 0.311 8.22 5.4 11.61
4/9/2021 11:15:00 AM 11.56 52.808 0.309 8.32 5.11 11.76
4/9/2021 11:30:00 AM 11.87 53.366 0.31 8.38 5.29 11.94
4/9/2021 11:45:00 AM 12.31 54.158 0.31 8.45 5.38 12.13
4/9/2021 12:00:00 PM 12.67 54.806 0.309 8.52 5.18 12.17
4/9/2021 12:15:00 PM 12.93 55.274 0.308 8.59 5.09 12.28
4/9/2021 12:30:00 PM 13.13 55.634 0.308 8.63 4.96 12.25
4/9/2021 12:45:00 PM 13.34 56.012 0.309 8.65 5.04 12.41
4/9/2021 1:00:00 PM 13.6 56.48 0.308 8.71 4.99 12.28
4/9/2021 1:15:00 PM 13.85 56.93 0.308 8.73 5.05 12.34
4/9/2021 1:30:00 PM 14.02 57.236 0.308 8.76 4.97 12.39
4/9/2021 1:45:00 PM 14.06 57.308 0.307 8.8 4.97 12.18
4/9/2021 2:00:00 PM 14.02 57.236 0.308 8.78 5.07 12.01
4/9/2021 2:15:00 PM 14.01 57.218 0.308 8.8 5.04 11.99
4/9/2021 2:30:00 PM 14.03 57.254 0.309 8.79 4.62 11.98
4/9/2021 2:45:00 PM 14.05 57.29 0.309 8.79 6.54 11.83
4/9/2021 3:00:00 PM 14.07 57.326 0.308 8.82 4.77 11.85
4/9/2021 3:15:00 PM 14.12 57.416 0.308 8.84 4.63 11.88
4/9/2021 3:30:00 PM 14.14 57.452 0.308 8.86 4.66 11.92
4/9/2021 3:45:00 PM 14.14 57.452 0.308 8.88 4.62 11.88
4/9/2021 4:00:00 PM 14.13 57.434 0.308 8.87 4.6 11.72
4/9/2021 4:15:00 PM 14.14 57.452 0.308 8.88 4.53 11.74
4/9/2021 4:30:00 PM 14.19 57.542 0.308 8.91 4.35 11.76
4/9/2021 4:45:00 PM 14.28 57.704 0.308 8.92 4.72 11.7
4/9/2021 5:00:00 PM 14.4 57.92 0.308 8.93 4.79 11.66
4/9/2021 5:15:00 PM 14.53 58.154 0.307 8.96 4.83 11.6
4/9/2021 5:30:00 PM 14.61 58.298 0.307 8.97 4.72 11.59
4/9/2021 5:45:00 PM 14.63 58.334 0.307 8.96 5.46 11.41
4/9/2021 6:00:00 PM 14.62 58.316 0.307 8.97 5.09 11.3
4/9/2021 6:15:00 PM 14.6 58.28 0.307 8.95 4.76 11.2
4/9/2021 6:30:00 PM 14.53 58.154 0.307 8.92 5.9 11.03
4/9/2021 6:45:00 PM 14.45 58.01 0.308 8.9 5.02 10.68
4/9/2021 7:00:00 PM 14.38 57.884 0.308 8.83 5.17 10.33
4/9/2021 7:15:00 PM 14.29 57.722 0.308 8.79 5.19 10.12
4/9/2021 7:30:00 PM 14.2 57.56 0.308 8.75 4.83 9.95
4/9/2021 7:45:00 PM 14.1 57.38 0.309 8.69 5.01 9.78
4/9/2021 8:00:00 PM 14.01 57.218 0.309 8.6 4.85 9.59
4/9/2021 8:15:00 PM 13.91 57.038 0.31 8.54 5.36 9.42
4/9/2021 8:30:00 PM 13.82 56.876 0.31 8.48 4.99 9.33
4/9/2021 8:45:00 PM 13.73 56.714 0.311 8.41 5.35 9.24
4/9/2021 9:00:00 PM 13.66 56.588 0.311 8.36 5.3 9.19
4/9/2021 9:15:00 PM 13.59 56.462 0.311 8.29 5.35 9.14
4/9/2021 9:30:00 PM 13.53 56.354 0.312 8.23 5.57 9.11
4/9/2021 9:45:00 PM 13.47 56.246 0.311 8.19 5.51 9.09
4/9/2021 10:00:00 PM 13.41 56.138 0.312 8.14 5.23 9.08
4/9/2021 10:15:00 PM 13.37 56.066 0.311 8.1 5.67 9.07
4/9/2021 10:30:00 PM 13.32 55.976 0.312 8.06 5.45 9.07
4/9/2021 10:45:00 PM 13.28 55.904 0.312 8.04 5.52 9.08
4/9/2021 11:00:00 PM 13.24 55.832 0.312 8 5.16 9.05
4/9/2021 11:15:00 PM 13.19 55.742 0.312 7.97 5.12 9.06
4/9/2021 11:30:00 PM 13.14 55.652 0.312 7.95 5.31 9.09
4/9/2021 11:45:00 PM 13.09 55.562 0.313 7.92 5.2 9.08
4/10/2021 12:00:00 AM 13.04 55.472 0.313 7.9 5.13 9.09
4/10/2021 12:15:00 AM 12.99 55.382 0.313 7.87 5.8 9.08
4/10/2021 12:30:00 AM 12.94 55.292 0.313 7.86 5.45 9.1
4/10/2021 12:45:00 AM 12.88 55.184 0.314 7.83 5.17 9.08
4/10/2021 1:00:00 AM 12.83 55.094 0.314 7.83 5.73 9.11
4/10/2021 1:15:00 AM 12.78 55.004 0.314 7.81 5.7 9.14
4/10/2021 1:30:00 AM 12.73 54.914 0.314 7.8 5.48 9.14
4/10/2021 1:45:00 AM 12.68 54.824 0.314 7.79 5.82 9.15
4/10/2021 2:00:00 AM 12.64 54.752 0.315 7.78 5.63 9.16
4/10/2021 2:15:00 AM 12.6 54.68 0.315 7.77 5.36 9.15
4/10/2021 2:30:00 AM 12.54 54.572 0.315 7.76 5.57 9.15
4/10/2021 2:45:00 AM 12.49 54.482 0.315 7.76 5.52 9.21
4/10/2021 3:00:00 AM 12.44 54.392 0.315 7.75 5.51 9.19
4/10/2021 3:15:00 AM 12.39 54.302 0.316 7.75 5.67 9.09
4/10/2021 3:30:00 AM 12.35 54.23 0.316 7.72 5.21 9.21
4/10/2021 3:45:00 AM 12.3 54.14 0.317 7.74 5.66 9.25
4/10/2021 4:00:00 AM 12.25 54.05 0.316 7.74 5.39 9.26
4/10/2021 4:15:00 AM 12.2 53.96 0.316 7.73 5.46 9.27
4/10/2021 4:30:00 AM 12.15 53.87 0.317 7.74 5.65 9.3
4/10/2021 4:45:00 AM 12.1 53.78 0.317 7.74 5.58 9.31
4/10/2021 5:00:00 AM 12.05 53.69 0.317 7.71 5.85 9.31
4/10/2021 5:15:00 AM 12.01 53.618 0.317 7.73 5.85 9.32
4/10/2021 5:30:00 AM 11.97 53.546 0.318 7.74 5.5 9.36
4/10/2021 5:45:00 AM 11.92 53.456 0.318 7.74 5.84 9.37
4/10/2021 6:00:00 AM 11.88 53.384 0.318 7.73 5.64 9.37
4/10/2021 6:15:00 AM 11.83 53.294 0.319 7.73 5.88 9.38
4/10/2021 6:30:00 AM 11.79 53.222 0.318 7.73 5.53 9.37
4/10/2021 6:45:00 AM 11.75 53.15 0.318 7.72 5.45 9.34
4/10/2021 7:00:00 AM 11.72 53.096 0.319 7.73 5.28 9.41
4/10/2021 7:15:00 AM 11.69 53.042 0.319 7.74 5.44 9.45
4/10/2021 7:30:00 AM 11.67 53.006 0.318 7.76 5.61 9.53
4/10/2021 7:45:00 AM 11.66 52.988 0.319 7.74 7.11 9.61
4/10/2021 8:00:00 AM 11.66 52.988 0.318 7.8 6.03 9.83
4/10/2021 8:15:00 AM 11.67 53.006 0.318 7.83 5.72 10.04
4/10/2021 8:30:00 AM 11.7 53.06 0.319 7.89 5.08 10.28
4/10/2021 8:45:00 AM 11.74 53.132 0.318 7.95 5.28 10.55
4/10/2021 9:00:00 AM 11.8 53.24 0.318 7.99 5.18 10.79
4/10/2021 9:15:00 AM 11.87 53.366 0.317 8.06 5.45 10.99
4/10/2021 9:30:00 AM 11.96 53.528 0.316 8.12 4.86 11.21
4/10/2021 9:45:00 AM 12.07 53.726 0.316 8.21 4.97 11.4
4/10/2021 10:00:00 AM 12.24 54.032 0.316 8.27 5.61 11.58
4/10/2021 10:15:00 AM 12.42 54.356 0.316 8.37 5.15 11.73
4/10/2021 10:30:00 AM 12.65 54.77 0.315 8.43 5.16 11.84
4/10/2021 10:45:00 AM 12.9 55.22 0.318 8.47 5.81 11.94
4/10/2021 11:00:00 AM 13.26 55.868 0.316 8.52 5.09 12
4/10/2021 11:15:00 AM 13.7 56.66 0.315 8.58 5.39 12.1
4/10/2021 11:30:00 AM 14.04 57.272 0.316 8.6 4.81 12.11
4/10/2021 11:45:00 AM 14.33 57.794 0.315 8.65 4.76 12.13
4/10/2021 12:00:00 PM 14.63 58.334 0.315 8.69 8.29 12.27
4/10/2021 12:15:00 PM 14.94 58.892 0.315 8.75 5.06 12.34
4/10/2021 12:30:00 PM 15.18 59.324 0.313 8.76 5.91 12.3
4/10/2021 12:45:00 PM 15.35 59.63 0.312 8.82 4.56 12.34
4/10/2021 1:00:00 PM 15.52 59.936 0.312 8.84 4.67 11.96
4/10/2021 1:15:00 PM 15.78 60.404 0.313 8.85 4.57 12.23
4/10/2021 1:30:00 PM 16.06 60.908 0.313 8.86 4.94 12.15
4/10/2021 1:45:00 PM 16.33 61.394 0.312 8.91 4.91 12.24
4/10/2021 2:00:00 PM 16.56 61.808 0.311 8.93 5.69 12.21
4/10/2021 2:15:00 PM 16.74 62.132 0.311 8.97 4.72 12.16
4/10/2021 2:30:00 PM 16.94 62.492 0.309 9.01 4.63 12.03
4/10/2021 2:45:00 PM 17.1 62.78 0.309 8.99 5.99 11.95
4/10/2021 3:00:00 PM 17.25 63.05 0.31 9.02 4.77 11.93
4/10/2021 3:15:00 PM 17.39 63.302 0.31 9.04 4.91 11.84
4/10/2021 3:30:00 PM 17.51 63.518 0.308 9.03 6.12 11.72
4/10/2021 3:45:00 PM 17.61 63.698 0.309 9.07 4.68 11.67
4/10/2021 4:00:00 PM 17.67 63.806 0.309 9.07 4.72 11.58
4/10/2021 4:15:00 PM 17.72 63.896 0.309 9.05 5.77 11.49
4/10/2021 4:30:00 PM 17.77 63.986 0.31 9.07 6.12 11.37
4/10/2021 4:45:00 PM 17.81 64.058 0.311 9.09 4.68 11.27
4/10/2021 5:00:00 PM 17.82 64.076 0.312 9.09 5 11.15
4/10/2021 5:15:00 PM 17.81 64.058 0.313 9.1 4.6 11.06
4/10/2021 5:30:00 PM 17.76 63.968 0.313 9.09 4.57 10.95
4/10/2021 5:45:00 PM 17.69 63.842 0.313 9.08 4.75 10.8
4/10/2021 6:00:00 PM 17.59 63.662 0.312 9.06 6.24 10.61
4/10/2021 6:15:00 PM 17.49 63.482 0.312 9.04 6.48 10.48
4/10/2021 6:30:00 PM 17.37 63.266 0.311 9.04 4.72 10.32
4/10/2021 6:45:00 PM 17.26 63.068 0.31 9.02 4.79 10.13
4/10/2021 7:00:00 PM 17.15 62.87 0.31 8.98 4.9 9.92
4/10/2021 7:15:00 PM 17.02 62.636 0.308 8.93 6.21 9.68
4/10/2021 7:30:00 PM 16.91 62.438 0.309 8.89 6.38 9.44
4/10/2021 7:45:00 PM 16.79 62.222 0.309 8.84 6.53 9.2
4/10/2021 8:00:00 PM 16.66 61.988 0.309 8.81 5 8.95
4/10/2021 8:15:00 PM 16.55 61.79 0.309 8.75 5.21 8.75
4/10/2021 8:30:00 PM 16.44 61.592 0.31 8.67 6.72 8.58
4/10/2021 8:45:00 PM 16.33 61.394 0.31 8.62 5.37 8.48
4/10/2021 9:00:00 PM 16.24 61.232 0.311 8.57 5.5 8.39
4/10/2021 9:15:00 PM 16.13 61.034 0.311 8.48 6.82 8.34
4/10/2021 9:30:00 PM 16.04 60.872 0.311 8.43 6.21 8.3
4/10/2021 9:45:00 PM 15.95 60.71 0.312 8.34 6.5 8.27
4/10/2021 10:00:00 PM 15.88 60.584 0.312 8.3 6.09 8.25
4/10/2021 10:15:00 PM 15.78 60.404 0.312 8.23 6.58 8.24
4/10/2021 10:30:00 PM 15.68 60.224 0.313 8.15 6.18 8.25
4/10/2021 10:45:00 PM 15.6 60.08 0.313 8.1 7.42 8.26
4/10/2021 11:00:00 PM 15.51 59.918 0.313 8.04 7.3 8.27
4/10/2021 11:15:00 PM 15.41 59.738 0.314 8.02 6.03 8.28
4/10/2021 11:30:00 PM 15.32 59.576 0.314 7.97 6.41 8.28
4/10/2021 11:45:00 PM 15.26 59.468 0.314 7.95 6.06 8.31
4/11/2021 12:00:00 AM 15.18 59.324 0.315 7.9 7.1 8.32
4/11/2021 12:15:00 AM 15.11 59.198 0.317 7.89 6.6 8.32
4/11/2021 12:30:00 AM 15.05 59.09 0.316 7.87 6.5 8.36
4/11/2021 12:45:00 AM 14.98 58.964 0.317 7.85 5.9 8.38
4/11/2021 1:00:00 AM 14.91 58.838 0.316 7.81 12.05 8.39
4/11/2021 1:15:00 AM 14.84 58.712 0.317 7.81 19.16 8.4
4/11/2021 1:30:00 AM 14.78 58.604 0.317 7.82 8.66 8.45
4/11/2021 1:45:00 AM 14.72 58.496 0.317 7.82 6.94 8.52
4/11/2021 2:00:00 AM 14.65 58.37 0.317 7.78 8.14 8.53
4/11/2021 2:15:00 AM 14.59 58.262 0.318 7.78 6.81 8.54
4/11/2021 2:30:00 AM 14.52 58.136 0.318 7.79 6.8 8.58
4/11/2021 2:45:00 AM 14.45 58.01 0.318 7.79 6.29 8.6
4/11/2021 3:00:00 AM 14.38 57.884 0.32 7.79 6.56 8.62
4/11/2021 3:15:00 AM 14.32 57.776 0.322 7.77 6.17 8.61
4/11/2021 3:30:00 AM 14.25 57.65 0.324 7.77 6.61 8.65
4/11/2021 3:45:00 AM 14.19 57.542 0.326 7.75 7.03 8.65
4/11/2021 4:00:00 AM 14.13 57.434 0.328 7.76 8.08 8.68
4/11/2021 4:15:00 AM 14.07 57.326 0.329 7.77 6.22 8.67
4/11/2021 4:30:00 AM 14.02 57.236 0.329 7.76 6.83 8.69
4/11/2021 4:45:00 AM 13.96 57.128 0.33 7.76 7 8.71
4/11/2021 5:00:00 AM 13.89 57.002 0.329 7.76 6.52 8.7
4/11/2021 5:15:00 AM 13.84 56.912 0.329 7.76 6.95 8.73
4/11/2021 5:30:00 AM 13.78 56.804 0.329 7.76 11.26 8.72
4/11/2021 5:45:00 AM 13.72 56.696 0.328 7.77 7.53 8.78
4/11/2021 6:00:00 AM 13.67 56.606 0.327 7.76 6.61 8.76
4/11/2021 6:15:00 AM 13.62 56.516 0.325 7.76 6.53 8.76
4/11/2021 6:30:00 AM 13.57 56.426 0.323 7.76 6.43 8.82
4/11/2021 6:45:00 AM 13.51 56.318 0.323 7.76 6.6 8.79
4/11/2021 7:00:00 AM 13.46 56.228 0.321 7.76 6.63 8.77
4/11/2021 7:15:00 AM 13.41 56.138 0.319 7.76 6.3 8.81
4/11/2021 7:30:00 AM 13.37 56.066 0.318 7.76 6.33 8.8
4/11/2021 7:45:00 AM 13.33 55.994 0.317 7.76 5.91 8.87
4/11/2021 8:00:00 AM 13.29 55.922 0.316 7.76 6.22 9
4/11/2021 8:15:00 AM 13.25 55.85 0.314 7.79 6.3 9.04
4/11/2021 8:30:00 AM 13.22 55.796 0.313 7.81 6.05 9.23
4/11/2021 8:45:00 AM 13.2 55.76 0.311 7.81 5.65 9.31
4/11/2021 9:00:00 AM 13.18 55.724 0.311 7.84 5.91 9.43
4/11/2021 9:15:00 AM 13.17 55.706 0.309 7.87 5.95 9.57
4/11/2021 9:30:00 AM 13.16 55.688 0.308 7.86 7.46 9.64
4/11/2021 9:45:00 AM 13.16 55.688 0.307 7.9 5.53 9.76
4/11/2021 10:00:00 AM 13.17 55.706 0.305 7.95 5.75 9.94
4/11/2021 10:15:00 AM 13.19 55.742 0.305 7.99 6.02 10.09
4/11/2021 10:30:00 AM 13.23 55.814 0.304 8.06 5.89 10.32
4/11/2021 10:45:00 AM 13.24 55.832 0.304 8.08 5.83 10.41
4/11/2021 11:00:00 AM 13.26 55.868 0.303 8.1 5.76 10.47
4/11/2021 11:15:00 AM 13.28 55.904 0.303 8.17 6.41 10.56
4/11/2021 11:30:00 AM 13.33 55.994 0.302 8.22 5.92 10.72
4/11/2021 11:45:00 AM 13.39 56.102 0.302 8.27 5.67 10.79
4/11/2021 12:00:00 PM 13.49 56.282 0.302 8.34 5.5 10.96
4/11/2021 12:15:00 PM 13.59 56.462 0.302 8.39 5.86 11.06
4/11/2021 12:30:00 PM 13.66 56.588 0.301 8.45 5.74 11.18
4/11/2021 12:45:00 PM 13.71 56.678 0.3 8.49 6.12 11.23
4/11/2021 1:00:00 PM 13.74 56.732 0.3 8.51 6.02 11.13
4/11/2021 1:15:00 PM 13.8 56.84 0.302 8.49 6.24 11.12
4/11/2021 1:30:00 PM 13.91 57.038 0.304 8.56 6.66 11.27
4/11/2021 1:45:00 PM 14 57.2 0.308 8.61 7.03 11.34
4/11/2021 2:00:00 PM 14.06 57.308 0.315 8.6 8.34 11.26
4/11/2021 2:15:00 PM 14.2 57.56 0.321 8.65 7.55 11.34
4/11/2021 2:30:00 PM 14.37 57.866 0.326 8.7 7.56 11.43
4/11/2021 2:45:00 PM 14.44 57.992 0.329 8.69 9.53 11.38
4/11/2021 3:00:00 PM 14.49 58.082 0.332 8.7 9.46 11.32
4/11/2021 3:15:00 PM 14.62 58.316 0.334 8.75 8.39 11.27
4/11/2021 3:30:00 PM 14.77 58.586 0.336 8.79 9.16 11.27
4/11/2021 3:45:00 PM 14.87 58.766 0.34 8.8 9.94 11.22
4/11/2021 4:00:00 PM 14.88 58.784 0.345 8.78 10.81 11.03
4/11/2021 4:15:00 PM 14.89 58.802 0.347 8.78 9.95 10.94
4/11/2021 4:30:00 PM 14.89 58.802 0.343 8.76 11.77 10.8
4/11/2021 4:45:00 PM 14.87 58.766 0.335 8.72 13.58 10.63
4/11/2021 5:00:00 PM 14.84 58.712 0.327 8.71 12.77 10.41
4/11/2021 5:15:00 PM 14.81 58.658 0.32 8.66 15.87 10.23
4/11/2021 5:30:00 PM 14.81 58.658 0.312 8.61 17.16 10.17
4/11/2021 5:45:00 PM 14.78 58.604 0.305 8.59 20.69 10.05
4/11/2021 6:00:00 PM 14.72 58.496 0.298 8.52 21.84 9.91
4/11/2021 6:15:00 PM 14.65 58.37 0.291 8.45 32.5 9.8
4/11/2021 6:30:00 PM 14.57 58.226 0.287 8.37 37.17 9.69
4/11/2021 6:45:00 PM 14.47 58.046 0.287 8.31 35.67 9.61
4/11/2021 7:00:00 PM 14.38 57.884 0.29 8.25 33.85 9.54
4/11/2021 7:15:00 PM 14.3 57.74 0.295 8.19 41.05 9.48
4/11/2021 7:30:00 PM 14.2 57.56 0.3 8.13 35.88 9.45
4/11/2021 7:45:00 PM 14.12 57.416 0.303 8.08 31.26 9.42
4/11/2021 8:00:00 PM 14.04 57.272 0.304 8.03 28.57 9.41
4/11/2021 8:15:00 PM 13.95 57.11 0.302 7.99 30.34 9.4
4/11/2021 8:30:00 PM 13.85 56.93 0.3 7.96 27.11 9.38
4/11/2021 8:45:00 PM 13.76 56.768 0.299 7.93 27.67 9.38
4/11/2021 9:00:00 PM 13.66 56.588 0.301 7.9 27.43 9.38
4/11/2021 9:15:00 PM 13.57 56.426 0.307 7.88 25.11 9.38
4/11/2021 9:30:00 PM 13.49 56.282 0.314 7.87 23.37 9.39
4/11/2021 9:45:00 PM 13.4 56.12 0.321 7.85 18.88 9.39
4/11/2021 10:00:00 PM 13.31 55.958 0.325 7.84 21.57 9.4
4/11/2021 10:15:00 PM 13.23 55.814 0.327 7.84 19.67 9.42
4/11/2021 10:30:00 PM 13.17 55.706 0.326 7.82 24.31 9.42
4/11/2021 10:45:00 PM 13.11 55.598 0.324 7.81 21 9.43
4/11/2021 11:00:00 PM 13.05 55.49 0.32 7.81 19.58 9.44
4/11/2021 11:15:00 PM 13 55.4 0.317 7.8 15.59 9.45
4/11/2021 11:30:00 PM 12.94 55.292 0.311 7.8 18.24 9.48
4/11/2021 11:45:00 PM 12.88 55.184 0.308 7.8 18.51 9.49
4/12/2021 12:00:00 AM 12.82 55.076 0.305 7.79 16.87 9.51
4/12/2021 12:15:00 AM 12.76 54.968 0.303 7.79 17.44 9.52
4/12/2021 12:30:00 AM 12.71 54.878 0.303 7.77 16.82 9.52
4/12/2021 12:45:00 AM 12.64 54.752 0.303 7.78 16.94 9.54
4/12/2021 1:00:00 AM 12.57 54.626 0.302 7.76 18.16 9.54
4/12/2021 1:15:00 AM 12.49 54.482 0.301 7.78 17.4 9.57
4/12/2021 1:30:00 AM 12.4 54.32 0.303 7.77 17.55 9.6
4/12/2021 1:45:00 AM 12.32 54.176 0.306 7.77 17.98 9.59
4/12/2021 2:00:00 AM 12.25 54.05 0.307 7.76 17.86 9.61
4/12/2021 2:15:00 AM 12.19 53.942 0.307 7.77 18.65 9.62
4/12/2021 2:30:00 AM 12.13 53.834 0.306 7.76 16.38 9.64
4/12/2021 2:45:00 AM 12.06 53.708 0.305 7.76 17.07 9.67
4/12/2021 3:00:00 AM 12 53.6 0.305 7.76 18.13 9.68
4/12/2021 3:15:00 AM 11.94 53.492 0.304 7.76 16.54 9.71
4/12/2021 3:30:00 AM 11.87 53.366 0.303 7.76 16.72 9.73
4/12/2021 3:45:00 AM 11.81 53.258 0.303 7.76 17.58 9.75
4/12/2021 4:00:00 AM 11.75 53.15 0.302 7.76 20.45 9.77
4/12/2021 4:15:00 AM 11.68 53.024 0.301 7.76 17.2 9.79
4/12/2021 4:30:00 AM 11.63 52.934 0.301 7.76 17.35 9.81
4/12/2021 4:45:00 AM 11.56 52.808 0.3 7.76 17.05 9.83
4/12/2021 5:00:00 AM 11.51 52.718 0.299 7.76 18.72 9.84
4/12/2021 5:15:00 AM 11.45 52.61 0.298 7.75 18.18 9.87
4/12/2021 5:30:00 AM 11.4 52.52 0.297 7.75 17.14 9.87
4/12/2021 5:45:00 AM 11.34 52.412 0.296 7.75 17.48 9.89
4/12/2021 6:00:00 AM 11.29 52.322 0.295 7.74 17.31 9.9
4/12/2021 6:15:00 AM 11.24 52.232 0.295 7.75 17.83 9.92
4/12/2021 6:30:00 AM 11.19 52.142 0.295 7.74 17.18 9.93
4/12/2021 6:45:00 AM 11.15 52.07 0.296 7.74 16.75 9.94
4/12/2021 7:00:00 AM 11.11 51.998 0.296 7.74 16.7 9.95
4/12/2021 7:15:00 AM 11.07 51.926 0.297 7.74 15.54 9.97
4/12/2021 7:30:00 AM 11.04 51.872 0.297 7.74 13.59 10
4/12/2021 7:45:00 AM 11.02 51.836 0.297 7.74 18.02 10
4/12/2021 8:00:00 AM 11 51.8 0.296 7.77 12.19 10.11
4/12/2021 8:15:00 AM 10.98 51.764 0.296 7.79 12.22 10.17
4/12/2021 8:30:00 AM 10.96 51.728 0.295 7.8 11.34 10.21
4/12/2021 8:45:00 AM 10.95 51.71 0.295 7.82 11.25 10.28
4/12/2021 9:00:00 AM 10.97 51.746 0.294 7.86 12.4 10.42
4/12/2021 9:15:00 AM 11 51.8 0.294 7.89 17.45 10.49
4/12/2021 9:30:00 AM 11.03 51.854 0.293 7.91 30.28 10.5
4/12/2021 9:45:00 AM 11.02 51.836 0.293 7.91 33.99 10.49
4/12/2021 10:00:00 AM 11.03 51.854 0.292 7.94 23.54 10.57
4/12/2021 10:15:00 AM 11.05 51.89 0.291 7.99 14.55 10.73
4/12/2021 10:30:00 AM 11.04 51.872 0.291 7.99 14.62 10.72
4/12/2021 10:45:00 AM 11.03 51.854 0.291 7.99 24.66 10.67
4/12/2021 11:00:00 AM 11.04 51.872 0.291 7.99 23.01 10.67
4/12/2021 11:15:00 AM 11.11 51.998 0.291 8.06 14.55 10.87
4/12/2021 11:30:00 AM 11.17 52.106 0.29 8.12 12.8 10.99
4/12/2021 11:45:00 AM 11.19 52.142 0.29 8.11 17.95 10.93
4/12/2021 12:00:00 PM 11.23 52.214 0.29 8.15 14.21 11.01
4/12/2021 12:15:00 PM 11.26 52.268 0.29 8.16 11.43 10.99
4/12/2021 12:30:00 PM 11.29 52.322 0.289 8.19 10.35 11.05
4/12/2021 12:45:00 PM 11.29 52.322 0.289 8.21 9.15 11.05
4/12/2021 1:00:00 PM 11.31 52.358 0.289 8.23 9.7 11.08
4/12/2021 1:15:00 PM 11.32 52.376 0.288 8.24 9.86 11.04
4/12/2021 1:30:00 PM 11.34 52.412 0.288 8.23 9.74 11.01
4/12/2021 1:45:00 PM 11.37 52.466 0.287 8.27 9.75 11.06
4/12/2021 2:00:00 PM 11.37 52.466 0.287 8.25 9.64 11.03
4/12/2021 2:15:00 PM 11.37 52.466 0.287 8.25 14.77 10.96
4/12/2021 2:30:00 PM 11.37 52.466 0.287 8.24 24.96 10.88
4/12/2021 2:45:00 PM 11.4 52.52 0.287 8.21 37.19 10.8
4/12/2021 3:00:00 PM 11.41 52.538 0.287 8.17 50.91 10.69
4/12/2021 3:15:00 PM 11.37 52.466 0.286 8.14 39.01 10.63
4/12/2021 3:30:00 PM 11.34 52.412 0.286 8.14 29.73 10.64
4/12/2021 3:45:00 PM 11.33 52.394 0.285 8.19 17.37 10.78
4/12/2021 4:00:00 PM 11.32 52.376 0.285 8.21 12.13 10.81
4/12/2021 4:15:00 PM 11.27 52.286 0.285 8.19 10.24 10.74
4/12/2021 4:30:00 PM 11.22 52.196 0.285 8.15 9.43 10.67
4/12/2021 4:45:00 PM 11.2 52.16 0.284 8.13 8.85 10.69
4/12/2021 5:00:00 PM 11.17 52.106 0.284 8.15 8.51 10.7
4/12/2021 5:15:00 PM 11.16 52.088 0.284 8.16 8.52 10.74
4/12/2021 5:30:00 PM 11.14 52.052 0.283 8.17 8.28 10.8
4/12/2021 5:45:00 PM 11.12 52.016 0.283 8.16 7.92 10.78
4/12/2021 6:00:00 PM 11.09 51.962 0.283 8.15 8.33 10.75
4/12/2021 6:15:00 PM 11.05 51.89 0.283 8.13 7.9 10.67
4/12/2021 6:30:00 PM 11.02 51.836 0.283 8.1 7.67 10.62
4/12/2021 6:45:00 PM 10.98 51.764 0.282 8.09 8.55 10.58
4/12/2021 7:00:00 PM 10.95 51.71 0.283 8.06 10 10.53
4/12/2021 7:15:00 PM 10.91 51.638 0.282 8.04 7.95 10.49
4/12/2021 7:30:00 PM 10.88 51.584 0.282 8.01 8.25 10.45
4/12/2021 7:45:00 PM 10.84 51.512 0.282 7.99 8.55 10.41
4/12/2021 8:00:00 PM 10.8 51.44 0.282 7.96 8.76 10.37
4/12/2021 8:15:00 PM 10.75 51.35 0.281 7.94 8.42 10.34
4/12/2021 8:30:00 PM 10.71 51.278 0.281 7.92 8.73 10.31
4/12/2021 8:45:00 PM 10.67 51.206 0.28 7.9 9.47 10.3
4/12/2021 9:00:00 PM 10.63 51.134 0.28 7.89 9.28 10.29
4/12/2021 9:15:00 PM 10.59 51.062 0.28 7.85 9.26 10.28
4/12/2021 9:30:00 PM 10.55 50.99 0.28 7.86 9.22 10.27
4/12/2021 9:45:00 PM 10.5 50.9 0.28 7.85 9.67 10.26
4/12/2021 10:00:00 PM 10.45 50.81 0.278 7.84 9.9 10.28
4/12/2021 10:15:00 PM 10.41 50.738 0.278 7.8 9.93 10.27
4/12/2021 10:30:00 PM 10.36 50.648 0.278 7.82 10.24 10.29
4/12/2021 10:45:00 PM 10.31 50.558 0.278 7.81 12.23 10.29
4/12/2021 11:00:00 PM 10.26 50.468 0.277 7.81 10.64 10.32
4/12/2021 11:15:00 PM 10.21 50.378 0.277 7.78 10.28 10.32
4/12/2021 11:30:00 PM 10.17 50.306 0.277 7.8 10.03 10.32
4/12/2021 11:45:00 PM 10.12 50.216 0.277 7.77 10.63 10.34
4/13/2021 12:00:00 AM 10.08 50.144 0.276 7.8 10.54 10.36
4/13/2021 12:15:00 AM 10.04 50.072 0.277 7.77 10.44 10.38
4/13/2021 12:30:00 AM 10 50 0.276 7.79 10.45 10.39
4/13/2021 12:45:00 AM 9.97 49.946 0.276 7.79 10.34 10.4
4/13/2021 1:00:00 AM 9.93 49.874 0.276 7.79 10.27 10.42
4/13/2021 1:15:00 AM 9.89 49.802 0.276 7.78 9.86 10.42
4/13/2021 1:30:00 AM 9.86 49.748 0.276 7.78 10.74 10.43
4/13/2021 1:45:00 AM 9.82 49.676 0.275 7.78 10.24 10.43
4/13/2021 2:00:00 AM 9.79 49.622 0.275 7.78 10.24 10.44
4/13/2021 2:15:00 AM 9.76 49.568 0.275 7.78 11.81 10.45
4/13/2021 2:30:00 AM 9.73 49.514 0.275 7.78 10.16 10.46
4/13/2021 2:45:00 AM 9.69 49.442 0.275 7.78 9.79 10.48
4/13/2021 3:00:00 AM 9.66 49.388 0.275 7.78 9.79 10.49
4/13/2021 3:15:00 AM 9.63 49.334 0.275 7.75 9.76 10.5
4/13/2021 3:30:00 AM 9.6 49.28 0.275 7.78 9.89 10.51
4/13/2021 3:45:00 AM 9.57 49.226 0.275 7.78 10.22 10.53
4/13/2021 4:00:00 AM 9.55 49.19 0.276 7.77 9.64 10.52
4/13/2021 4:15:00 AM 9.52 49.136 0.276 7.78 10.17 10.53
4/13/2021 4:30:00 AM 9.49 49.082 0.277 7.77 9.43 10.54
4/13/2021 4:45:00 AM 9.46 49.028 0.277 7.78 10.04 10.56
4/13/2021 5:00:00 AM 9.44 48.992 0.278 7.78 9.31 10.56
4/13/2021 5:15:00 AM 9.41 48.938 0.279 7.77 9.56 10.57
4/13/2021 5:30:00 AM 9.38 48.884 0.279 7.74 9.32 10.57
4/13/2021 5:45:00 AM 9.36 48.848 0.279 7.77 9.7 10.58
4/13/2021 6:00:00 AM 9.33 48.794 0.279 7.77 10.35 10.59
4/13/2021 6:15:00 AM 9.32 48.776 0.279 7.78 9.46 10.6
4/13/2021 6:30:00 AM 9.29 48.722 0.28 7.78 9.31 10.6
4/13/2021 6:45:00 AM 9.27 48.686 0.279 7.78 9.71 10.62
4/13/2021 7:00:00 AM 9.25 48.65 0.28 7.76 8.96 10.63
4/13/2021 7:15:00 AM 9.23 48.614 0.279 7.78 9.32 10.65
4/13/2021 7:30:00 AM 9.21 48.578 0.279 7.78 8.98 10.68
4/13/2021 7:45:00 AM 9.2 48.56 0.279 7.78 8.97 10.71
4/13/2021 8:00:00 AM 9.18 48.524 0.28 7.8 8.59 10.75
4/13/2021 8:15:00 AM 9.18 48.524 0.28 7.82 8.28 10.82
4/13/2021 8:30:00 AM 9.18 48.524 0.281 7.83 8.47 10.91
4/13/2021 8:45:00 AM 9.18 48.524 0.281 7.82 8.27 10.99
4/13/2021 9:00:00 AM 9.2 48.56 0.281 7.88 16.29 11.08
4/13/2021 9:15:00 AM 9.23 48.614 0.281 7.88 51.98 11.01
4/13/2021 9:30:00 AM 9.27 48.686 0.281 7.9 33.38 11.15
4/13/2021 9:45:00 AM 9.3 48.74 0.281 7.95 17.82 11.33
4/13/2021 10:00:00 AM 9.34 48.812 0.28 7.99 14.1 11.43
4/13/2021 10:15:00 AM 9.39 48.902 0.281 8.02 22.13 11.47
4/13/2021 10:30:00 AM 9.44 48.992 0.28 8.05 17.48 11.57
4/13/2021 10:45:00 AM 9.48 49.064 0.28 8.08 32.19 11.54
4/13/2021 11:00:00 AM 9.55 49.19 0.28 8.08 50.53 11.53
4/13/2021 11:15:00 AM 9.66 49.388 0.279 8.15 26.45 11.71
4/13/2021 11:30:00 AM 9.82 49.676 0.278 8.24 15.79 11.87
4/13/2021 11:45:00 AM 9.98 49.964 0.278 8.29 12.36 11.94
4/13/2021 12:00:00 PM 10.18 50.324 0.278 8.35 12.51 12
4/13/2021 12:15:00 PM 10.34 50.612 0.277 8.38 13.27 12
4/13/2021 12:30:00 PM 10.56 51.008 0.278 8.44 10.7 12.02
4/13/2021 12:45:00 PM 10.78 51.404 0.277 8.47 9.43 12.03
4/13/2021 1:00:00 PM 11.31 52.358 0.278 8.54 9.11 12.05
4/13/2021 1:15:00 PM 11.52 52.736 0.277 8.56 9.17 12.01
4/13/2021 1:30:00 PM 11.71 53.078 0.277 8.6 9.32 11.98
4/13/2021 1:45:00 PM 11.83 53.294 0.277 8.59 10.3 11.97
4/13/2021 2:00:00 PM 11.97 53.546 0.277 8.65 9.83 11.91
4/13/2021 2:15:00 PM 12.06 53.708 0.276 8.68 9.65 11.82
4/13/2021 2:30:00 PM 12.07 53.726 0.277 8.64 105.28 11.76
4/13/2021 2:45:00 PM 12.11 53.798 0.277 8.68 15.45 11.67
4/13/2021 3:00:00 PM 12.1 53.78 0.277 8.69 14.06 11.6
4/13/2021 3:15:00 PM 12.07 53.726 0.276 8.68 10.59 11.46
4/13/2021 3:30:00 PM 12.11 53.798 0.276 8.7 9.26 11.44
4/13/2021 3:45:00 PM 12.16 53.888 0.277 8.71 8.26 11.39
4/13/2021 4:00:00 PM 12.22 53.996 0.276 8.73 7.81 11.38
4/13/2021 4:15:00 PM 12.25 54.05 0.276 8.73 7.47 11.31
4/13/2021 4:30:00 PM 12.31 54.158 0.276 8.73 7.24 11.26
4/13/2021 4:45:00 PM 12.4 54.32 0.276 8.76 7.26 11.28
4/13/2021 5:00:00 PM 12.43 54.374 0.275 8.73 7.12 11.17
4/13/2021 5:15:00 PM 12.46 54.428 0.276 8.71 7.05 11.11
4/13/2021 5:30:00 PM 12.55 54.59 0.276 8.74 6.84 11.15
4/13/2021 5:45:00 PM 12.61 54.698 0.276 8.75 6.88 11.16
4/13/2021 6:00:00 PM 12.61 54.698 0.276 8.74 7.13 11.11
4/13/2021 6:15:00 PM 12.59 54.662 0.276 8.69 8.63 11.05
4/13/2021 6:30:00 PM 12.56 54.608 0.276 8.66 8.14 10.98
4/13/2021 6:45:00 PM 12.53 54.554 0.276 8.67 7.31 10.91
4/13/2021 7:00:00 PM 12.47 54.446 0.277 8.63 7.34 10.8
4/13/2021 7:15:00 PM 12.39 54.302 0.278 8.57 7.55 10.67
4/13/2021 7:30:00 PM 12.3 54.14 0.278 8.49 7.38 10.54
4/13/2021 7:45:00 PM 12.21 53.978 0.278 8.42 7.22 10.42
4/13/2021 8:00:00 PM 12.12 53.816 0.278 8.34 7.33 10.31
4/13/2021 8:15:00 PM 12.03 53.654 0.279 8.26 7.91 10.22
4/13/2021 8:30:00 PM 11.94 53.492 0.279 8.18 7.52 10.16
4/13/2021 8:45:00 PM 11.85 53.33 0.28 8.11 8.04 10.11
4/13/2021 9:00:00 PM 11.76 53.168 0.279 8.05 7.81 10.07
4/13/2021 9:15:00 PM 11.66 52.988 0.28 7.99 7.81 10.04
4/13/2021 9:30:00 PM 11.56 52.808 0.28 7.95 8.02 10.03
4/13/2021 9:45:00 PM 11.47 52.646 0.28 7.9 8.04 10.03
4/13/2021 10:00:00 PM 11.37 52.466 0.28 7.88 7.92 10.03
4/13/2021 10:15:00 PM 11.27 52.286 0.28 7.84 8.63 10.03
4/13/2021 10:30:00 PM 11.16 52.088 0.281 7.82 8.52 10.04
4/13/2021 10:45:00 PM 11.07 51.926 0.28 7.81 7.91 10.06
4/13/2021 11:00:00 PM 10.98 51.764 0.281 7.79 8.87 10.07
4/13/2021 11:15:00 PM 10.88 51.584 0.281 7.77 8.2 10.08
4/13/2021 11:30:00 PM 10.77 51.386 0.281 7.75 8.29 10.09
4/13/2021 11:45:00 PM 10.68 51.224 0.281 7.75 8.09 10.12
4/14/2021 12:00:00 AM 10.59 51.062 0.282 7.74 7.57 10.13
4/14/2021 12:15:00 AM 10.5 50.9 0.282 7.74 7.92 10.17
4/14/2021 12:30:00 AM 10.39 50.702 0.281 7.73 8.39 10.2
4/14/2021 12:45:00 AM 10.28 50.504 0.282 7.7 8.34 10.22
4/14/2021 1:00:00 AM 10.19 50.342 0.283 7.71 8.5 10.24
4/14/2021 1:15:00 AM 10.08 50.144 0.283 7.7 8.21 10.26
4/14/2021 1:30:00 AM 9.99 49.982 0.283 7.7 8.55 10.31
4/14/2021 1:45:00 AM 9.9 49.82 0.283 7.71 8.09 10.34
4/14/2021 2:00:00 AM 9.81 49.658 0.284 7.7 8.42 10.34
4/14/2021 2:15:00 AM 9.74 49.532 0.283 7.7 8.81 10.38
4/14/2021 2:30:00 AM 9.68 49.424 0.284 7.7 9.19 10.4
4/14/2021 2:45:00 AM 9.62 49.316 0.283 7.71 9.21 10.44
4/14/2021 3:00:00 AM 9.55 49.19 0.284 7.7 8.87 10.44
4/14/2021 3:15:00 AM 9.48 49.064 0.284 7.7 9.59 10.47
4/14/2021 3:30:00 AM 9.43 48.974 0.284 7.68 8.58 10.48
4/14/2021 3:45:00 AM 9.37 48.866 0.284 7.7 8.46 10.5
4/14/2021 4:00:00 AM 9.3 48.74 0.284 7.71 8.6 10.53
4/14/2021 4:15:00 AM 9.25 48.65 0.284 7.71 7.83 10.55
4/14/2021 4:30:00 AM 9.2 48.56 0.284 7.71 8.35 10.55
4/14/2021 4:45:00 AM 9.14 48.452 0.284 7.71 9.01 10.58
4/14/2021 5:00:00 AM 9.1 48.38 0.284 7.71 9.68 10.59
4/14/2021 5:15:00 AM 9.04 48.272 0.284 7.71 9.54 10.61
4/14/2021 5:30:00 AM 9 48.2 0.284 7.72 9.79 10.64
4/14/2021 5:45:00 AM 8.96 48.128 0.285 7.71 9.45 10.63
4/14/2021 6:00:00 AM 8.93 48.074 0.286 7.71 8.66 10.64
4/14/2021 6:15:00 AM 8.89 48.002 0.286 7.71 8.46 10.65
4/14/2021 6:30:00 AM 8.86 47.948 0.286 7.7 8.5 10.67
4/14/2021 6:45:00 AM 8.82 47.876 0.285 7.72 7.73 10.68
4/14/2021 7:00:00 AM 8.79 47.822 0.286 7.72 7.41 10.71
4/14/2021 7:15:00 AM 8.76 47.768 0.286 7.7 8.01 10.78
4/14/2021 7:30:00 AM 8.75 47.75 0.286 7.73 8.02 10.85
4/14/2021 7:45:00 AM 8.73 47.714 0.285 7.77 7.44 11
4/14/2021 8:00:00 AM 8.73 47.714 0.285 7.8 7.42 11.13
4/14/2021 8:15:00 AM 8.75 47.75 0.285 7.81 7.1 11.26
4/14/2021 8:30:00 AM 8.76 47.768 0.285 7.87 7.45 11.42
4/14/2021 8:45:00 AM 8.8 47.84 0.285 7.91 7.04 11.57
4/14/2021 9:00:00 AM 8.86 47.948 0.286 7.96 6.83 11.71
4/14/2021 9:15:00 AM 9 48.2 0.286 8.03 6.44 11.85
4/14/2021 9:30:00 AM 9.13 48.434 0.286 8.09 6.55 11.95
4/14/2021 9:45:00 AM 9.3 48.74 0.286 8.13 6.12 12.03
4/14/2021 10:00:00 AM 9.44 48.992 0.286 8.18 6.35 12.09
4/14/2021 10:15:00 AM 9.55 49.19 0.286 8.22 6.04 12.12
4/14/2021 10:30:00 AM 9.82 49.676 0.285 8.28 6.34 12.2
4/14/2021 10:45:00 AM 10.06 50.108 0.285 8.35 6.01 12.22
4/14/2021 11:00:00 AM 10.29 50.522 0.284 8.39 5.83 12.27
4/14/2021 11:15:00 AM 10.63 51.134 0.283 8.43 5.65 12.27
4/14/2021 11:30:00 AM 10.92 51.656 0.282 8.5 5.87 12.27
4/14/2021 11:45:00 AM 11.25 52.25 0.28 8.55 5.66 12.27
4/14/2021 12:00:00 PM 11.53 52.754 0.28 8.58 5.93 12.25
4/14/2021 12:15:00 PM 11.6 52.88 0.28 8.58 5.98 12.15
4/14/2021 12:30:00 PM 11.61 52.898 0.279 8.59 5.8 12.05
4/14/2021 12:45:00 PM 11.79 53.222 0.28 8.62 6.03 12.01
4/14/2021 1:00:00 PM 12.03 53.654 0.279 8.66 6.31 11.95
4/14/2021 1:15:00 PM 12.12 53.816 0.279 8.66 8.79 11.88
4/14/2021 1:30:00 PM 12.18 53.924 0.28 8.7 6.33 11.88
4/14/2021 1:45:00 PM 12.31 54.158 0.28 8.74 6.61 11.86
4/14/2021 2:00:00 PM 12.38 54.284 0.28 8.76 6.33 11.84
4/14/2021 2:15:00 PM 12.44 54.392 0.281 8.78 6.24 11.8
4/14/2021 2:30:00 PM 12.52 54.536 0.281 8.81 6.59 11.75
4/14/2021 2:45:00 PM 12.63 54.734 0.28 8.83 6.23 11.68
4/14/2021 3:00:00 PM 12.79 55.022 0.28 8.86 6.6 11.68
4/14/2021 3:15:00 PM 13.07 55.526 0.28 8.89 5.94 11.65
4/14/2021 3:30:00 PM 13.25 55.85 0.28 8.92 5.89 11.59
4/14/2021 3:45:00 PM 13.48 56.264 0.281 8.94 6.09 11.55
4/14/2021 4:00:00 PM 13.72 56.696 0.281 8.97 5.96 11.51
4/14/2021 4:15:00 PM 13.82 56.876 0.282 8.97 5.98 11.37
4/14/2021 4:30:00 PM 13.94 57.092 0.281 8.97 6.2 11.23
4/14/2021 4:45:00 PM 14.05 57.29 0.281 8.98 5.73 11.18
4/14/2021 5:00:00 PM 14.13 57.434 0.281 8.97 14.86 11.06
4/14/2021 5:15:00 PM 14.18 57.524 0.281 8.96 8.52 11.08
4/14/2021 5:30:00 PM 14.18 57.524 0.281 8.98 6.15 11
4/14/2021 5:45:00 PM 14.18 57.524 0.28 8.97 5.83 10.84
4/14/2021 6:00:00 PM 14.19 57.542 0.281 8.94 5.9 10.67
4/14/2021 6:15:00 PM 14.21 57.578 0.281 8.91 5.87 10.47
4/14/2021 6:30:00 PM 14.2 57.56 0.281 8.88 5.86 10.32
4/14/2021 6:45:00 PM 14.14 57.452 0.282 8.83 5.89 10.19
4/14/2021 7:00:00 PM 14.05 57.29 0.282 8.79 5.61 10.11
4/14/2021 7:15:00 PM 13.97 57.146 0.282 8.7 9.81 9.92
4/14/2021 7:30:00 PM 13.87 56.966 0.283 8.65 5.88 9.81
4/14/2021 7:45:00 PM 13.79 56.822 0.284 8.58 6.12 9.71
4/14/2021 8:00:00 PM 13.71 56.678 0.284 8.51 6.26 9.6
4/14/2021 8:15:00 PM 13.63 56.534 0.284 8.43 6.44 9.53
4/14/2021 8:30:00 PM 13.54 56.372 0.285 8.34 6.69 9.48
4/14/2021 8:45:00 PM 13.43 56.174 0.285 8.24 6.64 9.43
4/14/2021 9:00:00 PM 13.34 56.012 0.286 8.17 6.84 9.4
4/14/2021 9:15:00 PM 13.24 55.832 0.286 8.1 7.45 9.4
4/14/2021 9:30:00 PM 13.14 55.652 0.286 8.04 7.49 9.41
4/14/2021 9:45:00 PM 13.01 55.418 0.286 7.98 7.69 9.4
4/14/2021 10:00:00 PM 12.89 55.202 0.286 7.94 8.61 9.41
4/14/2021 10:15:00 PM 12.79 55.022 0.287 7.9 7.85 9.42
4/14/2021 10:30:00 PM 12.68 54.824 0.288 7.87 7.45 9.43
4/14/2021 10:45:00 PM 12.56 54.608 0.288 7.85 7.49 9.45
4/14/2021 11:00:00 PM 12.44 54.392 0.289 7.82 7.67 9.48
4/14/2021 11:15:00 PM 12.32 54.176 0.288 7.81 7.53 9.51
4/14/2021 11:30:00 PM 12.19 53.942 0.288 7.79 7.54 9.55
4/14/2021 11:45:00 PM 12.1 53.78 0.29 7.77 7.35 9.54
4/15/2021 12:00:00 AM 12 53.6 0.289 7.77 7.8 9.58
4/15/2021 12:15:00 AM 11.9 53.42 0.289 7.73 8.32 9.59
4/15/2021 12:30:00 AM 11.81 53.258 0.289 7.76 7.61 9.63
4/15/2021 12:45:00 AM 11.71 53.078 0.29 7.73 7.3 9.64
4/15/2021 1:00:00 AM 11.62 52.916 0.29 7.74 7.11 9.67
4/15/2021 1:15:00 AM 11.51 52.718 0.29 7.74 7.44 9.71
4/15/2021 1:30:00 AM 11.43 52.574 0.29 7.73 7.18 9.72
4/15/2021 1:45:00 AM 11.33 52.394 0.29 7.73 7.26 9.75
4/15/2021 2:00:00 AM 11.24 52.232 0.29 7.73 7.06 9.77
4/15/2021 2:15:00 AM 11.12 52.016 0.289 7.72 8.92 9.8
4/15/2021 2:30:00 AM 11.02 51.836 0.29 7.7 6.89 9.82
4/15/2021 2:45:00 AM 10.91 51.638 0.29 7.71 7.87 9.85
4/15/2021 3:00:00 AM 10.83 51.494 0.289 7.72 6.85 9.88
4/15/2021 3:15:00 AM 10.74 51.332 0.29 7.72 7.78 9.89
4/15/2021 3:30:00 AM 10.66 51.188 0.29 7.72 6.79 9.92
4/15/2021 3:45:00 AM 10.57 51.026 0.29 7.72 6.93 9.95
4/15/2021 4:00:00 AM 10.5 50.9 0.289 7.72 7.63 9.97
4/15/2021 4:15:00 AM 10.43 50.774 0.29 7.72 7.21 9.99
4/15/2021 4:30:00 AM 10.35 50.63 0.291 7.71 7.02 10
4/15/2021 4:45:00 AM 10.27 50.486 0.29 7.71 7 10.01
4/15/2021 5:00:00 AM 10.18 50.324 0.291 7.7 7.41 10.02
4/15/2021 5:15:00 AM 10.1 50.18 0.291 7.71 7.68 10.07
4/15/2021 5:30:00 AM 10.04 50.072 0.29 7.72 7.74 10.09
4/15/2021 5:45:00 AM 9.97 49.946 0.291 7.71 7.33 10.09
4/15/2021 6:00:00 AM 9.91 49.838 0.292 7.71 7.65 10.12
4/15/2021 6:15:00 AM 9.85 49.73 0.292 7.72 7.13 10.13
4/15/2021 6:30:00 AM 9.79 49.622 0.293 7.72 6.99 10.16
4/15/2021 6:45:00 AM 9.74 49.532 0.293 7.73 7.08 10.19
4/15/2021 7:00:00 AM 9.69 49.442 0.293 7.73 6.83 10.21
4/15/2021 7:15:00 AM 9.64 49.352 0.294 7.73 7.68 10.25
4/15/2021 7:30:00 AM 9.6 49.28 0.294 7.74 6.57 10.3
4/15/2021 7:45:00 AM 9.56 49.208 0.294 7.76 7.02 10.41
4/15/2021 8:00:00 AM 9.53 49.154 0.293 7.77 6.81 10.52
4/15/2021 8:15:00 AM 9.5 49.1 0.294 7.79 6.33 10.6
4/15/2021 8:30:00 AM 9.44 48.992 0.293 7.8 6.07 10.63
4/15/2021 8:45:00 AM 9.39 48.902 0.292 7.81 6.14 10.67
4/15/2021 9:00:00 AM 9.36 48.848 0.292 7.83 6.09 10.73
4/15/2021 9:15:00 AM 9.32 48.776 0.292 7.84 6.19 10.81
4/15/2021 9:30:00 AM 9.27 48.686 0.291 7.85 6.21 10.88
4/15/2021 9:45:00 AM 9.23 48.614 0.291 7.88 6.46 10.97
4/15/2021 10:00:00 AM 9.19 48.542 0.292 7.88 5.98 11.02
4/15/2021 10:15:00 AM 9.15 48.47 0.291 7.93 6.46 11.16
4/15/2021 10:30:00 AM 9.12 48.416 0.291 7.97 6.18 11.33
4/15/2021 10:45:00 AM 9.11 48.398 0.291 7.99 6.14 11.48
4/15/2021 11:00:00 AM 9.11 48.398 0.291 8.07 6 11.62
4/15/2021 11:15:00 AM 9.13 48.434 0.291 8.11 6.1 11.78
4/15/2021 11:30:00 AM 9.15 48.47 0.29 8.18 5.74 11.9
4/15/2021 11:45:00 AM 9.15 48.47 0.29 8.22 6.18 11.92
4/15/2021 12:00:00 PM 9.11 48.398 0.29 8.21 6.01 11.85
4/15/2021 12:15:00 PM 9.08 48.344 0.29 8.21 6.11 11.79
4/15/2021 12:30:00 PM 9.11 48.398 0.29 8.23 5.9 11.84
4/15/2021 12:45:00 PM 9.22 48.596 0.29 8.31 6.34 12
4/15/2021 1:00:00 PM 9.27 48.686 0.29 8.36 6.17 12.1
4/15/2021 1:15:00 PM 9.18 48.524 0.291 8.32 7 11.97
4/15/2021 1:30:00 PM 9.14 48.452 0.29 8.33 6.22 11.91
4/15/2021 1:45:00 PM 9.11 48.398 0.292 8.33 6.93 11.9
4/15/2021 2:00:00 PM 9.11 48.398 0.295 8.34 9.03 11.94
4/15/2021 2:15:00 PM 9.12 48.416 0.296 8.41 7.23 12.05
4/15/2021 2:30:00 PM 9.1 48.38 0.297 8.42 6.88 12.07
4/15/2021 2:45:00 PM 9.06 48.308 0.297 8.45 6.54 12.11
4/15/2021 3:00:00 PM 9.03 48.254 0.296 8.47 6.56 12.13
4/15/2021 3:15:00 PM 9.01 48.218 0.294 8.48 6.54 12.12
4/15/2021 3:30:00 PM 9.01 48.218 0.293 8.51 6.05 12.1
4/15/2021 3:45:00 PM 9 48.2 0.292 8.53 5.97 12.1
4/15/2021 4:00:00 PM 8.97 48.146 0.291 8.54 6.24 12.06
4/15/2021 4:15:00 PM 8.93 48.074 0.291 8.51 6.03 11.98
4/15/2021 4:30:00 PM 8.87 47.966 0.29 8.48 6.14 11.85
4/15/2021 4:45:00 PM 8.85 47.93 0.289 8.5 6.45 11.85
4/15/2021 5:00:00 PM 8.83 47.894 0.288 8.5 6.62 11.85
4/15/2021 5:15:00 PM 8.83 47.894 0.288 8.52 6.36 11.91
4/15/2021 5:30:00 PM 8.82 47.876 0.287 8.54 6.59 11.94
4/15/2021 5:45:00 PM 8.82 47.876 0.287 8.53 6.39 11.97
4/15/2021 6:00:00 PM 8.8 47.84 0.286 8.56 6.24 12.01
4/15/2021 6:15:00 PM 8.77 47.786 0.286 8.55 6.51 11.97
4/15/2021 6:30:00 PM 8.75 47.75 0.285 8.57 6.49 11.95
4/15/2021 6:45:00 PM 8.73 47.714 0.284 8.55 7.09 11.89
4/15/2021 7:00:00 PM 8.7 47.66 0.284 8.53 6.63 11.85
4/15/2021 7:15:00 PM 8.66 47.588 0.284 8.5 6.21 11.84
4/15/2021 7:30:00 PM 8.6 47.48 0.283 8.48 6.76 11.71
4/15/2021 7:45:00 PM 8.52 47.336 0.283 8.43 6.35 11.6
4/15/2021 8:00:00 PM 8.42 47.156 0.283 8.36 6.23 11.44
4/15/2021 8:15:00 PM 8.32 46.976 0.283 8.29 6.73 11.31
4/15/2021 8:30:00 PM 8.23 46.814 0.283 8.24 6.29 11.21
4/15/2021 8:45:00 PM 8.14 46.652 0.283 8.17 6.53 11.13
4/15/2021 9:00:00 PM 8.04 46.472 0.284 8.12 6.63 11.08
4/15/2021 9:15:00 PM 7.96 46.328 0.284 8.07 7.11 11.04
4/15/2021 9:30:00 PM 7.9 46.22 0.284 8.04 6.5 11.03
4/15/2021 9:45:00 PM 7.85 46.13 0.285 8.01 6.83 11.01
4/15/2021 10:00:00 PM 7.8 46.04 0.285 7.98 6.45 11
4/15/2021 10:15:00 PM 7.75 45.95 0.286 7.94 6.6 10.98
4/15/2021 10:30:00 PM 7.7 45.86 0.286 7.93 7.23 10.98
4/15/2021 10:45:00 PM 7.65 45.77 0.287 7.91 6.31 10.97
4/15/2021 11:00:00 PM 7.6 45.68 0.287 7.89 6.62 10.97
4/15/2021 11:15:00 PM 7.55 45.59 0.287 7.87 6.73 10.97
4/15/2021 11:30:00 PM 7.5 45.5 0.287 7.86 6.95 10.97
4/15/2021 11:45:00 PM 7.43 45.374 0.287 7.85 6.69 10.99
4/16/2021 12:00:00 AM 7.38 45.284 0.289 7.83 7.23 10.97
4/16/2021 12:15:00 AM 7.32 45.176 0.288 7.83 6.86 11
4/16/2021 12:30:00 AM 7.26 45.068 0.288 7.82 7.94 11.01
4/16/2021 12:45:00 AM 7.2 44.96 0.288 7.82 7.13 11.03
4/16/2021 1:00:00 AM 7.15 44.87 0.288 7.81 7.56 11.04
4/16/2021 1:15:00 AM 7.1 44.78 0.288 7.81 7.34 11.06
4/16/2021 1:30:00 AM 7.05 44.69 0.288 7.8 7.38 11.07
4/16/2021 1:45:00 AM 7 44.6 0.289 7.8 7.51 11.07
4/16/2021 2:00:00 AM 6.96 44.528 0.289 7.79 6.97 11.09
4/16/2021 2:15:00 AM 6.93 44.474 0.289 7.8 7.12 11.1
4/16/2021 2:30:00 AM 6.89 44.402 0.289 7.79 6.76 11.11
4/16/2021 2:45:00 AM 6.86 44.348 0.289 7.8 6.81 11.12
4/16/2021 3:00:00 AM 6.82 44.276 0.289 7.76 7.29 11.13
4/16/2021 3:15:00 AM 6.79 44.222 0.289 7.79 7.09 11.15
4/16/2021 3:30:00 AM 6.75 44.15 0.29 7.79 7.03 11.15
4/16/2021 3:45:00 AM 6.72 44.096 0.29 7.79 7.16 11.16
4/16/2021 4:00:00 AM 6.69 44.042 0.291 7.79 6.9 11.17
4/16/2021 4:15:00 AM 6.66 43.988 0.291 7.78 6.73 11.18
4/16/2021 4:30:00 AM 6.62 43.916 0.291 7.78 6.37 11.2
4/16/2021 4:45:00 AM 6.59 43.862 0.291 7.79 6.41 11.21
4/16/2021 5:00:00 AM 6.55 43.79 0.291 7.79 6.48 11.22
4/16/2021 5:15:00 AM 6.53 43.754 0.291 7.79 6.66 11.22
4/16/2021 5:30:00 AM 6.48 43.664 0.29 7.78 6.53 11.25
4/16/2021 5:45:00 AM 6.44 43.592 0.29 7.78 7.35 11.24
4/16/2021 6:00:00 AM 6.41 43.538 0.29 7.75 6.53 11.25
4/16/2021 6:15:00 AM 6.36 43.448 0.29 7.77 6.34 11.25
4/16/2021 6:30:00 AM 6.28 43.304 0.289 7.77 6.66 11.29
4/16/2021 6:45:00 AM 6.22 43.196 0.289 7.77 7 11.31
4/16/2021 7:00:00 AM 6.19 43.142 0.289 7.78 6.55 11.32
4/16/2021 7:15:00 AM 6.16 43.088 0.288 7.78 7.01 11.37
4/16/2021 7:30:00 AM 6.14 43.052 0.287 7.8 6.61 11.45
4/16/2021 7:45:00 AM 6.13 43.034 0.287 7.82 7.09 11.57
4/16/2021 8:00:00 AM 6.13 43.034 0.287 7.84 6.95 11.66
4/16/2021 8:15:00 AM 6.13 43.034 0.287 7.86 8.13 11.7
4/16/2021 8:30:00 AM 6.14 43.052 0.287 7.88 6.59 11.79
4/16/2021 8:45:00 AM 6.15 43.07 0.287 7.9 7 11.89
4/16/2021 9:00:00 AM 6.18 43.124 0.288 7.94 7.45 12.05
4/16/2021 9:15:00 AM 6.19 43.142 0.289 7.95 8.11 12.16
4/16/2021 9:30:00 AM 6.2 43.16 0.292 8 7.42 12.22
4/16/2021 9:45:00 AM 6.2 43.16 0.294 8.03 8.33 12.29
4/16/2021 10:00:00 AM 6.21 43.178 0.296 8.05 8.42 12.33
4/16/2021 10:15:00 AM 6.22 43.196